<?xml version="1.0" encoding="utf-8"?>
<gpx xmlns:xsi="http://www.w3.org/2001/XMLSchema-instance" xmlns:xsd="http://www.w3.org/2001/XMLSchema" version="1.1" creator="Shapelink.com" xmlns="http://www.topografix.com/GPX/1/1" xmlns:gpxtpx="http://www.garmin.com/xmlschemas/TrackPointExtension/v1">
  <metadata>
    <name>Løping 4.19 km, 2014-05-06</name>
    <desc></desc>
    <author><name>Mikael Blom</name></author> 
    <time>2014-05-06T18:23:56Z</time>
  </metadata>
  <trk>
    <name>Løping 4.19 km, 2014-05-06</name>
    <trkseg>
      <trkpt lat="59.981803" lon="17.7383116">
        <ele>50.6066</ele>
        <time>2014-05-06T18:23:56Z</time>
      </trkpt>
      <trkpt lat="59.981823" lon="17.7382981">
        <ele>50.6066</ele>
        <time>2014-05-06T18:23:57Z</time>
      </trkpt>
      <trkpt lat="59.98185" lon="17.7382844">
        <ele>50.6066</ele>
        <time>2014-05-06T18:23:58Z</time>
      </trkpt>
      <trkpt lat="59.9818806" lon="17.7382722">
        <ele>50.6066</ele>
        <time>2014-05-06T18:23:59Z</time>
      </trkpt>
      <trkpt lat="59.9819129" lon="17.7382518">
        <ele>50.6066</ele>
        <time>2014-05-06T18:24:00Z</time>
      </trkpt>
      <trkpt lat="59.9819482" lon="17.7382379">
        <ele>49.6453</ele>
        <time>2014-05-06T18:24:01Z</time>
      </trkpt>
      <trkpt lat="59.9819738" lon="17.7382296">
        <ele>49.1646</ele>
        <time>2014-05-06T18:24:02Z</time>
      </trkpt>
      <trkpt lat="59.9820004" lon="17.7382171">
        <ele>49.1646</ele>
        <time>2014-05-06T18:24:03Z</time>
      </trkpt>
      <trkpt lat="59.9820227" lon="17.7382018">
        <ele>49.6453</ele>
        <time>2014-05-06T18:24:04Z</time>
      </trkpt>
      <trkpt lat="59.9820463" lon="17.7381866">
        <ele>49.6453</ele>
        <time>2014-05-06T18:24:05Z</time>
      </trkpt>
      <trkpt lat="59.9820748" lon="17.7381706">
        <ele>50.126</ele>
        <time>2014-05-06T18:24:06Z</time>
      </trkpt>
      <trkpt lat="59.9821032" lon="17.7381671">
        <ele>51.0872</ele>
        <time>2014-05-06T18:24:07Z</time>
      </trkpt>
      <trkpt lat="59.9821336" lon="17.7381632">
        <ele>51.0872</ele>
        <time>2014-05-06T18:24:08Z</time>
      </trkpt>
      <trkpt lat="59.982169" lon="17.7381493">
        <ele>53.0098</ele>
        <time>2014-05-06T18:24:09Z</time>
      </trkpt>
      <trkpt lat="59.9822082" lon="17.7381344">
        <ele>54.4518</ele>
        <time>2014-05-06T18:24:10Z</time>
      </trkpt>
      <trkpt lat="59.9822451" lon="17.7381241">
        <ele>54.4518</ele>
        <time>2014-05-06T18:24:11Z</time>
      </trkpt>
      <trkpt lat="59.9822783" lon="17.7381207">
        <ele>53.9712</ele>
        <time>2014-05-06T18:24:12Z</time>
      </trkpt>
      <trkpt lat="59.9823103" lon="17.7381089">
        <ele>53.9712</ele>
        <time>2014-05-06T18:24:13Z</time>
      </trkpt>
      <trkpt lat="59.9823407" lon="17.7380934">
        <ele>53.0098</ele>
        <time>2014-05-06T18:24:14Z</time>
      </trkpt>
      <trkpt lat="59.9823719" lon="17.7380785">
        <ele>52.5292</ele>
        <time>2014-05-06T18:24:15Z</time>
      </trkpt>
      <trkpt lat="59.9824026" lon="17.7380587">
        <ele>52.0486</ele>
        <time>2014-05-06T18:24:16Z</time>
      </trkpt>
      <trkpt lat="59.9824384" lon="17.738055">
        <ele>51.5679</ele>
        <time>2014-05-06T18:24:17Z</time>
      </trkpt>
      <trkpt lat="59.9824704" lon="17.7380469">
        <ele>51.5679</ele>
        <time>2014-05-06T18:24:18Z</time>
      </trkpt>
      <trkpt lat="59.9824937" lon="17.7380364">
        <ele>50.126</ele>
        <time>2014-05-06T18:24:19Z</time>
      </trkpt>
      <trkpt lat="59.982516" lon="17.7380225">
        <ele>50.6066</ele>
        <time>2014-05-06T18:24:20Z</time>
      </trkpt>
      <trkpt lat="59.9825398" lon="17.7380154">
        <ele>50.6066</ele>
        <time>2014-05-06T18:24:21Z</time>
      </trkpt>
      <trkpt lat="59.9825662" lon="17.738022">
        <ele>51.0872</ele>
        <time>2014-05-06T18:24:22Z</time>
      </trkpt>
      <trkpt lat="59.9825937" lon="17.7380271">
        <ele>50.6066</ele>
        <time>2014-05-06T18:24:23Z</time>
      </trkpt>
      <trkpt lat="59.9826237" lon="17.7380288">
        <ele>50.6066</ele>
        <time>2014-05-06T18:24:24Z</time>
      </trkpt>
      <trkpt lat="59.9826547" lon="17.7380384">
        <ele>51.0872</ele>
        <time>2014-05-06T18:24:25Z</time>
      </trkpt>
      <trkpt lat="59.9826772" lon="17.7380441">
        <ele>50.6066</ele>
        <time>2014-05-06T18:24:26Z</time>
      </trkpt>
      <trkpt lat="59.9827077" lon="17.7380483">
        <ele>51.0872</ele>
        <time>2014-05-06T18:24:27Z</time>
      </trkpt>
      <trkpt lat="59.9827391" lon="17.738053">
        <ele>50.6066</ele>
        <time>2014-05-06T18:24:28Z</time>
      </trkpt>
      <trkpt lat="59.9827689" lon="17.7380546">
        <ele>51.0872</ele>
        <time>2014-05-06T18:24:29Z</time>
      </trkpt>
      <trkpt lat="59.9827958" lon="17.7380577">
        <ele>51.0872</ele>
        <time>2014-05-06T18:24:30Z</time>
      </trkpt>
      <trkpt lat="59.9828231" lon="17.7380656">
        <ele>51.0872</ele>
        <time>2014-05-06T18:24:31Z</time>
      </trkpt>
      <trkpt lat="59.9828548" lon="17.7380703">
        <ele>50.6066</ele>
        <time>2014-05-06T18:24:32Z</time>
      </trkpt>
      <trkpt lat="59.9828819" lon="17.7380753">
        <ele>49.6453</ele>
        <time>2014-05-06T18:24:33Z</time>
      </trkpt>
      <trkpt lat="59.9829071" lon="17.7380796">
        <ele>49.1646</ele>
        <time>2014-05-06T18:24:34Z</time>
      </trkpt>
      <trkpt lat="59.9829361" lon="17.738078">
        <ele>49.1646</ele>
        <time>2014-05-06T18:24:35Z</time>
      </trkpt>
      <trkpt lat="59.9829613" lon="17.7380737">
        <ele>49.6453</ele>
        <time>2014-05-06T18:24:36Z</time>
      </trkpt>
      <trkpt lat="59.9829878" lon="17.7380754">
        <ele>49.6453</ele>
        <time>2014-05-06T18:24:37Z</time>
      </trkpt>
      <trkpt lat="59.9830154" lon="17.7380764">
        <ele>49.6453</ele>
        <time>2014-05-06T18:24:38Z</time>
      </trkpt>
      <trkpt lat="59.9830346" lon="17.7380817">
        <ele>49.1646</ele>
        <time>2014-05-06T18:24:39Z</time>
      </trkpt>
      <trkpt lat="59.9830557" lon="17.73808">
        <ele>49.1646</ele>
        <time>2014-05-06T18:24:40Z</time>
      </trkpt>
      <trkpt lat="59.9830802" lon="17.7380731">
        <ele>49.1646</ele>
        <time>2014-05-06T18:24:41Z</time>
      </trkpt>
      <trkpt lat="59.9831138" lon="17.7380712">
        <ele>49.6453</ele>
        <time>2014-05-06T18:24:42Z</time>
      </trkpt>
      <trkpt lat="59.9831473" lon="17.7380726">
        <ele>49.6453</ele>
        <time>2014-05-06T18:24:43Z</time>
      </trkpt>
      <trkpt lat="59.9831832" lon="17.7380668">
        <ele>50.6066</ele>
        <time>2014-05-06T18:24:44Z</time>
      </trkpt>
      <trkpt lat="59.9832148" lon="17.738064">
        <ele>50.126</ele>
        <time>2014-05-06T18:24:45Z</time>
      </trkpt>
      <trkpt lat="59.9832432" lon="17.7380645">
        <ele>50.6066</ele>
        <time>2014-05-06T18:24:46Z</time>
      </trkpt>
      <trkpt lat="59.9832623" lon="17.7380604">
        <ele>49.1646</ele>
        <time>2014-05-06T18:24:47Z</time>
      </trkpt>
      <trkpt lat="59.9832846" lon="17.7380584">
        <ele>49.1646</ele>
        <time>2014-05-06T18:24:48Z</time>
      </trkpt>
      <trkpt lat="59.9833055" lon="17.7380549">
        <ele>49.6453</ele>
        <time>2014-05-06T18:24:49Z</time>
      </trkpt>
      <trkpt lat="59.9833284" lon="17.7380443">
        <ele>49.6453</ele>
        <time>2014-05-06T18:24:50Z</time>
      </trkpt>
      <trkpt lat="59.9833573" lon="17.738027">
        <ele>49.6453</ele>
        <time>2014-05-06T18:24:51Z</time>
      </trkpt>
      <trkpt lat="59.9833842" lon="17.7380166">
        <ele>49.1646</ele>
        <time>2014-05-06T18:24:52Z</time>
      </trkpt>
      <trkpt lat="59.9834156" lon="17.7380048">
        <ele>49.6453</ele>
        <time>2014-05-06T18:24:53Z</time>
      </trkpt>
      <trkpt lat="59.9834438" lon="17.7379992">
        <ele>49.6453</ele>
        <time>2014-05-06T18:24:54Z</time>
      </trkpt>
      <trkpt lat="59.9834744" lon="17.7379894">
        <ele>50.126</ele>
        <time>2014-05-06T18:24:55Z</time>
      </trkpt>
      <trkpt lat="59.9835019" lon="17.7379816">
        <ele>50.126</ele>
        <time>2014-05-06T18:24:56Z</time>
      </trkpt>
      <trkpt lat="59.9835249" lon="17.7379753">
        <ele>49.6453</ele>
        <time>2014-05-06T18:24:57Z</time>
      </trkpt>
      <trkpt lat="59.9835505" lon="17.7379676">
        <ele>49.6453</ele>
        <time>2014-05-06T18:24:58Z</time>
      </trkpt>
      <trkpt lat="59.9835804" lon="17.7379632">
        <ele>49.6453</ele>
        <time>2014-05-06T18:24:59Z</time>
      </trkpt>
      <trkpt lat="59.9836136" lon="17.7379515">
        <ele>50.126</ele>
        <time>2014-05-06T18:25:00Z</time>
      </trkpt>
      <trkpt lat="59.983647" lon="17.73795">
        <ele>49.6453</ele>
        <time>2014-05-06T18:25:01Z</time>
      </trkpt>
      <trkpt lat="59.9836728" lon="17.7379546">
        <ele>48.684</ele>
        <time>2014-05-06T18:25:02Z</time>
      </trkpt>
      <trkpt lat="59.983693" lon="17.7379645">
        <ele>48.2034</ele>
        <time>2014-05-06T18:25:03Z</time>
      </trkpt>
      <trkpt lat="59.9837168" lon="17.7379664">
        <ele>48.2034</ele>
        <time>2014-05-06T18:25:04Z</time>
      </trkpt>
      <trkpt lat="59.9837443" lon="17.7379623">
        <ele>48.2034</ele>
        <time>2014-05-06T18:25:05Z</time>
      </trkpt>
      <trkpt lat="59.9837831" lon="17.7379542">
        <ele>50.126</ele>
        <time>2014-05-06T18:25:06Z</time>
      </trkpt>
      <trkpt lat="59.9838167" lon="17.7379494">
        <ele>51.0872</ele>
        <time>2014-05-06T18:25:07Z</time>
      </trkpt>
      <trkpt lat="59.9838592" lon="17.7379351">
        <ele>51.5679</ele>
        <time>2014-05-06T18:25:08Z</time>
      </trkpt>
      <trkpt lat="59.9838913" lon="17.7379208">
        <ele>52.5292</ele>
        <time>2014-05-06T18:25:09Z</time>
      </trkpt>
      <trkpt lat="59.983917" lon="17.7379215">
        <ele>53.0098</ele>
        <time>2014-05-06T18:25:10Z</time>
      </trkpt>
      <trkpt lat="59.9839453" lon="17.7379204">
        <ele>53.0098</ele>
        <time>2014-05-06T18:25:11Z</time>
      </trkpt>
      <trkpt lat="59.9839653" lon="17.737921">
        <ele>53.0098</ele>
        <time>2014-05-06T18:25:12Z</time>
      </trkpt>
      <trkpt lat="59.9839932" lon="17.7379174">
        <ele>53.4905</ele>
        <time>2014-05-06T18:25:13Z</time>
      </trkpt>
      <trkpt lat="59.9840131" lon="17.7379159">
        <ele>53.0098</ele>
        <time>2014-05-06T18:25:14Z</time>
      </trkpt>
      <trkpt lat="59.9840405" lon="17.7379163">
        <ele>53.4905</ele>
        <time>2014-05-06T18:25:15Z</time>
      </trkpt>
      <trkpt lat="59.9840652" lon="17.7379101">
        <ele>54.4518</ele>
        <time>2014-05-06T18:25:16Z</time>
      </trkpt>
      <trkpt lat="59.9840939" lon="17.7378998">
        <ele>55.4131</ele>
        <time>2014-05-06T18:25:17Z</time>
      </trkpt>
      <trkpt lat="59.9841207" lon="17.7379014">
        <ele>55.8938</ele>
        <time>2014-05-06T18:25:18Z</time>
      </trkpt>
      <trkpt lat="59.9841574" lon="17.7378934">
        <ele>56.3745</ele>
        <time>2014-05-06T18:25:19Z</time>
      </trkpt>
      <trkpt lat="59.9841831" lon="17.7378933">
        <ele>55.8938</ele>
        <time>2014-05-06T18:25:20Z</time>
      </trkpt>
      <trkpt lat="59.9842199" lon="17.7378985">
        <ele>57.3358</ele>
        <time>2014-05-06T18:25:21Z</time>
      </trkpt>
      <trkpt lat="59.9842564" lon="17.7379048">
        <ele>58.7777</ele>
        <time>2014-05-06T18:25:22Z</time>
      </trkpt>
      <trkpt lat="59.9842798" lon="17.7379091">
        <ele>58.2971</ele>
        <time>2014-05-06T18:25:23Z</time>
      </trkpt>
      <trkpt lat="59.9843011" lon="17.7379097">
        <ele>57.3358</ele>
        <time>2014-05-06T18:25:24Z</time>
      </trkpt>
      <trkpt lat="59.9843232" lon="17.7379138">
        <ele>56.3745</ele>
        <time>2014-05-06T18:25:25Z</time>
      </trkpt>
      <trkpt lat="59.9843483" lon="17.7379064">
        <ele>56.3745</ele>
        <time>2014-05-06T18:25:26Z</time>
      </trkpt>
      <trkpt lat="59.9843741" lon="17.7379053">
        <ele>56.3745</ele>
        <time>2014-05-06T18:25:27Z</time>
      </trkpt>
      <trkpt lat="59.9843998" lon="17.7379153">
        <ele>55.8938</ele>
        <time>2014-05-06T18:25:28Z</time>
      </trkpt>
      <trkpt lat="59.9844284" lon="17.7379391">
        <ele>55.8938</ele>
        <time>2014-05-06T18:25:29Z</time>
      </trkpt>
      <trkpt lat="59.9844611" lon="17.7379615">
        <ele>55.8938</ele>
        <time>2014-05-06T18:25:30Z</time>
      </trkpt>
      <trkpt lat="59.9844897" lon="17.7379752">
        <ele>55.8938</ele>
        <time>2014-05-06T18:25:31Z</time>
      </trkpt>
      <trkpt lat="59.9845129" lon="17.7379821">
        <ele>55.8938</ele>
        <time>2014-05-06T18:25:32Z</time>
      </trkpt>
      <trkpt lat="59.9845394" lon="17.7379893">
        <ele>56.3745</ele>
        <time>2014-05-06T18:25:33Z</time>
      </trkpt>
      <trkpt lat="59.98457" lon="17.7380028">
        <ele>56.8551</ele>
        <time>2014-05-06T18:25:34Z</time>
      </trkpt>
      <trkpt lat="59.9845964" lon="17.7380013">
        <ele>56.8551</ele>
        <time>2014-05-06T18:25:35Z</time>
      </trkpt>
      <trkpt lat="59.9846192" lon="17.7380038">
        <ele>57.3358</ele>
        <time>2014-05-06T18:25:36Z</time>
      </trkpt>
      <trkpt lat="59.9846504" lon="17.7380111">
        <ele>57.8165</ele>
        <time>2014-05-06T18:25:37Z</time>
      </trkpt>
      <trkpt lat="59.9846886" lon="17.7380194">
        <ele>58.7777</ele>
        <time>2014-05-06T18:25:38Z</time>
      </trkpt>
      <trkpt lat="59.9847234" lon="17.7380221">
        <ele>57.8165</ele>
        <time>2014-05-06T18:25:39Z</time>
      </trkpt>
      <trkpt lat="59.9847612" lon="17.7380259">
        <ele>58.2971</ele>
        <time>2014-05-06T18:25:40Z</time>
      </trkpt>
      <trkpt lat="59.9847942" lon="17.7380271">
        <ele>58.7777</ele>
        <time>2014-05-06T18:25:41Z</time>
      </trkpt>
      <trkpt lat="59.9848094" lon="17.738037">
        <ele>57.3358</ele>
        <time>2014-05-06T18:25:42Z</time>
      </trkpt>
      <trkpt lat="59.98483" lon="17.7380542">
        <ele>57.3358</ele>
        <time>2014-05-06T18:25:43Z</time>
      </trkpt>
      <trkpt lat="59.9848492" lon="17.7380668">
        <ele>57.3358</ele>
        <time>2014-05-06T18:25:44Z</time>
      </trkpt>
      <trkpt lat="59.9848661" lon="17.7380729">
        <ele>56.3745</ele>
        <time>2014-05-06T18:25:45Z</time>
      </trkpt>
      <trkpt lat="59.9848876" lon="17.7380764">
        <ele>55.8938</ele>
        <time>2014-05-06T18:25:46Z</time>
      </trkpt>
      <trkpt lat="59.9849106" lon="17.738078">
        <ele>55.8938</ele>
        <time>2014-05-06T18:25:47Z</time>
      </trkpt>
      <trkpt lat="59.9849331" lon="17.7380811">
        <ele>55.4131</ele>
        <time>2014-05-06T18:25:48Z</time>
      </trkpt>
      <trkpt lat="59.9849584" lon="17.7380913">
        <ele>54.9324</ele>
        <time>2014-05-06T18:25:49Z</time>
      </trkpt>
      <trkpt lat="59.9849834" lon="17.7380975">
        <ele>53.9712</ele>
        <time>2014-05-06T18:25:50Z</time>
      </trkpt>
      <trkpt lat="59.9850127" lon="17.7380977">
        <ele>53.4905</ele>
        <time>2014-05-06T18:25:51Z</time>
      </trkpt>
      <trkpt lat="59.9850449" lon="17.7381079">
        <ele>53.4905</ele>
        <time>2014-05-06T18:25:52Z</time>
      </trkpt>
      <trkpt lat="59.9850682" lon="17.7381155">
        <ele>52.5292</ele>
        <time>2014-05-06T18:25:53Z</time>
      </trkpt>
      <trkpt lat="59.9850919" lon="17.738122">
        <ele>52.5292</ele>
        <time>2014-05-06T18:25:54Z</time>
      </trkpt>
      <trkpt lat="59.9851176" lon="17.7381327">
        <ele>53.4905</ele>
        <time>2014-05-06T18:25:55Z</time>
      </trkpt>
      <trkpt lat="59.9851425" lon="17.7381396">
        <ele>53.9712</ele>
        <time>2014-05-06T18:25:56Z</time>
      </trkpt>
      <trkpt lat="59.9851681" lon="17.7381474">
        <ele>53.9712</ele>
        <time>2014-05-06T18:25:57Z</time>
      </trkpt>
      <trkpt lat="59.9851942" lon="17.7381536">
        <ele>53.0098</ele>
        <time>2014-05-06T18:25:58Z</time>
      </trkpt>
      <trkpt lat="59.9852283" lon="17.7381549">
        <ele>53.9712</ele>
        <time>2014-05-06T18:25:59Z</time>
      </trkpt>
      <trkpt lat="59.985253" lon="17.7381583">
        <ele>53.4905</ele>
        <time>2014-05-06T18:26:00Z</time>
      </trkpt>
      <trkpt lat="59.9852794" lon="17.7381649">
        <ele>53.9712</ele>
        <time>2014-05-06T18:26:01Z</time>
      </trkpt>
      <trkpt lat="59.9853071" lon="17.7381727">
        <ele>53.9712</ele>
        <time>2014-05-06T18:26:02Z</time>
      </trkpt>
      <trkpt lat="59.9853469" lon="17.7381813">
        <ele>54.9324</ele>
        <time>2014-05-06T18:26:03Z</time>
      </trkpt>
      <trkpt lat="59.9853826" lon="17.7381891">
        <ele>54.9324</ele>
        <time>2014-05-06T18:26:04Z</time>
      </trkpt>
      <trkpt lat="59.9854084" lon="17.7381913">
        <ele>54.9324</ele>
        <time>2014-05-06T18:26:05Z</time>
      </trkpt>
      <trkpt lat="59.9854312" lon="17.7381848">
        <ele>54.4518</ele>
        <time>2014-05-06T18:26:06Z</time>
      </trkpt>
      <trkpt lat="59.9854524" lon="17.7381847">
        <ele>53.9712</ele>
        <time>2014-05-06T18:26:07Z</time>
      </trkpt>
      <trkpt lat="59.9854687" lon="17.7381706">
        <ele>53.4905</ele>
        <time>2014-05-06T18:26:08Z</time>
      </trkpt>
      <trkpt lat="59.9854858" lon="17.7381442">
        <ele>53.0098</ele>
        <time>2014-05-06T18:26:09Z</time>
      </trkpt>
      <trkpt lat="59.9854985" lon="17.7381083">
        <ele>52.0486</ele>
        <time>2014-05-06T18:26:10Z</time>
      </trkpt>
      <trkpt lat="59.9855086" lon="17.7380658">
        <ele>50.126</ele>
        <time>2014-05-06T18:26:11Z</time>
      </trkpt>
      <trkpt lat="59.9855182" lon="17.7380179">
        <ele>50.126</ele>
        <time>2014-05-06T18:26:12Z</time>
      </trkpt>
      <trkpt lat="59.9855246" lon="17.73797">
        <ele>48.684</ele>
        <time>2014-05-06T18:26:13Z</time>
      </trkpt>
      <trkpt lat="59.9855287" lon="17.7379168">
        <ele>47.7225</ele>
        <time>2014-05-06T18:26:14Z</time>
      </trkpt>
      <trkpt lat="59.9855297" lon="17.7378599">
        <ele>46.7612</ele>
        <time>2014-05-06T18:26:15Z</time>
      </trkpt>
      <trkpt lat="59.9855355" lon="17.7377992">
        <ele>45.7999</ele>
        <time>2014-05-06T18:26:16Z</time>
      </trkpt>
      <trkpt lat="59.9855434" lon="17.7377454">
        <ele>44.8386</ele>
        <time>2014-05-06T18:26:17Z</time>
      </trkpt>
      <trkpt lat="59.9855541" lon="17.7376988">
        <ele>44.358</ele>
        <time>2014-05-06T18:26:18Z</time>
      </trkpt>
      <trkpt lat="59.9855635" lon="17.737652">
        <ele>43.3966</ele>
        <time>2014-05-06T18:26:19Z</time>
      </trkpt>
      <trkpt lat="59.9855758" lon="17.7376122">
        <ele>42.916</ele>
        <time>2014-05-06T18:26:20Z</time>
      </trkpt>
      <trkpt lat="59.9855894" lon="17.737572">
        <ele>41.9547</ele>
        <time>2014-05-06T18:26:21Z</time>
      </trkpt>
      <trkpt lat="59.9855977" lon="17.7375252">
        <ele>41.9547</ele>
        <time>2014-05-06T18:26:22Z</time>
      </trkpt>
      <trkpt lat="59.9856113" lon="17.7374744">
        <ele>41.474</ele>
        <time>2014-05-06T18:26:23Z</time>
      </trkpt>
      <trkpt lat="59.985632" lon="17.7374132">
        <ele>42.4354</ele>
        <time>2014-05-06T18:26:24Z</time>
      </trkpt>
      <trkpt lat="59.9856504" lon="17.7373641">
        <ele>43.3966</ele>
        <time>2014-05-06T18:26:25Z</time>
      </trkpt>
      <trkpt lat="59.985667" lon="17.7373251">
        <ele>44.358</ele>
        <time>2014-05-06T18:26:26Z</time>
      </trkpt>
      <trkpt lat="59.9856897" lon="17.7372842">
        <ele>45.3192</ele>
        <time>2014-05-06T18:26:27Z</time>
      </trkpt>
      <trkpt lat="59.9857152" lon="17.7372556">
        <ele>44.8386</ele>
        <time>2014-05-06T18:26:28Z</time>
      </trkpt>
      <trkpt lat="59.9857458" lon="17.7372315">
        <ele>44.8386</ele>
        <time>2014-05-06T18:26:29Z</time>
      </trkpt>
      <trkpt lat="59.9857732" lon="17.7372164">
        <ele>44.8386</ele>
        <time>2014-05-06T18:26:30Z</time>
      </trkpt>
      <trkpt lat="59.9857971" lon="17.7371933">
        <ele>43.8773</ele>
        <time>2014-05-06T18:26:31Z</time>
      </trkpt>
      <trkpt lat="59.985819" lon="17.7371523">
        <ele>43.8773</ele>
        <time>2014-05-06T18:26:32Z</time>
      </trkpt>
      <trkpt lat="59.9858396" lon="17.7371181">
        <ele>43.3966</ele>
        <time>2014-05-06T18:26:33Z</time>
      </trkpt>
      <trkpt lat="59.9858629" lon="17.7370785">
        <ele>43.8773</ele>
        <time>2014-05-06T18:26:34Z</time>
      </trkpt>
      <trkpt lat="59.9858843" lon="17.7370404">
        <ele>43.8773</ele>
        <time>2014-05-06T18:26:35Z</time>
      </trkpt>
      <trkpt lat="59.9859101" lon="17.736999">
        <ele>44.358</ele>
        <time>2014-05-06T18:26:36Z</time>
      </trkpt>
      <trkpt lat="59.9859363" lon="17.7369676">
        <ele>44.358</ele>
        <time>2014-05-06T18:26:37Z</time>
      </trkpt>
      <trkpt lat="59.9859588" lon="17.7369294">
        <ele>44.8386</ele>
        <time>2014-05-06T18:26:38Z</time>
      </trkpt>
      <trkpt lat="59.9859842" lon="17.7368853">
        <ele>45.3192</ele>
        <time>2014-05-06T18:26:39Z</time>
      </trkpt>
      <trkpt lat="59.9860083" lon="17.7368404">
        <ele>45.7999</ele>
        <time>2014-05-06T18:26:40Z</time>
      </trkpt>
      <trkpt lat="59.9860323" lon="17.7368047">
        <ele>45.3192</ele>
        <time>2014-05-06T18:26:41Z</time>
      </trkpt>
      <trkpt lat="59.9860569" lon="17.7367666">
        <ele>44.8386</ele>
        <time>2014-05-06T18:26:42Z</time>
      </trkpt>
      <trkpt lat="59.9860818" lon="17.7367274">
        <ele>44.8386</ele>
        <time>2014-05-06T18:26:43Z</time>
      </trkpt>
      <trkpt lat="59.9861027" lon="17.7366926">
        <ele>45.7999</ele>
        <time>2014-05-06T18:26:44Z</time>
      </trkpt>
      <trkpt lat="59.9861235" lon="17.7366441">
        <ele>46.2806</ele>
        <time>2014-05-06T18:26:45Z</time>
      </trkpt>
      <trkpt lat="59.9861473" lon="17.7366082">
        <ele>45.7999</ele>
        <time>2014-05-06T18:26:46Z</time>
      </trkpt>
      <trkpt lat="59.9861676" lon="17.7365804">
        <ele>45.7999</ele>
        <time>2014-05-06T18:26:47Z</time>
      </trkpt>
      <trkpt lat="59.9861887" lon="17.7365483">
        <ele>45.7999</ele>
        <time>2014-05-06T18:26:48Z</time>
      </trkpt>
      <trkpt lat="59.9862116" lon="17.7365211">
        <ele>45.7999</ele>
        <time>2014-05-06T18:26:49Z</time>
      </trkpt>
      <trkpt lat="59.9862333" lon="17.7364913">
        <ele>45.7999</ele>
        <time>2014-05-06T18:26:50Z</time>
      </trkpt>
      <trkpt lat="59.9862543" lon="17.7364686">
        <ele>45.7999</ele>
        <time>2014-05-06T18:26:51Z</time>
      </trkpt>
      <trkpt lat="59.9862774" lon="17.7364483">
        <ele>45.3192</ele>
        <time>2014-05-06T18:26:52Z</time>
      </trkpt>
      <trkpt lat="59.986302" lon="17.7364229">
        <ele>45.7999</ele>
        <time>2014-05-06T18:26:53Z</time>
      </trkpt>
      <trkpt lat="59.986325" lon="17.7363839">
        <ele>45.7999</ele>
        <time>2014-05-06T18:26:54Z</time>
      </trkpt>
      <trkpt lat="59.9863442" lon="17.7363483">
        <ele>45.7999</ele>
        <time>2014-05-06T18:26:55Z</time>
      </trkpt>
      <trkpt lat="59.9863628" lon="17.7362997">
        <ele>45.7999</ele>
        <time>2014-05-06T18:26:56Z</time>
      </trkpt>
      <trkpt lat="59.9863851" lon="17.7362525">
        <ele>46.2806</ele>
        <time>2014-05-06T18:26:57Z</time>
      </trkpt>
      <trkpt lat="59.9864078" lon="17.7362083">
        <ele>46.2806</ele>
        <time>2014-05-06T18:26:58Z</time>
      </trkpt>
      <trkpt lat="59.9864307" lon="17.7361701">
        <ele>46.7612</ele>
        <time>2014-05-06T18:26:59Z</time>
      </trkpt>
      <trkpt lat="59.9864518" lon="17.7361331">
        <ele>46.7612</ele>
        <time>2014-05-06T18:27:00Z</time>
      </trkpt>
      <trkpt lat="59.9864712" lon="17.7360944">
        <ele>47.2418</ele>
        <time>2014-05-06T18:27:01Z</time>
      </trkpt>
      <trkpt lat="59.9864916" lon="17.7360506">
        <ele>47.2418</ele>
        <time>2014-05-06T18:27:02Z</time>
      </trkpt>
      <trkpt lat="59.9865067" lon="17.7360049">
        <ele>47.2418</ele>
        <time>2014-05-06T18:27:03Z</time>
      </trkpt>
      <trkpt lat="59.9865209" lon="17.7359589">
        <ele>47.7225</ele>
        <time>2014-05-06T18:27:04Z</time>
      </trkpt>
      <trkpt lat="59.9865368" lon="17.7359111">
        <ele>47.7225</ele>
        <time>2014-05-06T18:27:05Z</time>
      </trkpt>
      <trkpt lat="59.9865483" lon="17.7358587">
        <ele>48.2034</ele>
        <time>2014-05-06T18:27:06Z</time>
      </trkpt>
      <trkpt lat="59.9865579" lon="17.7357977">
        <ele>48.2034</ele>
        <time>2014-05-06T18:27:07Z</time>
      </trkpt>
      <trkpt lat="59.9865691" lon="17.7357412">
        <ele>49.1646</ele>
        <time>2014-05-06T18:27:08Z</time>
      </trkpt>
      <trkpt lat="59.9865793" lon="17.7356894">
        <ele>49.1646</ele>
        <time>2014-05-06T18:27:09Z</time>
      </trkpt>
      <trkpt lat="59.9865879" lon="17.7356432">
        <ele>49.1646</ele>
        <time>2014-05-06T18:27:10Z</time>
      </trkpt>
      <trkpt lat="59.986595" lon="17.735598">
        <ele>49.6453</ele>
        <time>2014-05-06T18:27:11Z</time>
      </trkpt>
      <trkpt lat="59.9866016" lon="17.7355437">
        <ele>49.6453</ele>
        <time>2014-05-06T18:27:12Z</time>
      </trkpt>
      <trkpt lat="59.9866112" lon="17.7354885">
        <ele>49.6453</ele>
        <time>2014-05-06T18:27:13Z</time>
      </trkpt>
      <trkpt lat="59.9866214" lon="17.7354351">
        <ele>49.6453</ele>
        <time>2014-05-06T18:27:14Z</time>
      </trkpt>
      <trkpt lat="59.9866367" lon="17.7353802">
        <ele>49.6453</ele>
        <time>2014-05-06T18:27:15Z</time>
      </trkpt>
      <trkpt lat="59.9866534" lon="17.735323">
        <ele>49.6453</ele>
        <time>2014-05-06T18:27:16Z</time>
      </trkpt>
      <trkpt lat="59.9866658" lon="17.7352697">
        <ele>49.6453</ele>
        <time>2014-05-06T18:27:17Z</time>
      </trkpt>
      <trkpt lat="59.9866773" lon="17.7352207">
        <ele>49.1646</ele>
        <time>2014-05-06T18:27:18Z</time>
      </trkpt>
      <trkpt lat="59.9866895" lon="17.7351759">
        <ele>49.1646</ele>
        <time>2014-05-06T18:27:19Z</time>
      </trkpt>
      <trkpt lat="59.9867032" lon="17.7351331">
        <ele>49.1646</ele>
        <time>2014-05-06T18:27:20Z</time>
      </trkpt>
      <trkpt lat="59.9867179" lon="17.7350864">
        <ele>48.684</ele>
        <time>2014-05-06T18:27:21Z</time>
      </trkpt>
      <trkpt lat="59.9867304" lon="17.7350381">
        <ele>48.684</ele>
        <time>2014-05-06T18:27:22Z</time>
      </trkpt>
      <trkpt lat="59.9867416" lon="17.7349906">
        <ele>48.684</ele>
        <time>2014-05-06T18:27:23Z</time>
      </trkpt>
      <trkpt lat="59.9867523" lon="17.7349412">
        <ele>48.684</ele>
        <time>2014-05-06T18:27:24Z</time>
      </trkpt>
      <trkpt lat="59.9867649" lon="17.734893">
        <ele>49.1646</ele>
        <time>2014-05-06T18:27:25Z</time>
      </trkpt>
      <trkpt lat="59.9867762" lon="17.7348339">
        <ele>49.6453</ele>
        <time>2014-05-06T18:27:26Z</time>
      </trkpt>
      <trkpt lat="59.9867877" lon="17.7347742">
        <ele>49.1646</ele>
        <time>2014-05-06T18:27:27Z</time>
      </trkpt>
      <trkpt lat="59.9867978" lon="17.734713">
        <ele>49.6453</ele>
        <time>2014-05-06T18:27:28Z</time>
      </trkpt>
      <trkpt lat="59.9868083" lon="17.7346575">
        <ele>49.6453</ele>
        <time>2014-05-06T18:27:29Z</time>
      </trkpt>
      <trkpt lat="59.9868197" lon="17.7346063">
        <ele>50.126</ele>
        <time>2014-05-06T18:27:30Z</time>
      </trkpt>
      <trkpt lat="59.986831" lon="17.7345529">
        <ele>50.126</ele>
        <time>2014-05-06T18:27:31Z</time>
      </trkpt>
      <trkpt lat="59.9868439" lon="17.7344915">
        <ele>50.126</ele>
        <time>2014-05-06T18:27:32Z</time>
      </trkpt>
      <trkpt lat="59.9868595" lon="17.7344342">
        <ele>50.126</ele>
        <time>2014-05-06T18:27:33Z</time>
      </trkpt>
      <trkpt lat="59.9868739" lon="17.7343836">
        <ele>50.126</ele>
        <time>2014-05-06T18:27:34Z</time>
      </trkpt>
      <trkpt lat="59.9868904" lon="17.7343362">
        <ele>50.126</ele>
        <time>2014-05-06T18:27:35Z</time>
      </trkpt>
      <trkpt lat="59.9869067" lon="17.7342923">
        <ele>50.126</ele>
        <time>2014-05-06T18:27:36Z</time>
      </trkpt>
      <trkpt lat="59.9869171" lon="17.7342478">
        <ele>50.6066</ele>
        <time>2014-05-06T18:27:37Z</time>
      </trkpt>
      <trkpt lat="59.9869305" lon="17.7342054">
        <ele>50.126</ele>
        <time>2014-05-06T18:27:38Z</time>
      </trkpt>
      <trkpt lat="59.9869467" lon="17.7341643">
        <ele>50.126</ele>
        <time>2014-05-06T18:27:39Z</time>
      </trkpt>
      <trkpt lat="59.9869602" lon="17.7341171">
        <ele>50.126</ele>
        <time>2014-05-06T18:27:40Z</time>
      </trkpt>
      <trkpt lat="59.986973" lon="17.7340686">
        <ele>49.1646</ele>
        <time>2014-05-06T18:27:41Z</time>
      </trkpt>
      <trkpt lat="59.9869839" lon="17.7340196">
        <ele>49.6453</ele>
        <time>2014-05-06T18:27:42Z</time>
      </trkpt>
      <trkpt lat="59.9869935" lon="17.7339748">
        <ele>49.1646</ele>
        <time>2014-05-06T18:27:43Z</time>
      </trkpt>
      <trkpt lat="59.987004" lon="17.7339317">
        <ele>48.684</ele>
        <time>2014-05-06T18:27:44Z</time>
      </trkpt>
      <trkpt lat="59.987013" lon="17.7338868">
        <ele>47.7225</ele>
        <time>2014-05-06T18:27:45Z</time>
      </trkpt>
      <trkpt lat="59.9870257" lon="17.7338314">
        <ele>47.2418</ele>
        <time>2014-05-06T18:27:46Z</time>
      </trkpt>
      <trkpt lat="59.9870394" lon="17.7337664">
        <ele>46.7612</ele>
        <time>2014-05-06T18:27:47Z</time>
      </trkpt>
      <trkpt lat="59.9870523" lon="17.7337096">
        <ele>45.7999</ele>
        <time>2014-05-06T18:27:48Z</time>
      </trkpt>
      <trkpt lat="59.987063" lon="17.733656">
        <ele>45.3192</ele>
        <time>2014-05-06T18:27:49Z</time>
      </trkpt>
      <trkpt lat="59.987074" lon="17.7336044">
        <ele>44.8386</ele>
        <time>2014-05-06T18:27:50Z</time>
      </trkpt>
      <trkpt lat="59.9870854" lon="17.7335526">
        <ele>44.8386</ele>
        <time>2014-05-06T18:27:51Z</time>
      </trkpt>
      <trkpt lat="59.9870984" lon="17.7335064">
        <ele>43.8773</ele>
        <time>2014-05-06T18:27:52Z</time>
      </trkpt>
      <trkpt lat="59.9871112" lon="17.7334603">
        <ele>43.8773</ele>
        <time>2014-05-06T18:27:53Z</time>
      </trkpt>
      <trkpt lat="59.98712" lon="17.7334092">
        <ele>43.3966</ele>
        <time>2014-05-06T18:27:54Z</time>
      </trkpt>
      <trkpt lat="59.9871311" lon="17.7333569">
        <ele>42.916</ele>
        <time>2014-05-06T18:27:55Z</time>
      </trkpt>
      <trkpt lat="59.9871439" lon="17.7333041">
        <ele>42.4354</ele>
        <time>2014-05-06T18:27:56Z</time>
      </trkpt>
      <trkpt lat="59.9871552" lon="17.7332572">
        <ele>41.474</ele>
        <time>2014-05-06T18:27:57Z</time>
      </trkpt>
      <trkpt lat="59.9871648" lon="17.7332126">
        <ele>40.5128</ele>
        <time>2014-05-06T18:27:58Z</time>
      </trkpt>
      <trkpt lat="59.9871735" lon="17.7331625">
        <ele>40.0321</ele>
        <time>2014-05-06T18:27:59Z</time>
      </trkpt>
      <trkpt lat="59.9871802" lon="17.7331159">
        <ele>40.0321</ele>
        <time>2014-05-06T18:28:00Z</time>
      </trkpt>
      <trkpt lat="59.9871895" lon="17.7330699">
        <ele>40.0321</ele>
        <time>2014-05-06T18:28:01Z</time>
      </trkpt>
      <trkpt lat="59.9872015" lon="17.7330285">
        <ele>39.0707</ele>
        <time>2014-05-06T18:28:02Z</time>
      </trkpt>
      <trkpt lat="59.9872149" lon="17.7329795">
        <ele>38.5901</ele>
        <time>2014-05-06T18:28:03Z</time>
      </trkpt>
      <trkpt lat="59.9872283" lon="17.7329192">
        <ele>39.0707</ele>
        <time>2014-05-06T18:28:04Z</time>
      </trkpt>
      <trkpt lat="59.9872443" lon="17.7328652">
        <ele>38.5901</ele>
        <time>2014-05-06T18:28:05Z</time>
      </trkpt>
      <trkpt lat="59.9872536" lon="17.7328139">
        <ele>38.5901</ele>
        <time>2014-05-06T18:28:06Z</time>
      </trkpt>
      <trkpt lat="59.9872636" lon="17.7327664">
        <ele>38.1094</ele>
        <time>2014-05-06T18:28:07Z</time>
      </trkpt>
      <trkpt lat="59.9872776" lon="17.7327184">
        <ele>38.1094</ele>
        <time>2014-05-06T18:28:08Z</time>
      </trkpt>
      <trkpt lat="59.9872883" lon="17.7326709">
        <ele>37.6287</ele>
        <time>2014-05-06T18:28:09Z</time>
      </trkpt>
      <trkpt lat="59.9872998" lon="17.7326205">
        <ele>38.1094</ele>
        <time>2014-05-06T18:28:10Z</time>
      </trkpt>
      <trkpt lat="59.9873107" lon="17.7325711">
        <ele>38.1094</ele>
        <time>2014-05-06T18:28:11Z</time>
      </trkpt>
      <trkpt lat="59.9873214" lon="17.73252">
        <ele>37.6287</ele>
        <time>2014-05-06T18:28:12Z</time>
      </trkpt>
      <trkpt lat="59.9873289" lon="17.732471">
        <ele>37.1481</ele>
        <time>2014-05-06T18:28:13Z</time>
      </trkpt>
      <trkpt lat="59.987334" lon="17.7324227">
        <ele>37.1481</ele>
        <time>2014-05-06T18:28:14Z</time>
      </trkpt>
      <trkpt lat="59.9873434" lon="17.7323664">
        <ele>36.6675</ele>
        <time>2014-05-06T18:28:15Z</time>
      </trkpt>
      <trkpt lat="59.9873562" lon="17.7323089">
        <ele>37.1481</ele>
        <time>2014-05-06T18:28:16Z</time>
      </trkpt>
      <trkpt lat="59.9873694" lon="17.7322648">
        <ele>36.6675</ele>
        <time>2014-05-06T18:28:17Z</time>
      </trkpt>
      <trkpt lat="59.9873853" lon="17.7322209">
        <ele>36.6675</ele>
        <time>2014-05-06T18:28:18Z</time>
      </trkpt>
      <trkpt lat="59.987402" lon="17.7321711">
        <ele>36.1868</ele>
        <time>2014-05-06T18:28:19Z</time>
      </trkpt>
      <trkpt lat="59.9874158" lon="17.7321249">
        <ele>35.7061</ele>
        <time>2014-05-06T18:28:20Z</time>
      </trkpt>
      <trkpt lat="59.987431" lon="17.7320805">
        <ele>36.1868</ele>
        <time>2014-05-06T18:28:21Z</time>
      </trkpt>
      <trkpt lat="59.9874506" lon="17.7320436">
        <ele>36.1868</ele>
        <time>2014-05-06T18:28:22Z</time>
      </trkpt>
      <trkpt lat="59.9874629" lon="17.7319815">
        <ele>38.1094</ele>
        <time>2014-05-06T18:28:23Z</time>
      </trkpt>
      <trkpt lat="59.9874785" lon="17.7319391">
        <ele>38.1094</ele>
        <time>2014-05-06T18:28:24Z</time>
      </trkpt>
      <trkpt lat="59.9875023" lon="17.7318934">
        <ele>37.6287</ele>
        <time>2014-05-06T18:28:25Z</time>
      </trkpt>
      <trkpt lat="59.9875304" lon="17.7318512">
        <ele>37.6287</ele>
        <time>2014-05-06T18:28:26Z</time>
      </trkpt>
      <trkpt lat="59.9875594" lon="17.7318089">
        <ele>37.6287</ele>
        <time>2014-05-06T18:28:27Z</time>
      </trkpt>
      <trkpt lat="59.9875817" lon="17.7317763">
        <ele>37.1481</ele>
        <time>2014-05-06T18:28:28Z</time>
      </trkpt>
      <trkpt lat="59.9876009" lon="17.7317436">
        <ele>37.6287</ele>
        <time>2014-05-06T18:28:29Z</time>
      </trkpt>
      <trkpt lat="59.9876214" lon="17.7317126">
        <ele>37.6287</ele>
        <time>2014-05-06T18:28:30Z</time>
      </trkpt>
      <trkpt lat="59.9876454" lon="17.7316829">
        <ele>37.6287</ele>
        <time>2014-05-06T18:28:31Z</time>
      </trkpt>
      <trkpt lat="59.9876695" lon="17.7316475">
        <ele>37.1481</ele>
        <time>2014-05-06T18:28:32Z</time>
      </trkpt>
      <trkpt lat="59.9876951" lon="17.731596">
        <ele>37.6287</ele>
        <time>2014-05-06T18:28:33Z</time>
      </trkpt>
      <trkpt lat="59.987722" lon="17.7315549">
        <ele>37.6287</ele>
        <time>2014-05-06T18:28:34Z</time>
      </trkpt>
      <trkpt lat="59.9877443" lon="17.731521">
        <ele>37.6287</ele>
        <time>2014-05-06T18:28:35Z</time>
      </trkpt>
      <trkpt lat="59.9877596" lon="17.7314754">
        <ele>38.5901</ele>
        <time>2014-05-06T18:28:36Z</time>
      </trkpt>
      <trkpt lat="59.987779" lon="17.7314252">
        <ele>39.0707</ele>
        <time>2014-05-06T18:28:37Z</time>
      </trkpt>
      <trkpt lat="59.9877982" lon="17.7313749">
        <ele>39.5513</ele>
        <time>2014-05-06T18:28:38Z</time>
      </trkpt>
      <trkpt lat="59.9878177" lon="17.7313291">
        <ele>39.5513</ele>
        <time>2014-05-06T18:28:39Z</time>
      </trkpt>
      <trkpt lat="59.9878412" lon="17.7312841">
        <ele>39.5513</ele>
        <time>2014-05-06T18:28:40Z</time>
      </trkpt>
      <trkpt lat="59.9878643" lon="17.7312377">
        <ele>40.0321</ele>
        <time>2014-05-06T18:28:41Z</time>
      </trkpt>
      <trkpt lat="59.9878872" lon="17.7311956">
        <ele>39.5513</ele>
        <time>2014-05-06T18:28:42Z</time>
      </trkpt>
      <trkpt lat="59.987912" lon="17.7311585">
        <ele>39.5513</ele>
        <time>2014-05-06T18:28:43Z</time>
      </trkpt>
      <trkpt lat="59.9879359" lon="17.7311133">
        <ele>39.5513</ele>
        <time>2014-05-06T18:28:44Z</time>
      </trkpt>
      <trkpt lat="59.9879603" lon="17.731074">
        <ele>39.5513</ele>
        <time>2014-05-06T18:28:45Z</time>
      </trkpt>
      <trkpt lat="59.9879821" lon="17.7310299">
        <ele>39.5513</ele>
        <time>2014-05-06T18:28:46Z</time>
      </trkpt>
      <trkpt lat="59.9879981" lon="17.7309919">
        <ele>39.0707</ele>
        <time>2014-05-06T18:28:47Z</time>
      </trkpt>
      <trkpt lat="59.9880185" lon="17.7309552">
        <ele>39.0707</ele>
        <time>2014-05-06T18:28:48Z</time>
      </trkpt>
      <trkpt lat="59.9880415" lon="17.730915">
        <ele>38.5901</ele>
        <time>2014-05-06T18:28:49Z</time>
      </trkpt>
      <trkpt lat="59.9880604" lon="17.7308678">
        <ele>39.0707</ele>
        <time>2014-05-06T18:28:50Z</time>
      </trkpt>
      <trkpt lat="59.9880772" lon="17.7308227">
        <ele>39.0707</ele>
        <time>2014-05-06T18:28:51Z</time>
      </trkpt>
      <trkpt lat="59.9880971" lon="17.7307854">
        <ele>39.0707</ele>
        <time>2014-05-06T18:28:52Z</time>
      </trkpt>
      <trkpt lat="59.9881172" lon="17.7307378">
        <ele>39.5513</ele>
        <time>2014-05-06T18:28:53Z</time>
      </trkpt>
      <trkpt lat="59.9881345" lon="17.7306755">
        <ele>40.5128</ele>
        <time>2014-05-06T18:28:54Z</time>
      </trkpt>
      <trkpt lat="59.9881575" lon="17.7306259">
        <ele>40.9934</ele>
        <time>2014-05-06T18:28:55Z</time>
      </trkpt>
      <trkpt lat="59.9881816" lon="17.7305816">
        <ele>40.9934</ele>
        <time>2014-05-06T18:28:56Z</time>
      </trkpt>
      <trkpt lat="59.9882062" lon="17.730528">
        <ele>40.9934</ele>
        <time>2014-05-06T18:28:57Z</time>
      </trkpt>
      <trkpt lat="59.9882305" lon="17.7304823">
        <ele>40.9934</ele>
        <time>2014-05-06T18:28:58Z</time>
      </trkpt>
      <trkpt lat="59.9882516" lon="17.7304306">
        <ele>40.9934</ele>
        <time>2014-05-06T18:28:59Z</time>
      </trkpt>
      <trkpt lat="59.9882705" lon="17.730388">
        <ele>41.474</ele>
        <time>2014-05-06T18:29:00Z</time>
      </trkpt>
      <trkpt lat="59.988293" lon="17.7303478">
        <ele>41.9547</ele>
        <time>2014-05-06T18:29:01Z</time>
      </trkpt>
      <trkpt lat="59.9883162" lon="17.7302967">
        <ele>42.4354</ele>
        <time>2014-05-06T18:29:02Z</time>
      </trkpt>
      <trkpt lat="59.9883384" lon="17.7302445">
        <ele>42.916</ele>
        <time>2014-05-06T18:29:03Z</time>
      </trkpt>
      <trkpt lat="59.9883634" lon="17.7302109">
        <ele>42.4354</ele>
        <time>2014-05-06T18:29:04Z</time>
      </trkpt>
      <trkpt lat="59.9883872" lon="17.7301762">
        <ele>41.9547</ele>
        <time>2014-05-06T18:29:05Z</time>
      </trkpt>
      <trkpt lat="59.988411" lon="17.7301357">
        <ele>42.4354</ele>
        <time>2014-05-06T18:29:06Z</time>
      </trkpt>
      <trkpt lat="59.9884377" lon="17.7300981">
        <ele>41.9547</ele>
        <time>2014-05-06T18:29:07Z</time>
      </trkpt>
      <trkpt lat="59.9884623" lon="17.7300667">
        <ele>41.9547</ele>
        <time>2014-05-06T18:29:08Z</time>
      </trkpt>
      <trkpt lat="59.9884875" lon="17.7300375">
        <ele>41.9547</ele>
        <time>2014-05-06T18:29:09Z</time>
      </trkpt>
      <trkpt lat="59.9885109" lon="17.7300077">
        <ele>41.474</ele>
        <time>2014-05-06T18:29:10Z</time>
      </trkpt>
      <trkpt lat="59.9885351" lon="17.7299741">
        <ele>41.474</ele>
        <time>2014-05-06T18:29:11Z</time>
      </trkpt>
      <trkpt lat="59.9885623" lon="17.7299439">
        <ele>40.9934</ele>
        <time>2014-05-06T18:29:12Z</time>
      </trkpt>
      <trkpt lat="59.9885865" lon="17.7299189">
        <ele>40.5128</ele>
        <time>2014-05-06T18:29:13Z</time>
      </trkpt>
      <trkpt lat="59.9886109" lon="17.7298919">
        <ele>40.0321</ele>
        <time>2014-05-06T18:29:14Z</time>
      </trkpt>
      <trkpt lat="59.9886405" lon="17.7298644">
        <ele>40.5128</ele>
        <time>2014-05-06T18:29:15Z</time>
      </trkpt>
      <trkpt lat="59.98867" lon="17.7298369">
        <ele>40.5128</ele>
        <time>2014-05-06T18:29:16Z</time>
      </trkpt>
      <trkpt lat="59.9886994" lon="17.7298084">
        <ele>40.5128</ele>
        <time>2014-05-06T18:29:17Z</time>
      </trkpt>
      <trkpt lat="59.9887265" lon="17.7297769">
        <ele>40.5128</ele>
        <time>2014-05-06T18:29:18Z</time>
      </trkpt>
      <trkpt lat="59.9887542" lon="17.7297484">
        <ele>40.9934</ele>
        <time>2014-05-06T18:29:19Z</time>
      </trkpt>
      <trkpt lat="59.9887809" lon="17.729723">
        <ele>40.9934</ele>
        <time>2014-05-06T18:29:20Z</time>
      </trkpt>
      <trkpt lat="59.9888022" lon="17.7296922">
        <ele>41.474</ele>
        <time>2014-05-06T18:29:21Z</time>
      </trkpt>
      <trkpt lat="59.9888249" lon="17.7296445">
        <ele>41.9547</ele>
        <time>2014-05-06T18:29:22Z</time>
      </trkpt>
      <trkpt lat="59.9888495" lon="17.7296074">
        <ele>42.916</ele>
        <time>2014-05-06T18:29:23Z</time>
      </trkpt>
      <trkpt lat="59.9888744" lon="17.7295765">
        <ele>42.916</ele>
        <time>2014-05-06T18:29:24Z</time>
      </trkpt>
      <trkpt lat="59.9888995" lon="17.729543">
        <ele>43.3966</ele>
        <time>2014-05-06T18:29:25Z</time>
      </trkpt>
      <trkpt lat="59.9889223" lon="17.7295151">
        <ele>43.3966</ele>
        <time>2014-05-06T18:29:26Z</time>
      </trkpt>
      <trkpt lat="59.9889408" lon="17.7294836">
        <ele>42.916</ele>
        <time>2014-05-06T18:29:27Z</time>
      </trkpt>
      <trkpt lat="59.9889616" lon="17.7294449">
        <ele>43.3966</ele>
        <time>2014-05-06T18:29:28Z</time>
      </trkpt>
      <trkpt lat="59.9889899" lon="17.7294102">
        <ele>42.916</ele>
        <time>2014-05-06T18:29:29Z</time>
      </trkpt>
      <trkpt lat="59.9890189" lon="17.7293847">
        <ele>42.4354</ele>
        <time>2014-05-06T18:29:30Z</time>
      </trkpt>
      <trkpt lat="59.9890424" lon="17.7293609">
        <ele>42.4354</ele>
        <time>2014-05-06T18:29:31Z</time>
      </trkpt>
      <trkpt lat="59.9890685" lon="17.7293313">
        <ele>41.9547</ele>
        <time>2014-05-06T18:29:32Z</time>
      </trkpt>
      <trkpt lat="59.9890937" lon="17.7292977">
        <ele>42.4354</ele>
        <time>2014-05-06T18:29:33Z</time>
      </trkpt>
      <trkpt lat="59.9891201" lon="17.7292703">
        <ele>42.916</ele>
        <time>2014-05-06T18:29:34Z</time>
      </trkpt>
      <trkpt lat="59.9891469" lon="17.7292474">
        <ele>42.4354</ele>
        <time>2014-05-06T18:29:35Z</time>
      </trkpt>
      <trkpt lat="59.9891693" lon="17.729224">
        <ele>42.4354</ele>
        <time>2014-05-06T18:29:36Z</time>
      </trkpt>
      <trkpt lat="59.9891917" lon="17.7291861">
        <ele>42.916</ele>
        <time>2014-05-06T18:29:37Z</time>
      </trkpt>
      <trkpt lat="59.9892127" lon="17.7291506">
        <ele>42.916</ele>
        <time>2014-05-06T18:29:38Z</time>
      </trkpt>
      <trkpt lat="59.9892332" lon="17.7291139">
        <ele>43.3966</ele>
        <time>2014-05-06T18:29:39Z</time>
      </trkpt>
      <trkpt lat="59.9892567" lon="17.7290858">
        <ele>43.3966</ele>
        <time>2014-05-06T18:29:40Z</time>
      </trkpt>
      <trkpt lat="59.9892781" lon="17.7290473">
        <ele>43.8773</ele>
        <time>2014-05-06T18:29:41Z</time>
      </trkpt>
      <trkpt lat="59.9893015" lon="17.7290067">
        <ele>44.358</ele>
        <time>2014-05-06T18:29:42Z</time>
      </trkpt>
      <trkpt lat="59.9893313" lon="17.7289796">
        <ele>44.358</ele>
        <time>2014-05-06T18:29:43Z</time>
      </trkpt>
      <trkpt lat="59.9893604" lon="17.7289483">
        <ele>44.358</ele>
        <time>2014-05-06T18:29:44Z</time>
      </trkpt>
      <trkpt lat="59.9893842" lon="17.728917">
        <ele>44.358</ele>
        <time>2014-05-06T18:29:45Z</time>
      </trkpt>
      <trkpt lat="59.9894054" lon="17.7288864">
        <ele>44.358</ele>
        <time>2014-05-06T18:29:46Z</time>
      </trkpt>
      <trkpt lat="59.9894256" lon="17.7288552">
        <ele>44.358</ele>
        <time>2014-05-06T18:29:47Z</time>
      </trkpt>
      <trkpt lat="59.9894439" lon="17.7288263">
        <ele>44.358</ele>
        <time>2014-05-06T18:29:48Z</time>
      </trkpt>
      <trkpt lat="59.9894641" lon="17.7287981">
        <ele>43.8773</ele>
        <time>2014-05-06T18:29:49Z</time>
      </trkpt>
      <trkpt lat="59.9894806" lon="17.7287626">
        <ele>44.358</ele>
        <time>2014-05-06T18:29:50Z</time>
      </trkpt>
      <trkpt lat="59.989495" lon="17.7287188">
        <ele>44.358</ele>
        <time>2014-05-06T18:29:51Z</time>
      </trkpt>
      <trkpt lat="59.9895139" lon="17.7286719">
        <ele>43.8773</ele>
        <time>2014-05-06T18:29:52Z</time>
      </trkpt>
      <trkpt lat="59.989532" lon="17.7286242">
        <ele>43.8773</ele>
        <time>2014-05-06T18:29:53Z</time>
      </trkpt>
      <trkpt lat="59.989546" lon="17.7285745">
        <ele>43.8773</ele>
        <time>2014-05-06T18:29:54Z</time>
      </trkpt>
      <trkpt lat="59.9895603" lon="17.7285164">
        <ele>43.3966</ele>
        <time>2014-05-06T18:29:55Z</time>
      </trkpt>
      <trkpt lat="59.9895701" lon="17.7284655">
        <ele>42.916</ele>
        <time>2014-05-06T18:29:56Z</time>
      </trkpt>
      <trkpt lat="59.9895755" lon="17.7284144">
        <ele>42.4354</ele>
        <time>2014-05-06T18:29:57Z</time>
      </trkpt>
      <trkpt lat="59.9895812" lon="17.7283627">
        <ele>41.9547</ele>
        <time>2014-05-06T18:29:58Z</time>
      </trkpt>
      <trkpt lat="59.9895823" lon="17.7283115">
        <ele>41.9547</ele>
        <time>2014-05-06T18:29:59Z</time>
      </trkpt>
      <trkpt lat="59.9895796" lon="17.7282534">
        <ele>41.9547</ele>
        <time>2014-05-06T18:30:00Z</time>
      </trkpt>
      <trkpt lat="59.9895781" lon="17.7281998">
        <ele>41.9547</ele>
        <time>2014-05-06T18:30:01Z</time>
      </trkpt>
      <trkpt lat="59.9895773" lon="17.7281549">
        <ele>41.474</ele>
        <time>2014-05-06T18:30:02Z</time>
      </trkpt>
      <trkpt lat="59.9895765" lon="17.7280995">
        <ele>41.9547</ele>
        <time>2014-05-06T18:30:03Z</time>
      </trkpt>
      <trkpt lat="59.9895782" lon="17.7280363">
        <ele>41.474</ele>
        <time>2014-05-06T18:30:04Z</time>
      </trkpt>
      <trkpt lat="59.9895781" lon="17.7279716">
        <ele>41.474</ele>
        <time>2014-05-06T18:30:05Z</time>
      </trkpt>
      <trkpt lat="59.9895756" lon="17.7279079">
        <ele>41.474</ele>
        <time>2014-05-06T18:30:06Z</time>
      </trkpt>
      <trkpt lat="59.9895755" lon="17.7278483">
        <ele>41.9547</ele>
        <time>2014-05-06T18:30:07Z</time>
      </trkpt>
      <trkpt lat="59.9895742" lon="17.7277913">
        <ele>41.9547</ele>
        <time>2014-05-06T18:30:08Z</time>
      </trkpt>
      <trkpt lat="59.9895723" lon="17.7277403">
        <ele>42.4354</ele>
        <time>2014-05-06T18:30:09Z</time>
      </trkpt>
      <trkpt lat="59.9895724" lon="17.7276826">
        <ele>42.4354</ele>
        <time>2014-05-06T18:30:10Z</time>
      </trkpt>
      <trkpt lat="59.9895729" lon="17.7276293">
        <ele>42.4354</ele>
        <time>2014-05-06T18:30:11Z</time>
      </trkpt>
      <trkpt lat="59.9895756" lon="17.7275749">
        <ele>41.9547</ele>
        <time>2014-05-06T18:30:12Z</time>
      </trkpt>
      <trkpt lat="59.9895773" lon="17.727512">
        <ele>41.9547</ele>
        <time>2014-05-06T18:30:13Z</time>
      </trkpt>
      <trkpt lat="59.9895792" lon="17.7274546">
        <ele>42.4354</ele>
        <time>2014-05-06T18:30:14Z</time>
      </trkpt>
      <trkpt lat="59.9895846" lon="17.7273976">
        <ele>42.916</ele>
        <time>2014-05-06T18:30:15Z</time>
      </trkpt>
      <trkpt lat="59.9895911" lon="17.7273356">
        <ele>43.3966</ele>
        <time>2014-05-06T18:30:16Z</time>
      </trkpt>
      <trkpt lat="59.9895984" lon="17.7272733">
        <ele>43.8773</ele>
        <time>2014-05-06T18:30:17Z</time>
      </trkpt>
      <trkpt lat="59.9896055" lon="17.7272088">
        <ele>44.358</ele>
        <time>2014-05-06T18:30:18Z</time>
      </trkpt>
      <trkpt lat="59.989611" lon="17.7271439">
        <ele>44.8386</ele>
        <time>2014-05-06T18:30:19Z</time>
      </trkpt>
      <trkpt lat="59.9896158" lon="17.7270821">
        <ele>45.3192</ele>
        <time>2014-05-06T18:30:20Z</time>
      </trkpt>
      <trkpt lat="59.9896217" lon="17.7270232">
        <ele>45.7999</ele>
        <time>2014-05-06T18:30:21Z</time>
      </trkpt>
      <trkpt lat="59.9896284" lon="17.7269644">
        <ele>45.7999</ele>
        <time>2014-05-06T18:30:22Z</time>
      </trkpt>
      <trkpt lat="59.9896309" lon="17.7269048">
        <ele>46.2806</ele>
        <time>2014-05-06T18:30:23Z</time>
      </trkpt>
      <trkpt lat="59.9896326" lon="17.7268478">
        <ele>46.7612</ele>
        <time>2014-05-06T18:30:24Z</time>
      </trkpt>
      <trkpt lat="59.9896307" lon="17.7267889">
        <ele>46.7612</ele>
        <time>2014-05-06T18:30:25Z</time>
      </trkpt>
      <trkpt lat="59.9896346" lon="17.7267314">
        <ele>46.7612</ele>
        <time>2014-05-06T18:30:26Z</time>
      </trkpt>
      <trkpt lat="59.9896402" lon="17.7266714">
        <ele>46.7612</ele>
        <time>2014-05-06T18:30:27Z</time>
      </trkpt>
      <trkpt lat="59.989645" lon="17.7266092">
        <ele>47.2418</ele>
        <time>2014-05-06T18:30:28Z</time>
      </trkpt>
      <trkpt lat="59.9896481" lon="17.7265531">
        <ele>46.7612</ele>
        <time>2014-05-06T18:30:29Z</time>
      </trkpt>
      <trkpt lat="59.9896488" lon="17.7265092">
        <ele>46.2806</ele>
        <time>2014-05-06T18:30:30Z</time>
      </trkpt>
      <trkpt lat="59.9896419" lon="17.7264662">
        <ele>45.7999</ele>
        <time>2014-05-06T18:30:31Z</time>
      </trkpt>
      <trkpt lat="59.9896299" lon="17.7264241">
        <ele>44.8386</ele>
        <time>2014-05-06T18:30:32Z</time>
      </trkpt>
      <trkpt lat="59.9896159" lon="17.7263988">
        <ele>43.8773</ele>
        <time>2014-05-06T18:30:33Z</time>
      </trkpt>
      <trkpt lat="59.9895961" lon="17.726394">
        <ele>42.916</ele>
        <time>2014-05-06T18:30:34Z</time>
      </trkpt>
      <trkpt lat="59.9895671" lon="17.7264154">
        <ele>41.9547</ele>
        <time>2014-05-06T18:30:35Z</time>
      </trkpt>
      <trkpt lat="59.9895407" lon="17.7264409">
        <ele>41.474</ele>
        <time>2014-05-06T18:30:36Z</time>
      </trkpt>
      <trkpt lat="59.9895127" lon="17.7264738">
        <ele>40.5128</ele>
        <time>2014-05-06T18:30:37Z</time>
      </trkpt>
      <trkpt lat="59.9894777" lon="17.7264956">
        <ele>40.0321</ele>
        <time>2014-05-06T18:30:38Z</time>
      </trkpt>
      <trkpt lat="59.9894424" lon="17.7265164">
        <ele>40.0321</ele>
        <time>2014-05-06T18:30:39Z</time>
      </trkpt>
      <trkpt lat="59.9894075" lon="17.7265335">
        <ele>39.0707</ele>
        <time>2014-05-06T18:30:40Z</time>
      </trkpt>
      <trkpt lat="59.9893719" lon="17.7265414">
        <ele>37.6287</ele>
        <time>2014-05-06T18:30:41Z</time>
      </trkpt>
      <trkpt lat="59.9893371" lon="17.7265517">
        <ele>37.1481</ele>
        <time>2014-05-06T18:30:42Z</time>
      </trkpt>
      <trkpt lat="59.9893085" lon="17.7265548">
        <ele>37.6287</ele>
        <time>2014-05-06T18:30:43Z</time>
      </trkpt>
      <trkpt lat="59.9892802" lon="17.7265583">
        <ele>37.1481</ele>
        <time>2014-05-06T18:30:44Z</time>
      </trkpt>
      <trkpt lat="59.9892502" lon="17.7265579">
        <ele>37.1481</ele>
        <time>2014-05-06T18:30:45Z</time>
      </trkpt>
      <trkpt lat="59.9892197" lon="17.7265614">
        <ele>36.6675</ele>
        <time>2014-05-06T18:30:46Z</time>
      </trkpt>
      <trkpt lat="59.9891894" lon="17.726567">
        <ele>36.6675</ele>
        <time>2014-05-06T18:30:47Z</time>
      </trkpt>
      <trkpt lat="59.9891544" lon="17.7265694">
        <ele>35.7061</ele>
        <time>2014-05-06T18:30:48Z</time>
      </trkpt>
      <trkpt lat="59.98912" lon="17.7265709">
        <ele>35.2255</ele>
        <time>2014-05-06T18:30:49Z</time>
      </trkpt>
      <trkpt lat="59.9890875" lon="17.7265739">
        <ele>34.7449</ele>
        <time>2014-05-06T18:30:50Z</time>
      </trkpt>
      <trkpt lat="59.9890568" lon="17.7265762">
        <ele>34.7449</ele>
        <time>2014-05-06T18:30:51Z</time>
      </trkpt>
      <trkpt lat="59.9890279" lon="17.7265775">
        <ele>34.2642</ele>
        <time>2014-05-06T18:30:52Z</time>
      </trkpt>
      <trkpt lat="59.989" lon="17.7265734">
        <ele>34.2642</ele>
        <time>2014-05-06T18:30:53Z</time>
      </trkpt>
      <trkpt lat="59.988971" lon="17.7265712">
        <ele>33.7834</ele>
        <time>2014-05-06T18:30:54Z</time>
      </trkpt>
      <trkpt lat="59.9889444" lon="17.7265693">
        <ele>34.2642</ele>
        <time>2014-05-06T18:30:55Z</time>
      </trkpt>
      <trkpt lat="59.9889148" lon="17.7265693">
        <ele>34.2642</ele>
        <time>2014-05-06T18:30:56Z</time>
      </trkpt>
      <trkpt lat="59.988886" lon="17.7265595">
        <ele>33.7834</ele>
        <time>2014-05-06T18:30:57Z</time>
      </trkpt>
      <trkpt lat="59.988858" lon="17.7265522">
        <ele>33.3029</ele>
        <time>2014-05-06T18:30:58Z</time>
      </trkpt>
      <trkpt lat="59.9888274" lon="17.7265486">
        <ele>33.3029</ele>
        <time>2014-05-06T18:30:59Z</time>
      </trkpt>
      <trkpt lat="59.9887995" lon="17.7265476">
        <ele>33.7834</ele>
        <time>2014-05-06T18:31:00Z</time>
      </trkpt>
      <trkpt lat="59.9887732" lon="17.7265505">
        <ele>33.3029</ele>
        <time>2014-05-06T18:31:01Z</time>
      </trkpt>
      <trkpt lat="59.9887441" lon="17.726547">
        <ele>33.7834</ele>
        <time>2014-05-06T18:31:02Z</time>
      </trkpt>
      <trkpt lat="59.9887166" lon="17.7265445">
        <ele>33.7834</ele>
        <time>2014-05-06T18:31:03Z</time>
      </trkpt>
      <trkpt lat="59.9886874" lon="17.7265417">
        <ele>33.7834</ele>
        <time>2014-05-06T18:31:04Z</time>
      </trkpt>
      <trkpt lat="59.988657" lon="17.7265385">
        <ele>34.2642</ele>
        <time>2014-05-06T18:31:05Z</time>
      </trkpt>
      <trkpt lat="59.9886263" lon="17.7265383">
        <ele>33.3029</ele>
        <time>2014-05-06T18:31:06Z</time>
      </trkpt>
      <trkpt lat="59.9885944" lon="17.7265368">
        <ele>33.3029</ele>
        <time>2014-05-06T18:31:07Z</time>
      </trkpt>
      <trkpt lat="59.9885638" lon="17.7265381">
        <ele>32.8223</ele>
        <time>2014-05-06T18:31:08Z</time>
      </trkpt>
      <trkpt lat="59.9885334" lon="17.7265424">
        <ele>32.3416</ele>
        <time>2014-05-06T18:31:09Z</time>
      </trkpt>
      <trkpt lat="59.9884957" lon="17.7265496">
        <ele>31.3801</ele>
        <time>2014-05-06T18:31:10Z</time>
      </trkpt>
      <trkpt lat="59.9884636" lon="17.7265515">
        <ele>31.3801</ele>
        <time>2014-05-06T18:31:11Z</time>
      </trkpt>
      <trkpt lat="59.9884372" lon="17.7265546">
        <ele>31.3801</ele>
        <time>2014-05-06T18:31:12Z</time>
      </trkpt>
      <trkpt lat="59.9884079" lon="17.7265544">
        <ele>31.8607</ele>
        <time>2014-05-06T18:31:13Z</time>
      </trkpt>
      <trkpt lat="59.9883789" lon="17.7265522">
        <ele>31.3801</ele>
        <time>2014-05-06T18:31:14Z</time>
      </trkpt>
      <trkpt lat="59.9883551" lon="17.7265511">
        <ele>31.8607</ele>
        <time>2014-05-06T18:31:15Z</time>
      </trkpt>
      <trkpt lat="59.988332" lon="17.7265539">
        <ele>31.8607</ele>
        <time>2014-05-06T18:31:16Z</time>
      </trkpt>
      <trkpt lat="59.9883074" lon="17.7265539">
        <ele>31.8607</ele>
        <time>2014-05-06T18:31:17Z</time>
      </trkpt>
      <trkpt lat="59.9882794" lon="17.7265532">
        <ele>31.8607</ele>
        <time>2014-05-06T18:31:18Z</time>
      </trkpt>
      <trkpt lat="59.9882505" lon="17.726552">
        <ele>32.3416</ele>
        <time>2014-05-06T18:31:19Z</time>
      </trkpt>
      <trkpt lat="59.9882204" lon="17.7265548">
        <ele>31.8607</ele>
        <time>2014-05-06T18:31:20Z</time>
      </trkpt>
      <trkpt lat="59.9881901" lon="17.7265565">
        <ele>31.8607</ele>
        <time>2014-05-06T18:31:21Z</time>
      </trkpt>
      <trkpt lat="59.9881609" lon="17.7265548">
        <ele>32.3416</ele>
        <time>2014-05-06T18:31:22Z</time>
      </trkpt>
      <trkpt lat="59.9881329" lon="17.7265556">
        <ele>32.3416</ele>
        <time>2014-05-06T18:31:23Z</time>
      </trkpt>
      <trkpt lat="59.9881008" lon="17.7265575">
        <ele>31.8607</ele>
        <time>2014-05-06T18:31:24Z</time>
      </trkpt>
      <trkpt lat="59.988068" lon="17.7265548">
        <ele>31.8607</ele>
        <time>2014-05-06T18:31:25Z</time>
      </trkpt>
      <trkpt lat="59.9880383" lon="17.7265544">
        <ele>31.3801</ele>
        <time>2014-05-06T18:31:26Z</time>
      </trkpt>
      <trkpt lat="59.9880064" lon="17.7265527">
        <ele>30.8995</ele>
        <time>2014-05-06T18:31:27Z</time>
      </trkpt>
      <trkpt lat="59.9879744" lon="17.7265494">
        <ele>30.8995</ele>
        <time>2014-05-06T18:31:28Z</time>
      </trkpt>
      <trkpt lat="59.9879428" lon="17.7265502">
        <ele>30.4188</ele>
        <time>2014-05-06T18:31:29Z</time>
      </trkpt>
      <trkpt lat="59.9879104" lon="17.7265517">
        <ele>30.4188</ele>
        <time>2014-05-06T18:31:30Z</time>
      </trkpt>
      <trkpt lat="59.9878781" lon="17.7265503">
        <ele>30.4188</ele>
        <time>2014-05-06T18:31:31Z</time>
      </trkpt>
      <trkpt lat="59.9878463" lon="17.7265463">
        <ele>30.4188</ele>
        <time>2014-05-06T18:31:32Z</time>
      </trkpt>
      <trkpt lat="59.9878177" lon="17.7265418">
        <ele>29.9381</ele>
        <time>2014-05-06T18:31:33Z</time>
      </trkpt>
      <trkpt lat="59.9877883" lon="17.7265408">
        <ele>29.9381</ele>
        <time>2014-05-06T18:31:34Z</time>
      </trkpt>
      <trkpt lat="59.9877569" lon="17.7265396">
        <ele>29.4575</ele>
        <time>2014-05-06T18:31:35Z</time>
      </trkpt>
      <trkpt lat="59.9877268" lon="17.7265376">
        <ele>29.4575</ele>
        <time>2014-05-06T18:31:36Z</time>
      </trkpt>
      <trkpt lat="59.9876957" lon="17.7265407">
        <ele>29.4575</ele>
        <time>2014-05-06T18:31:37Z</time>
      </trkpt>
      <trkpt lat="59.9876651" lon="17.726547">
        <ele>28.9769</ele>
        <time>2014-05-06T18:31:38Z</time>
      </trkpt>
      <trkpt lat="59.9876361" lon="17.7265523">
        <ele>28.9769</ele>
        <time>2014-05-06T18:31:39Z</time>
      </trkpt>
      <trkpt lat="59.9876046" lon="17.7265554">
        <ele>28.4962</ele>
        <time>2014-05-06T18:31:40Z</time>
      </trkpt>
      <trkpt lat="59.9875716" lon="17.7265599">
        <ele>28.4962</ele>
        <time>2014-05-06T18:31:41Z</time>
      </trkpt>
      <trkpt lat="59.9875391" lon="17.7265618">
        <ele>28.4962</ele>
        <time>2014-05-06T18:31:42Z</time>
      </trkpt>
      <trkpt lat="59.987508" lon="17.7265505">
        <ele>28.0155</ele>
        <time>2014-05-06T18:31:43Z</time>
      </trkpt>
      <trkpt lat="59.9874785" lon="17.7265413">
        <ele>28.0155</ele>
        <time>2014-05-06T18:31:44Z</time>
      </trkpt>
      <trkpt lat="59.9874479" lon="17.7265419">
        <ele>27.5349</ele>
        <time>2014-05-06T18:31:45Z</time>
      </trkpt>
      <trkpt lat="59.9874191" lon="17.7265387">
        <ele>27.5349</ele>
        <time>2014-05-06T18:31:46Z</time>
      </trkpt>
      <trkpt lat="59.9873905" lon="17.7265381">
        <ele>27.0543</ele>
        <time>2014-05-06T18:31:47Z</time>
      </trkpt>
      <trkpt lat="59.9873589" lon="17.7265464">
        <ele>27.0543</ele>
        <time>2014-05-06T18:31:48Z</time>
      </trkpt>
      <trkpt lat="59.9873264" lon="17.7265538">
        <ele>26.0929</ele>
        <time>2014-05-06T18:31:49Z</time>
      </trkpt>
      <trkpt lat="59.9872953" lon="17.7265595">
        <ele>26.0929</ele>
        <time>2014-05-06T18:31:50Z</time>
      </trkpt>
      <trkpt lat="59.9872665" lon="17.7265684">
        <ele>25.6123</ele>
        <time>2014-05-06T18:31:51Z</time>
      </trkpt>
      <trkpt lat="59.9872368" lon="17.7265798">
        <ele>25.1317</ele>
        <time>2014-05-06T18:31:52Z</time>
      </trkpt>
      <trkpt lat="59.9872061" lon="17.7265816">
        <ele>25.1317</ele>
        <time>2014-05-06T18:31:53Z</time>
      </trkpt>
      <trkpt lat="59.9871776" lon="17.7265767">
        <ele>24.1703</ele>
        <time>2014-05-06T18:31:54Z</time>
      </trkpt>
      <trkpt lat="59.987148" lon="17.7265772">
        <ele>24.1703</ele>
        <time>2014-05-06T18:31:55Z</time>
      </trkpt>
      <trkpt lat="59.9871195" lon="17.7265805">
        <ele>24.1703</ele>
        <time>2014-05-06T18:31:56Z</time>
      </trkpt>
      <trkpt lat="59.9870904" lon="17.7265834">
        <ele>24.1703</ele>
        <time>2014-05-06T18:31:57Z</time>
      </trkpt>
      <trkpt lat="59.9870631" lon="17.7265859">
        <ele>24.1703</ele>
        <time>2014-05-06T18:31:58Z</time>
      </trkpt>
      <trkpt lat="59.9870352" lon="17.7265879">
        <ele>24.651</ele>
        <time>2014-05-06T18:31:59Z</time>
      </trkpt>
      <trkpt lat="59.9870056" lon="17.7265911">
        <ele>24.651</ele>
        <time>2014-05-06T18:32:00Z</time>
      </trkpt>
      <trkpt lat="59.9869786" lon="17.7265942">
        <ele>24.651</ele>
        <time>2014-05-06T18:32:01Z</time>
      </trkpt>
      <trkpt lat="59.9869491" lon="17.7265957">
        <ele>25.1317</ele>
        <time>2014-05-06T18:32:02Z</time>
      </trkpt>
      <trkpt lat="59.9869217" lon="17.726591">
        <ele>24.651</ele>
        <time>2014-05-06T18:32:03Z</time>
      </trkpt>
      <trkpt lat="59.9868948" lon="17.7265854">
        <ele>25.1317</ele>
        <time>2014-05-06T18:32:04Z</time>
      </trkpt>
      <trkpt lat="59.9868658" lon="17.7265787">
        <ele>25.6123</ele>
        <time>2014-05-06T18:32:05Z</time>
      </trkpt>
      <trkpt lat="59.9868381" lon="17.726574">
        <ele>25.6123</ele>
        <time>2014-05-06T18:32:06Z</time>
      </trkpt>
      <trkpt lat="59.986811" lon="17.7265694">
        <ele>25.6123</ele>
        <time>2014-05-06T18:32:07Z</time>
      </trkpt>
      <trkpt lat="59.9867853" lon="17.7265563">
        <ele>25.1317</ele>
        <time>2014-05-06T18:32:08Z</time>
      </trkpt>
      <trkpt lat="59.9867614" lon="17.726547">
        <ele>25.6123</ele>
        <time>2014-05-06T18:32:09Z</time>
      </trkpt>
      <trkpt lat="59.9867357" lon="17.7265408">
        <ele>26.0929</ele>
        <time>2014-05-06T18:32:10Z</time>
      </trkpt>
      <trkpt lat="59.9867089" lon="17.7265413">
        <ele>26.0929</ele>
        <time>2014-05-06T18:32:11Z</time>
      </trkpt>
      <trkpt lat="59.9866814" lon="17.7265408">
        <ele>26.5736</ele>
        <time>2014-05-06T18:32:12Z</time>
      </trkpt>
      <trkpt lat="59.9866544" lon="17.7265304">
        <ele>26.5736</ele>
        <time>2014-05-06T18:32:13Z</time>
      </trkpt>
      <trkpt lat="59.9866269" lon="17.7265292">
        <ele>26.5736</ele>
        <time>2014-05-06T18:32:14Z</time>
      </trkpt>
      <trkpt lat="59.986598" lon="17.7265345">
        <ele>26.0929</ele>
        <time>2014-05-06T18:32:15Z</time>
      </trkpt>
      <trkpt lat="59.9865714" lon="17.7265393">
        <ele>25.6123</ele>
        <time>2014-05-06T18:32:16Z</time>
      </trkpt>
      <trkpt lat="59.9865456" lon="17.7265423">
        <ele>25.1317</ele>
        <time>2014-05-06T18:32:17Z</time>
      </trkpt>
      <trkpt lat="59.9865187" lon="17.7265455">
        <ele>25.1317</ele>
        <time>2014-05-06T18:32:18Z</time>
      </trkpt>
      <trkpt lat="59.9864936" lon="17.7265508">
        <ele>24.651</ele>
        <time>2014-05-06T18:32:19Z</time>
      </trkpt>
      <trkpt lat="59.9864659" lon="17.7265573">
        <ele>24.651</ele>
        <time>2014-05-06T18:32:20Z</time>
      </trkpt>
      <trkpt lat="59.9864389" lon="17.7265593">
        <ele>24.651</ele>
        <time>2014-05-06T18:32:21Z</time>
      </trkpt>
      <trkpt lat="59.9864125" lon="17.7265569">
        <ele>24.651</ele>
        <time>2014-05-06T18:32:22Z</time>
      </trkpt>
      <trkpt lat="59.9863854" lon="17.7265523">
        <ele>24.1703</ele>
        <time>2014-05-06T18:32:23Z</time>
      </trkpt>
      <trkpt lat="59.9863601" lon="17.7265518">
        <ele>24.1703</ele>
        <time>2014-05-06T18:32:24Z</time>
      </trkpt>
      <trkpt lat="59.9863334" lon="17.7265548">
        <ele>23.6896</ele>
        <time>2014-05-06T18:32:25Z</time>
      </trkpt>
      <trkpt lat="59.9863041" lon="17.7265577">
        <ele>23.209</ele>
        <time>2014-05-06T18:32:26Z</time>
      </trkpt>
      <trkpt lat="59.9862762" lon="17.7265614">
        <ele>23.209</ele>
        <time>2014-05-06T18:32:27Z</time>
      </trkpt>
      <trkpt lat="59.9862486" lon="17.7265601">
        <ele>23.209</ele>
        <time>2014-05-06T18:32:28Z</time>
      </trkpt>
      <trkpt lat="59.986221" lon="17.7265549">
        <ele>22.7283</ele>
        <time>2014-05-06T18:32:29Z</time>
      </trkpt>
      <trkpt lat="59.9861912" lon="17.7265569">
        <ele>22.7283</ele>
        <time>2014-05-06T18:32:30Z</time>
      </trkpt>
      <trkpt lat="59.9861601" lon="17.726565">
        <ele>22.7283</ele>
        <time>2014-05-06T18:32:31Z</time>
      </trkpt>
      <trkpt lat="59.9861307" lon="17.7265736">
        <ele>22.7283</ele>
        <time>2014-05-06T18:32:32Z</time>
      </trkpt>
      <trkpt lat="59.9861027" lon="17.7265781">
        <ele>22.2476</ele>
        <time>2014-05-06T18:32:33Z</time>
      </trkpt>
      <trkpt lat="59.9860758" lon="17.7265786">
        <ele>21.767</ele>
        <time>2014-05-06T18:32:34Z</time>
      </trkpt>
      <trkpt lat="59.9860481" lon="17.7265806">
        <ele>21.767</ele>
        <time>2014-05-06T18:32:35Z</time>
      </trkpt>
      <trkpt lat="59.9860186" lon="17.7265791">
        <ele>21.2864</ele>
        <time>2014-05-06T18:32:36Z</time>
      </trkpt>
      <trkpt lat="59.9859923" lon="17.7265738">
        <ele>21.2864</ele>
        <time>2014-05-06T18:32:37Z</time>
      </trkpt>
      <trkpt lat="59.9859639" lon="17.7265745">
        <ele>20.8057</ele>
        <time>2014-05-06T18:32:38Z</time>
      </trkpt>
      <trkpt lat="59.9859344" lon="17.7265733">
        <ele>21.2864</ele>
        <time>2014-05-06T18:32:39Z</time>
      </trkpt>
      <trkpt lat="59.9859072" lon="17.7265693">
        <ele>20.8057</ele>
        <time>2014-05-06T18:32:40Z</time>
      </trkpt>
      <trkpt lat="59.985877" lon="17.7265692">
        <ele>20.8057</ele>
        <time>2014-05-06T18:32:41Z</time>
      </trkpt>
      <trkpt lat="59.9858515" lon="17.7265663">
        <ele>21.2864</ele>
        <time>2014-05-06T18:32:42Z</time>
      </trkpt>
      <trkpt lat="59.9858242" lon="17.7265698">
        <ele>21.2864</ele>
        <time>2014-05-06T18:32:43Z</time>
      </trkpt>
      <trkpt lat="59.9857935" lon="17.7265774">
        <ele>21.2864</ele>
        <time>2014-05-06T18:32:44Z</time>
      </trkpt>
      <trkpt lat="59.985764" lon="17.7265828">
        <ele>21.2864</ele>
        <time>2014-05-06T18:32:45Z</time>
      </trkpt>
      <trkpt lat="59.9857354" lon="17.7265827">
        <ele>21.767</ele>
        <time>2014-05-06T18:32:46Z</time>
      </trkpt>
      <trkpt lat="59.9857073" lon="17.7265823">
        <ele>21.767</ele>
        <time>2014-05-06T18:32:47Z</time>
      </trkpt>
      <trkpt lat="59.9856779" lon="17.7265843">
        <ele>21.767</ele>
        <time>2014-05-06T18:32:48Z</time>
      </trkpt>
      <trkpt lat="59.9856482" lon="17.7265859">
        <ele>21.767</ele>
        <time>2014-05-06T18:32:49Z</time>
      </trkpt>
      <trkpt lat="59.9856182" lon="17.726591">
        <ele>22.2476</ele>
        <time>2014-05-06T18:32:50Z</time>
      </trkpt>
      <trkpt lat="59.9855871" lon="17.7265931">
        <ele>22.2476</ele>
        <time>2014-05-06T18:32:51Z</time>
      </trkpt>
      <trkpt lat="59.9855583" lon="17.726591">
        <ele>22.2476</ele>
        <time>2014-05-06T18:32:52Z</time>
      </trkpt>
      <trkpt lat="59.9855301" lon="17.7265911">
        <ele>22.2476</ele>
        <time>2014-05-06T18:32:53Z</time>
      </trkpt>
      <trkpt lat="59.9855017" lon="17.7265931">
        <ele>22.2476</ele>
        <time>2014-05-06T18:32:54Z</time>
      </trkpt>
      <trkpt lat="59.9854742" lon="17.7265993">
        <ele>22.2476</ele>
        <time>2014-05-06T18:32:55Z</time>
      </trkpt>
      <trkpt lat="59.9854459" lon="17.7266003">
        <ele>22.7283</ele>
        <time>2014-05-06T18:32:56Z</time>
      </trkpt>
      <trkpt lat="59.9854175" lon="17.7265983">
        <ele>22.7283</ele>
        <time>2014-05-06T18:32:57Z</time>
      </trkpt>
      <trkpt lat="59.9853875" lon="17.7265984">
        <ele>22.7283</ele>
        <time>2014-05-06T18:32:58Z</time>
      </trkpt>
      <trkpt lat="59.9853577" lon="17.7266064">
        <ele>22.7283</ele>
        <time>2014-05-06T18:32:59Z</time>
      </trkpt>
      <trkpt lat="59.9853314" lon="17.7266171">
        <ele>22.2476</ele>
        <time>2014-05-06T18:33:00Z</time>
      </trkpt>
      <trkpt lat="59.9853033" lon="17.7266217">
        <ele>22.2476</ele>
        <time>2014-05-06T18:33:01Z</time>
      </trkpt>
      <trkpt lat="59.9852779" lon="17.7266204">
        <ele>21.767</ele>
        <time>2014-05-06T18:33:02Z</time>
      </trkpt>
      <trkpt lat="59.9852526" lon="17.7266197">
        <ele>22.2476</ele>
        <time>2014-05-06T18:33:03Z</time>
      </trkpt>
      <trkpt lat="59.9852226" lon="17.7266243">
        <ele>21.767</ele>
        <time>2014-05-06T18:33:04Z</time>
      </trkpt>
      <trkpt lat="59.9851931" lon="17.7266245">
        <ele>22.2476</ele>
        <time>2014-05-06T18:33:05Z</time>
      </trkpt>
      <trkpt lat="59.9851644" lon="17.726624">
        <ele>22.2476</ele>
        <time>2014-05-06T18:33:06Z</time>
      </trkpt>
      <trkpt lat="59.9851352" lon="17.7266273">
        <ele>22.2476</ele>
        <time>2014-05-06T18:33:07Z</time>
      </trkpt>
      <trkpt lat="59.9851061" lon="17.726634">
        <ele>22.2476</ele>
        <time>2014-05-06T18:33:08Z</time>
      </trkpt>
      <trkpt lat="59.9850756" lon="17.7266398">
        <ele>22.2476</ele>
        <time>2014-05-06T18:33:09Z</time>
      </trkpt>
      <trkpt lat="59.9850456" lon="17.7266452">
        <ele>22.2476</ele>
        <time>2014-05-06T18:33:10Z</time>
      </trkpt>
      <trkpt lat="59.9850163" lon="17.7266486">
        <ele>22.2476</ele>
        <time>2014-05-06T18:33:11Z</time>
      </trkpt>
      <trkpt lat="59.9849884" lon="17.7266487">
        <ele>22.7283</ele>
        <time>2014-05-06T18:33:12Z</time>
      </trkpt>
      <trkpt lat="59.9849611" lon="17.7266521">
        <ele>22.7283</ele>
        <time>2014-05-06T18:33:13Z</time>
      </trkpt>
      <trkpt lat="59.9849304" lon="17.7266566">
        <ele>22.7283</ele>
        <time>2014-05-06T18:33:14Z</time>
      </trkpt>
      <trkpt lat="59.984902" lon="17.7266585">
        <ele>22.7283</ele>
        <time>2014-05-06T18:33:15Z</time>
      </trkpt>
      <trkpt lat="59.9848745" lon="17.7266589">
        <ele>22.7283</ele>
        <time>2014-05-06T18:33:16Z</time>
      </trkpt>
      <trkpt lat="59.984846" lon="17.7266588">
        <ele>22.2476</ele>
        <time>2014-05-06T18:33:17Z</time>
      </trkpt>
      <trkpt lat="59.9848205" lon="17.7266598">
        <ele>21.767</ele>
        <time>2014-05-06T18:33:18Z</time>
      </trkpt>
      <trkpt lat="59.9847933" lon="17.7266605">
        <ele>21.767</ele>
        <time>2014-05-06T18:33:19Z</time>
      </trkpt>
      <trkpt lat="59.9847662" lon="17.7266572">
        <ele>21.2864</ele>
        <time>2014-05-06T18:33:20Z</time>
      </trkpt>
      <trkpt lat="59.9847404" lon="17.7266518">
        <ele>21.2864</ele>
        <time>2014-05-06T18:33:21Z</time>
      </trkpt>
      <trkpt lat="59.9847143" lon="17.7266486">
        <ele>20.8057</ele>
        <time>2014-05-06T18:33:22Z</time>
      </trkpt>
      <trkpt lat="59.9846882" lon="17.7266465">
        <ele>20.8057</ele>
        <time>2014-05-06T18:33:23Z</time>
      </trkpt>
      <trkpt lat="59.9846648" lon="17.7266435">
        <ele>20.325</ele>
        <time>2014-05-06T18:33:24Z</time>
      </trkpt>
      <trkpt lat="59.984642" lon="17.7266403">
        <ele>19.8444</ele>
        <time>2014-05-06T18:33:25Z</time>
      </trkpt>
      <trkpt lat="59.9846158" lon="17.7266352">
        <ele>19.8444</ele>
        <time>2014-05-06T18:33:26Z</time>
      </trkpt>
      <trkpt lat="59.9845897" lon="17.7266259">
        <ele>19.8444</ele>
        <time>2014-05-06T18:33:27Z</time>
      </trkpt>
      <trkpt lat="59.9845648" lon="17.7266235">
        <ele>19.3638</ele>
        <time>2014-05-06T18:33:28Z</time>
      </trkpt>
      <trkpt lat="59.9845373" lon="17.7266235">
        <ele>19.3638</ele>
        <time>2014-05-06T18:33:29Z</time>
      </trkpt>
      <trkpt lat="59.9845126" lon="17.7266221">
        <ele>18.8831</ele>
        <time>2014-05-06T18:33:30Z</time>
      </trkpt>
      <trkpt lat="59.9844854" lon="17.726619">
        <ele>18.8831</ele>
        <time>2014-05-06T18:33:31Z</time>
      </trkpt>
      <trkpt lat="59.9844564" lon="17.7266149">
        <ele>18.4023</ele>
        <time>2014-05-06T18:33:32Z</time>
      </trkpt>
      <trkpt lat="59.9844291" lon="17.7266145">
        <ele>18.4023</ele>
        <time>2014-05-06T18:33:33Z</time>
      </trkpt>
      <trkpt lat="59.9844019" lon="17.7266108">
        <ele>18.4023</ele>
        <time>2014-05-06T18:33:34Z</time>
      </trkpt>
      <trkpt lat="59.9843736" lon="17.7266098">
        <ele>18.4023</ele>
        <time>2014-05-06T18:33:35Z</time>
      </trkpt>
      <trkpt lat="59.984348" lon="17.7266129">
        <ele>17.9218</ele>
        <time>2014-05-06T18:33:36Z</time>
      </trkpt>
      <trkpt lat="59.9843202" lon="17.7266114">
        <ele>17.9218</ele>
        <time>2014-05-06T18:33:37Z</time>
      </trkpt>
      <trkpt lat="59.9842931" lon="17.7266054">
        <ele>17.9218</ele>
        <time>2014-05-06T18:33:38Z</time>
      </trkpt>
      <trkpt lat="59.984266" lon="17.7265992">
        <ele>17.9218</ele>
        <time>2014-05-06T18:33:39Z</time>
      </trkpt>
      <trkpt lat="59.9842369" lon="17.7265919">
        <ele>17.4412</ele>
        <time>2014-05-06T18:33:40Z</time>
      </trkpt>
      <trkpt lat="59.9842083" lon="17.7265877">
        <ele>17.4412</ele>
        <time>2014-05-06T18:33:41Z</time>
      </trkpt>
      <trkpt lat="59.9841804" lon="17.7265869">
        <ele>16.9604</ele>
        <time>2014-05-06T18:33:42Z</time>
      </trkpt>
      <trkpt lat="59.984153" lon="17.7265846">
        <ele>16.9604</ele>
        <time>2014-05-06T18:33:43Z</time>
      </trkpt>
      <trkpt lat="59.984126" lon="17.7265854">
        <ele>16.9604</ele>
        <time>2014-05-06T18:33:44Z</time>
      </trkpt>
      <trkpt lat="59.984097" lon="17.7265859">
        <ele>16.9604</ele>
        <time>2014-05-06T18:33:45Z</time>
      </trkpt>
      <trkpt lat="59.9840681" lon="17.7265839">
        <ele>16.9604</ele>
        <time>2014-05-06T18:33:46Z</time>
      </trkpt>
      <trkpt lat="59.9840389" lon="17.7265831">
        <ele>16.4797</ele>
        <time>2014-05-06T18:33:47Z</time>
      </trkpt>
      <trkpt lat="59.9840073" lon="17.7265846">
        <ele>16.4797</ele>
        <time>2014-05-06T18:33:48Z</time>
      </trkpt>
      <trkpt lat="59.9839763" lon="17.7265909">
        <ele>16.4797</ele>
        <time>2014-05-06T18:33:49Z</time>
      </trkpt>
      <trkpt lat="59.9839472" lon="17.7265963">
        <ele>16.4797</ele>
        <time>2014-05-06T18:33:50Z</time>
      </trkpt>
      <trkpt lat="59.9839178" lon="17.7265938">
        <ele>15.999</ele>
        <time>2014-05-06T18:33:51Z</time>
      </trkpt>
      <trkpt lat="59.9838893" lon="17.7265957">
        <ele>15.999</ele>
        <time>2014-05-06T18:33:52Z</time>
      </trkpt>
      <trkpt lat="59.983859" lon="17.7266017">
        <ele>15.999</ele>
        <time>2014-05-06T18:33:53Z</time>
      </trkpt>
      <trkpt lat="59.983828" lon="17.7266019">
        <ele>15.999</ele>
        <time>2014-05-06T18:33:54Z</time>
      </trkpt>
      <trkpt lat="59.983799" lon="17.7266039">
        <ele>15.999</ele>
        <time>2014-05-06T18:33:55Z</time>
      </trkpt>
      <trkpt lat="59.9837691" lon="17.7266076">
        <ele>15.5184</ele>
        <time>2014-05-06T18:33:56Z</time>
      </trkpt>
      <trkpt lat="59.9837405" lon="17.7266093">
        <ele>15.5184</ele>
        <time>2014-05-06T18:33:57Z</time>
      </trkpt>
      <trkpt lat="59.9837127" lon="17.7266077">
        <ele>15.999</ele>
        <time>2014-05-06T18:33:58Z</time>
      </trkpt>
      <trkpt lat="59.9836863" lon="17.7266019">
        <ele>16.4797</ele>
        <time>2014-05-06T18:33:59Z</time>
      </trkpt>
      <trkpt lat="59.9836596" lon="17.7266014">
        <ele>16.9604</ele>
        <time>2014-05-06T18:34:00Z</time>
      </trkpt>
      <trkpt lat="59.9836293" lon="17.7266025">
        <ele>17.4412</ele>
        <time>2014-05-06T18:34:01Z</time>
      </trkpt>
      <trkpt lat="59.9835983" lon="17.726601">
        <ele>17.4412</ele>
        <time>2014-05-06T18:34:02Z</time>
      </trkpt>
      <trkpt lat="59.9835696" lon="17.7266019">
        <ele>17.4412</ele>
        <time>2014-05-06T18:34:03Z</time>
      </trkpt>
      <trkpt lat="59.9835374" lon="17.7266057">
        <ele>17.4412</ele>
        <time>2014-05-06T18:34:04Z</time>
      </trkpt>
      <trkpt lat="59.9835076" lon="17.7266092">
        <ele>16.9604</ele>
        <time>2014-05-06T18:34:05Z</time>
      </trkpt>
      <trkpt lat="59.9834778" lon="17.7266139">
        <ele>16.9604</ele>
        <time>2014-05-06T18:34:06Z</time>
      </trkpt>
      <trkpt lat="59.98345" lon="17.7266171">
        <ele>16.4797</ele>
        <time>2014-05-06T18:34:07Z</time>
      </trkpt>
      <trkpt lat="59.9834241" lon="17.7266217">
        <ele>16.4797</ele>
        <time>2014-05-06T18:34:08Z</time>
      </trkpt>
      <trkpt lat="59.9833946" lon="17.7266238">
        <ele>16.4797</ele>
        <time>2014-05-06T18:34:09Z</time>
      </trkpt>
      <trkpt lat="59.9833677" lon="17.7266253">
        <ele>16.4797</ele>
        <time>2014-05-06T18:34:10Z</time>
      </trkpt>
      <trkpt lat="59.9833428" lon="17.7266283">
        <ele>16.4797</ele>
        <time>2014-05-06T18:34:11Z</time>
      </trkpt>
      <trkpt lat="59.9833174" lon="17.7266241">
        <ele>16.4797</ele>
        <time>2014-05-06T18:34:12Z</time>
      </trkpt>
      <trkpt lat="59.9832925" lon="17.7266223">
        <ele>16.4797</ele>
        <time>2014-05-06T18:34:13Z</time>
      </trkpt>
      <trkpt lat="59.9832654" lon="17.7266256">
        <ele>15.999</ele>
        <time>2014-05-06T18:34:14Z</time>
      </trkpt>
      <trkpt lat="59.9832379" lon="17.7266238">
        <ele>15.5184</ele>
        <time>2014-05-06T18:34:15Z</time>
      </trkpt>
      <trkpt lat="59.9832118" lon="17.7266228">
        <ele>15.5184</ele>
        <time>2014-05-06T18:34:16Z</time>
      </trkpt>
      <trkpt lat="59.9831836" lon="17.7266279">
        <ele>15.5184</ele>
        <time>2014-05-06T18:34:17Z</time>
      </trkpt>
      <trkpt lat="59.9831551" lon="17.726631">
        <ele>15.5184</ele>
        <time>2014-05-06T18:34:18Z</time>
      </trkpt>
      <trkpt lat="59.983129" lon="17.7266305">
        <ele>15.0377</ele>
        <time>2014-05-06T18:34:19Z</time>
      </trkpt>
      <trkpt lat="59.9831034" lon="17.7266293">
        <ele>15.0377</ele>
        <time>2014-05-06T18:34:20Z</time>
      </trkpt>
      <trkpt lat="59.983079" lon="17.7266293">
        <ele>15.0377</ele>
        <time>2014-05-06T18:34:21Z</time>
      </trkpt>
      <trkpt lat="59.9830562" lon="17.7266243">
        <ele>15.999</ele>
        <time>2014-05-06T18:34:22Z</time>
      </trkpt>
      <trkpt lat="59.9830295" lon="17.7266211">
        <ele>15.999</ele>
        <time>2014-05-06T18:34:23Z</time>
      </trkpt>
      <trkpt lat="59.9830008" lon="17.7266209">
        <ele>16.4797</ele>
        <time>2014-05-06T18:34:24Z</time>
      </trkpt>
      <trkpt lat="59.9829725" lon="17.7266227">
        <ele>16.9604</ele>
        <time>2014-05-06T18:34:25Z</time>
      </trkpt>
      <trkpt lat="59.9829455" lon="17.7266263">
        <ele>16.9604</ele>
        <time>2014-05-06T18:34:26Z</time>
      </trkpt>
      <trkpt lat="59.9829189" lon="17.7266254">
        <ele>17.4412</ele>
        <time>2014-05-06T18:34:27Z</time>
      </trkpt>
      <trkpt lat="59.9828902" lon="17.7266257">
        <ele>17.9218</ele>
        <time>2014-05-06T18:34:28Z</time>
      </trkpt>
      <trkpt lat="59.9828631" lon="17.7266294">
        <ele>18.4023</ele>
        <time>2014-05-06T18:34:29Z</time>
      </trkpt>
      <trkpt lat="59.9828346" lon="17.7266367">
        <ele>18.8831</ele>
        <time>2014-05-06T18:34:30Z</time>
      </trkpt>
      <trkpt lat="59.9828078" lon="17.7266466">
        <ele>18.8831</ele>
        <time>2014-05-06T18:34:31Z</time>
      </trkpt>
      <trkpt lat="59.9827812" lon="17.7266588">
        <ele>19.3638</ele>
        <time>2014-05-06T18:34:32Z</time>
      </trkpt>
      <trkpt lat="59.9827522" lon="17.7266672">
        <ele>19.3638</ele>
        <time>2014-05-06T18:34:33Z</time>
      </trkpt>
      <trkpt lat="59.9827284" lon="17.7266682">
        <ele>19.3638</ele>
        <time>2014-05-06T18:34:34Z</time>
      </trkpt>
      <trkpt lat="59.9827014" lon="17.7266707">
        <ele>20.325</ele>
        <time>2014-05-06T18:34:35Z</time>
      </trkpt>
      <trkpt lat="59.9826761" lon="17.7266772">
        <ele>20.8057</ele>
        <time>2014-05-06T18:34:36Z</time>
      </trkpt>
      <trkpt lat="59.9826531" lon="17.726689">
        <ele>20.325</ele>
        <time>2014-05-06T18:34:37Z</time>
      </trkpt>
      <trkpt lat="59.982628" lon="17.7267057">
        <ele>20.325</ele>
        <time>2014-05-06T18:34:38Z</time>
      </trkpt>
      <trkpt lat="59.9826045" lon="17.7267256">
        <ele>20.8057</ele>
        <time>2014-05-06T18:34:39Z</time>
      </trkpt>
      <trkpt lat="59.9825827" lon="17.7267533">
        <ele>20.8057</ele>
        <time>2014-05-06T18:34:40Z</time>
      </trkpt>
      <trkpt lat="59.982557" lon="17.726782">
        <ele>21.2864</ele>
        <time>2014-05-06T18:34:41Z</time>
      </trkpt>
      <trkpt lat="59.9825296" lon="17.7268234">
        <ele>21.767</ele>
        <time>2014-05-06T18:34:42Z</time>
      </trkpt>
      <trkpt lat="59.982502" lon="17.726864">
        <ele>22.2476</ele>
        <time>2014-05-06T18:34:43Z</time>
      </trkpt>
      <trkpt lat="59.9824746" lon="17.7268889">
        <ele>22.7283</ele>
        <time>2014-05-06T18:34:44Z</time>
      </trkpt>
      <trkpt lat="59.9824517" lon="17.7269143">
        <ele>23.209</ele>
        <time>2014-05-06T18:34:45Z</time>
      </trkpt>
      <trkpt lat="59.9824284" lon="17.7269412">
        <ele>23.6896</ele>
        <time>2014-05-06T18:34:46Z</time>
      </trkpt>
      <trkpt lat="59.982403" lon="17.7269713">
        <ele>24.1703</ele>
        <time>2014-05-06T18:34:47Z</time>
      </trkpt>
      <trkpt lat="59.9823777" lon="17.7270013">
        <ele>24.651</ele>
        <time>2014-05-06T18:34:48Z</time>
      </trkpt>
      <trkpt lat="59.982355" lon="17.7270247">
        <ele>25.1317</ele>
        <time>2014-05-06T18:34:49Z</time>
      </trkpt>
      <trkpt lat="59.9823327" lon="17.7270485">
        <ele>25.1317</ele>
        <time>2014-05-06T18:34:50Z</time>
      </trkpt>
      <trkpt lat="59.9823081" lon="17.7270744">
        <ele>25.6123</ele>
        <time>2014-05-06T18:34:51Z</time>
      </trkpt>
      <trkpt lat="59.9822876" lon="17.7271023">
        <ele>25.6123</ele>
        <time>2014-05-06T18:34:52Z</time>
      </trkpt>
      <trkpt lat="59.9822684" lon="17.7271308">
        <ele>27.0543</ele>
        <time>2014-05-06T18:34:53Z</time>
      </trkpt>
      <trkpt lat="59.9822482" lon="17.7271617">
        <ele>27.0543</ele>
        <time>2014-05-06T18:34:54Z</time>
      </trkpt>
      <trkpt lat="59.9822289" lon="17.7272031">
        <ele>27.0543</ele>
        <time>2014-05-06T18:34:55Z</time>
      </trkpt>
      <trkpt lat="59.9822107" lon="17.7272401">
        <ele>27.0543</ele>
        <time>2014-05-06T18:34:56Z</time>
      </trkpt>
      <trkpt lat="59.9821976" lon="17.727265">
        <ele>27.0543</ele>
        <time>2014-05-06T18:34:57Z</time>
      </trkpt>
      <trkpt lat="59.9821838" lon="17.7273133">
        <ele>26.5736</ele>
        <time>2014-05-06T18:34:58Z</time>
      </trkpt>
      <trkpt lat="59.9821704" lon="17.7273468">
        <ele>27.0543</ele>
        <time>2014-05-06T18:34:59Z</time>
      </trkpt>
      <trkpt lat="59.9821553" lon="17.7273784">
        <ele>27.5349</ele>
        <time>2014-05-06T18:35:00Z</time>
      </trkpt>
      <trkpt lat="59.9821432" lon="17.7274168">
        <ele>27.5349</ele>
        <time>2014-05-06T18:35:01Z</time>
      </trkpt>
      <trkpt lat="59.9821299" lon="17.7274531">
        <ele>28.4962</ele>
        <time>2014-05-06T18:35:02Z</time>
      </trkpt>
      <trkpt lat="59.9821136" lon="17.7274924">
        <ele>28.9769</ele>
        <time>2014-05-06T18:35:03Z</time>
      </trkpt>
      <trkpt lat="59.982097" lon="17.7275371">
        <ele>28.9769</ele>
        <time>2014-05-06T18:35:04Z</time>
      </trkpt>
      <trkpt lat="59.9820804" lon="17.7275806">
        <ele>29.4575</ele>
        <time>2014-05-06T18:35:05Z</time>
      </trkpt>
      <trkpt lat="59.9820617" lon="17.7276272">
        <ele>29.9381</ele>
        <time>2014-05-06T18:35:06Z</time>
      </trkpt>
      <trkpt lat="59.9820409" lon="17.7276759">
        <ele>29.9381</ele>
        <time>2014-05-06T18:35:07Z</time>
      </trkpt>
      <trkpt lat="59.9820193" lon="17.7277184">
        <ele>30.4188</ele>
        <time>2014-05-06T18:35:08Z</time>
      </trkpt>
      <trkpt lat="59.9819996" lon="17.7277566">
        <ele>30.4188</ele>
        <time>2014-05-06T18:35:09Z</time>
      </trkpt>
      <trkpt lat="59.9819777" lon="17.7277912">
        <ele>30.4188</ele>
        <time>2014-05-06T18:35:10Z</time>
      </trkpt>
      <trkpt lat="59.9819529" lon="17.7278248">
        <ele>30.4188</ele>
        <time>2014-05-06T18:35:11Z</time>
      </trkpt>
      <trkpt lat="59.9819289" lon="17.727874">
        <ele>30.4188</ele>
        <time>2014-05-06T18:35:12Z</time>
      </trkpt>
      <trkpt lat="59.9819048" lon="17.7279286">
        <ele>30.4188</ele>
        <time>2014-05-06T18:35:13Z</time>
      </trkpt>
      <trkpt lat="59.9818776" lon="17.7279686">
        <ele>30.8995</ele>
        <time>2014-05-06T18:35:14Z</time>
      </trkpt>
      <trkpt lat="59.9818509" lon="17.728002">
        <ele>30.8995</ele>
        <time>2014-05-06T18:35:15Z</time>
      </trkpt>
      <trkpt lat="59.9818284" lon="17.7280415">
        <ele>31.3801</ele>
        <time>2014-05-06T18:35:16Z</time>
      </trkpt>
      <trkpt lat="59.9818043" lon="17.7280825">
        <ele>30.8995</ele>
        <time>2014-05-06T18:35:17Z</time>
      </trkpt>
      <trkpt lat="59.9817805" lon="17.7281279">
        <ele>31.3801</ele>
        <time>2014-05-06T18:35:18Z</time>
      </trkpt>
      <trkpt lat="59.981755" lon="17.7281767">
        <ele>30.8995</ele>
        <time>2014-05-06T18:35:19Z</time>
      </trkpt>
      <trkpt lat="59.9817238" lon="17.7282172">
        <ele>30.8995</ele>
        <time>2014-05-06T18:35:20Z</time>
      </trkpt>
      <trkpt lat="59.9816941" lon="17.7282496">
        <ele>30.8995</ele>
        <time>2014-05-06T18:35:21Z</time>
      </trkpt>
      <trkpt lat="59.9816671" lon="17.7282643">
        <ele>30.8995</ele>
        <time>2014-05-06T18:35:22Z</time>
      </trkpt>
      <trkpt lat="59.9816389" lon="17.7282788">
        <ele>30.8995</ele>
        <time>2014-05-06T18:35:23Z</time>
      </trkpt>
      <trkpt lat="59.9816069" lon="17.7283124">
        <ele>30.8995</ele>
        <time>2014-05-06T18:35:24Z</time>
      </trkpt>
      <trkpt lat="59.9815773" lon="17.7283482">
        <ele>30.8995</ele>
        <time>2014-05-06T18:35:25Z</time>
      </trkpt>
      <trkpt lat="59.9815511" lon="17.7283745">
        <ele>30.8995</ele>
        <time>2014-05-06T18:35:26Z</time>
      </trkpt>
      <trkpt lat="59.9815241" lon="17.7283989">
        <ele>30.8995</ele>
        <time>2014-05-06T18:35:27Z</time>
      </trkpt>
      <trkpt lat="59.9814985" lon="17.7284228">
        <ele>30.4188</ele>
        <time>2014-05-06T18:35:28Z</time>
      </trkpt>
      <trkpt lat="59.9814693" lon="17.7284559">
        <ele>30.4188</ele>
        <time>2014-05-06T18:35:29Z</time>
      </trkpt>
      <trkpt lat="59.9814422" lon="17.7284791">
        <ele>30.4188</ele>
        <time>2014-05-06T18:35:30Z</time>
      </trkpt>
      <trkpt lat="59.981419" lon="17.728491">
        <ele>29.9381</ele>
        <time>2014-05-06T18:35:31Z</time>
      </trkpt>
      <trkpt lat="59.981399" lon="17.7285082">
        <ele>29.9381</ele>
        <time>2014-05-06T18:35:32Z</time>
      </trkpt>
      <trkpt lat="59.9813794" lon="17.7285243">
        <ele>29.9381</ele>
        <time>2014-05-06T18:35:33Z</time>
      </trkpt>
      <trkpt lat="59.9813602" lon="17.728546">
        <ele>29.9381</ele>
        <time>2014-05-06T18:35:34Z</time>
      </trkpt>
      <trkpt lat="59.9813401" lon="17.7285817">
        <ele>30.4188</ele>
        <time>2014-05-06T18:35:35Z</time>
      </trkpt>
      <trkpt lat="59.9813189" lon="17.7286221">
        <ele>30.8995</ele>
        <time>2014-05-06T18:35:36Z</time>
      </trkpt>
      <trkpt lat="59.9813003" lon="17.7286582">
        <ele>31.3801</ele>
        <time>2014-05-06T18:35:37Z</time>
      </trkpt>
      <trkpt lat="59.9812812" lon="17.7286988">
        <ele>31.8607</ele>
        <time>2014-05-06T18:35:38Z</time>
      </trkpt>
      <trkpt lat="59.9812592" lon="17.7287394">
        <ele>32.3416</ele>
        <time>2014-05-06T18:35:39Z</time>
      </trkpt>
      <trkpt lat="59.9812385" lon="17.7287693">
        <ele>32.8223</ele>
        <time>2014-05-06T18:35:40Z</time>
      </trkpt>
      <trkpt lat="59.9812167" lon="17.7288012">
        <ele>33.3029</ele>
        <time>2014-05-06T18:35:41Z</time>
      </trkpt>
      <trkpt lat="59.9811936" lon="17.7288308">
        <ele>33.7834</ele>
        <time>2014-05-06T18:35:42Z</time>
      </trkpt>
      <trkpt lat="59.9811851" lon="17.7288361">
        <ele>33.3029</ele>
        <time>2014-05-06T18:35:43Z</time>
      </trkpt>
      <trkpt lat="59.981159" lon="17.7288546">
        <ele>33.3029</ele>
        <time>2014-05-06T18:35:44Z</time>
      </trkpt>
      <trkpt lat="59.9811341" lon="17.7288657">
        <ele>33.3029</ele>
        <time>2014-05-06T18:35:45Z</time>
      </trkpt>
      <trkpt lat="59.9811121" lon="17.7288728">
        <ele>33.3029</ele>
        <time>2014-05-06T18:35:46Z</time>
      </trkpt>
      <trkpt lat="59.9810864" lon="17.7288874">
        <ele>33.7834</ele>
        <time>2014-05-06T18:35:47Z</time>
      </trkpt>
      <trkpt lat="59.9810619" lon="17.728911">
        <ele>33.3029</ele>
        <time>2014-05-06T18:35:48Z</time>
      </trkpt>
      <trkpt lat="59.9810362" lon="17.7289346">
        <ele>33.3029</ele>
        <time>2014-05-06T18:35:49Z</time>
      </trkpt>
      <trkpt lat="59.9810107" lon="17.728958">
        <ele>32.3416</ele>
        <time>2014-05-06T18:35:50Z</time>
      </trkpt>
      <trkpt lat="59.9809806" lon="17.7289952">
        <ele>31.8607</ele>
        <time>2014-05-06T18:35:51Z</time>
      </trkpt>
      <trkpt lat="59.980952" lon="17.7290196">
        <ele>31.3801</ele>
        <time>2014-05-06T18:35:52Z</time>
      </trkpt>
      <trkpt lat="59.9809231" lon="17.7290293">
        <ele>30.8995</ele>
        <time>2014-05-06T18:35:53Z</time>
      </trkpt>
      <trkpt lat="59.9808937" lon="17.7290298">
        <ele>30.4188</ele>
        <time>2014-05-06T18:35:54Z</time>
      </trkpt>
      <trkpt lat="59.9808666" lon="17.7290195">
        <ele>29.4575</ele>
        <time>2014-05-06T18:35:55Z</time>
      </trkpt>
      <trkpt lat="59.9808403" lon="17.7290076">
        <ele>28.9769</ele>
        <time>2014-05-06T18:35:56Z</time>
      </trkpt>
      <trkpt lat="59.9808142" lon="17.7289951">
        <ele>28.0155</ele>
        <time>2014-05-06T18:35:57Z</time>
      </trkpt>
      <trkpt lat="59.9807896" lon="17.7289781">
        <ele>27.5349</ele>
        <time>2014-05-06T18:35:58Z</time>
      </trkpt>
      <trkpt lat="59.9807631" lon="17.7289599">
        <ele>26.5736</ele>
        <time>2014-05-06T18:35:59Z</time>
      </trkpt>
      <trkpt lat="59.9807361" lon="17.7289324">
        <ele>26.5736</ele>
        <time>2014-05-06T18:36:00Z</time>
      </trkpt>
      <trkpt lat="59.9807165" lon="17.7288836">
        <ele>26.0929</ele>
        <time>2014-05-06T18:36:01Z</time>
      </trkpt>
      <trkpt lat="59.9806958" lon="17.728836">
        <ele>25.6123</ele>
        <time>2014-05-06T18:36:02Z</time>
      </trkpt>
      <trkpt lat="59.980676" lon="17.7287864">
        <ele>25.1317</ele>
        <time>2014-05-06T18:36:03Z</time>
      </trkpt>
      <trkpt lat="59.980657" lon="17.7287268">
        <ele>24.651</ele>
        <time>2014-05-06T18:36:04Z</time>
      </trkpt>
      <trkpt lat="59.980636" lon="17.7286734">
        <ele>24.1703</ele>
        <time>2014-05-06T18:36:05Z</time>
      </trkpt>
      <trkpt lat="59.980616" lon="17.7286301">
        <ele>23.6896</ele>
        <time>2014-05-06T18:36:06Z</time>
      </trkpt>
      <trkpt lat="59.9805921" lon="17.7285886">
        <ele>22.7283</ele>
        <time>2014-05-06T18:36:07Z</time>
      </trkpt>
      <trkpt lat="59.9805683" lon="17.7285423">
        <ele>22.7283</ele>
        <time>2014-05-06T18:36:08Z</time>
      </trkpt>
      <trkpt lat="59.9805486" lon="17.7284951">
        <ele>22.2476</ele>
        <time>2014-05-06T18:36:09Z</time>
      </trkpt>
      <trkpt lat="59.9805247" lon="17.7284533">
        <ele>22.7283</ele>
        <time>2014-05-06T18:36:10Z</time>
      </trkpt>
      <trkpt lat="59.9804999" lon="17.7284108">
        <ele>23.209</ele>
        <time>2014-05-06T18:36:11Z</time>
      </trkpt>
      <trkpt lat="59.9804858" lon="17.7283573">
        <ele>22.7283</ele>
        <time>2014-05-06T18:36:12Z</time>
      </trkpt>
      <trkpt lat="59.9804765" lon="17.7283072">
        <ele>21.767</ele>
        <time>2014-05-06T18:36:13Z</time>
      </trkpt>
      <trkpt lat="59.9804688" lon="17.7282591">
        <ele>21.2864</ele>
        <time>2014-05-06T18:36:14Z</time>
      </trkpt>
      <trkpt lat="59.9804547" lon="17.7282123">
        <ele>21.2864</ele>
        <time>2014-05-06T18:36:15Z</time>
      </trkpt>
      <trkpt lat="59.9804393" lon="17.7281699">
        <ele>20.8057</ele>
        <time>2014-05-06T18:36:16Z</time>
      </trkpt>
      <trkpt lat="59.9804255" lon="17.7281281">
        <ele>20.325</ele>
        <time>2014-05-06T18:36:17Z</time>
      </trkpt>
      <trkpt lat="59.9804034" lon="17.7280862">
        <ele>19.8444</ele>
        <time>2014-05-06T18:36:18Z</time>
      </trkpt>
      <trkpt lat="59.9803798" lon="17.7280493">
        <ele>19.8444</ele>
        <time>2014-05-06T18:36:19Z</time>
      </trkpt>
      <trkpt lat="59.9803529" lon="17.7280123">
        <ele>19.8444</ele>
        <time>2014-05-06T18:36:20Z</time>
      </trkpt>
      <trkpt lat="59.9803215" lon="17.7279767">
        <ele>19.3638</ele>
        <time>2014-05-06T18:36:21Z</time>
      </trkpt>
      <trkpt lat="59.9802886" lon="17.72794">
        <ele>19.3638</ele>
        <time>2014-05-06T18:36:22Z</time>
      </trkpt>
      <trkpt lat="59.9802617" lon="17.7278988">
        <ele>19.3638</ele>
        <time>2014-05-06T18:36:23Z</time>
      </trkpt>
      <trkpt lat="59.9802369" lon="17.7278597">
        <ele>18.8831</ele>
        <time>2014-05-06T18:36:24Z</time>
      </trkpt>
      <trkpt lat="59.9802104" lon="17.7278238">
        <ele>18.4023</ele>
        <time>2014-05-06T18:36:25Z</time>
      </trkpt>
      <trkpt lat="59.9801869" lon="17.727787">
        <ele>17.9218</ele>
        <time>2014-05-06T18:36:26Z</time>
      </trkpt>
      <trkpt lat="59.9801653" lon="17.7277523">
        <ele>17.9218</ele>
        <time>2014-05-06T18:36:27Z</time>
      </trkpt>
      <trkpt lat="59.9801477" lon="17.7277142">
        <ele>17.4412</ele>
        <time>2014-05-06T18:36:28Z</time>
      </trkpt>
      <trkpt lat="59.9801247" lon="17.727679">
        <ele>16.4797</ele>
        <time>2014-05-06T18:36:29Z</time>
      </trkpt>
      <trkpt lat="59.9801021" lon="17.7276411">
        <ele>16.4797</ele>
        <time>2014-05-06T18:36:30Z</time>
      </trkpt>
      <trkpt lat="59.9800804" lon="17.7276012">
        <ele>16.4797</ele>
        <time>2014-05-06T18:36:31Z</time>
      </trkpt>
      <trkpt lat="59.9800596" lon="17.7275655">
        <ele>15.999</ele>
        <time>2014-05-06T18:36:32Z</time>
      </trkpt>
      <trkpt lat="59.9800388" lon="17.7275269">
        <ele>15.999</ele>
        <time>2014-05-06T18:36:33Z</time>
      </trkpt>
      <trkpt lat="59.9800152" lon="17.7274972">
        <ele>15.5184</ele>
        <time>2014-05-06T18:36:34Z</time>
      </trkpt>
      <trkpt lat="59.9799911" lon="17.727467">
        <ele>15.5184</ele>
        <time>2014-05-06T18:36:35Z</time>
      </trkpt>
      <trkpt lat="59.9799662" lon="17.7274274">
        <ele>15.5184</ele>
        <time>2014-05-06T18:36:36Z</time>
      </trkpt>
      <trkpt lat="59.9799481" lon="17.7273884">
        <ele>15.0377</ele>
        <time>2014-05-06T18:36:37Z</time>
      </trkpt>
      <trkpt lat="59.9799327" lon="17.7273448">
        <ele>15.0377</ele>
        <time>2014-05-06T18:36:38Z</time>
      </trkpt>
      <trkpt lat="59.9799162" lon="17.7273021">
        <ele>15.0377</ele>
        <time>2014-05-06T18:36:39Z</time>
      </trkpt>
      <trkpt lat="59.9798944" lon="17.7272609">
        <ele>15.0377</ele>
        <time>2014-05-06T18:36:40Z</time>
      </trkpt>
      <trkpt lat="59.9798761" lon="17.7272178">
        <ele>15.5184</ele>
        <time>2014-05-06T18:36:41Z</time>
      </trkpt>
      <trkpt lat="59.9798592" lon="17.7271743">
        <ele>15.5184</ele>
        <time>2014-05-06T18:36:42Z</time>
      </trkpt>
      <trkpt lat="59.9798367" lon="17.7271299">
        <ele>15.999</ele>
        <time>2014-05-06T18:36:43Z</time>
      </trkpt>
      <trkpt lat="59.9798084" lon="17.7270898">
        <ele>15.999</ele>
        <time>2014-05-06T18:36:44Z</time>
      </trkpt>
      <trkpt lat="59.9797872" lon="17.7270512">
        <ele>15.999</ele>
        <time>2014-05-06T18:36:45Z</time>
      </trkpt>
      <trkpt lat="59.9797696" lon="17.727006">
        <ele>15.999</ele>
        <time>2014-05-06T18:36:46Z</time>
      </trkpt>
      <trkpt lat="59.9797562" lon="17.7269571">
        <ele>15.999</ele>
        <time>2014-05-06T18:36:47Z</time>
      </trkpt>
      <trkpt lat="59.9797434" lon="17.7269092">
        <ele>16.4797</ele>
        <time>2014-05-06T18:36:48Z</time>
      </trkpt>
      <trkpt lat="59.9797292" lon="17.726861">
        <ele>16.4797</ele>
        <time>2014-05-06T18:36:49Z</time>
      </trkpt>
      <trkpt lat="59.9797191" lon="17.7268084">
        <ele>16.9604</ele>
        <time>2014-05-06T18:36:50Z</time>
      </trkpt>
      <trkpt lat="59.9797085" lon="17.7267618">
        <ele>16.4797</ele>
        <time>2014-05-06T18:36:51Z</time>
      </trkpt>
      <trkpt lat="59.9796918" lon="17.7267186">
        <ele>16.9604</ele>
        <time>2014-05-06T18:36:52Z</time>
      </trkpt>
      <trkpt lat="59.9796696" lon="17.7266781">
        <ele>17.4412</ele>
        <time>2014-05-06T18:36:53Z</time>
      </trkpt>
      <trkpt lat="59.9796456" lon="17.7266319">
        <ele>17.9218</ele>
        <time>2014-05-06T18:36:54Z</time>
      </trkpt>
      <trkpt lat="59.9796303" lon="17.7265806">
        <ele>17.9218</ele>
        <time>2014-05-06T18:36:55Z</time>
      </trkpt>
      <trkpt lat="59.9796156" lon="17.726533">
        <ele>18.4023</ele>
        <time>2014-05-06T18:36:56Z</time>
      </trkpt>
      <trkpt lat="59.9795991" lon="17.7264916">
        <ele>18.4023</ele>
        <time>2014-05-06T18:36:57Z</time>
      </trkpt>
      <trkpt lat="59.979585" lon="17.7264486">
        <ele>17.9218</ele>
        <time>2014-05-06T18:36:58Z</time>
      </trkpt>
      <trkpt lat="59.9795627" lon="17.7264093">
        <ele>17.9218</ele>
        <time>2014-05-06T18:36:59Z</time>
      </trkpt>
      <trkpt lat="59.9795396" lon="17.7263791">
        <ele>17.9218</ele>
        <time>2014-05-06T18:37:00Z</time>
      </trkpt>
      <trkpt lat="59.9795167" lon="17.7263554">
        <ele>17.9218</ele>
        <time>2014-05-06T18:37:01Z</time>
      </trkpt>
      <trkpt lat="59.9794879" lon="17.7263439">
        <ele>18.4023</ele>
        <time>2014-05-06T18:37:02Z</time>
      </trkpt>
      <trkpt lat="59.9794628" lon="17.726335">
        <ele>18.4023</ele>
        <time>2014-05-06T18:37:03Z</time>
      </trkpt>
      <trkpt lat="59.9794385" lon="17.7263232">
        <ele>18.4023</ele>
        <time>2014-05-06T18:37:04Z</time>
      </trkpt>
      <trkpt lat="59.9794183" lon="17.726315">
        <ele>18.4023</ele>
        <time>2014-05-06T18:37:05Z</time>
      </trkpt>
      <trkpt lat="59.9793962" lon="17.7263067">
        <ele>18.8831</ele>
        <time>2014-05-06T18:37:06Z</time>
      </trkpt>
      <trkpt lat="59.9793695" lon="17.7263036">
        <ele>18.4023</ele>
        <time>2014-05-06T18:37:07Z</time>
      </trkpt>
      <trkpt lat="59.9793421" lon="17.7262958">
        <ele>18.4023</ele>
        <time>2014-05-06T18:37:08Z</time>
      </trkpt>
      <trkpt lat="59.9793135" lon="17.7262833">
        <ele>18.4023</ele>
        <time>2014-05-06T18:37:09Z</time>
      </trkpt>
      <trkpt lat="59.9792867" lon="17.7262679">
        <ele>18.4023</ele>
        <time>2014-05-06T18:37:10Z</time>
      </trkpt>
      <trkpt lat="59.9792594" lon="17.7262467">
        <ele>18.8831</ele>
        <time>2014-05-06T18:37:11Z</time>
      </trkpt>
      <trkpt lat="59.9792335" lon="17.7262255">
        <ele>18.4023</ele>
        <time>2014-05-06T18:37:12Z</time>
      </trkpt>
      <trkpt lat="59.9792153" lon="17.726205">
        <ele>18.4023</ele>
        <time>2014-05-06T18:37:13Z</time>
      </trkpt>
      <trkpt lat="59.9791946" lon="17.7261824">
        <ele>18.4023</ele>
        <time>2014-05-06T18:37:14Z</time>
      </trkpt>
      <trkpt lat="59.9791701" lon="17.7261652">
        <ele>17.9218</ele>
        <time>2014-05-06T18:37:15Z</time>
      </trkpt>
      <trkpt lat="59.9791428" lon="17.7261457">
        <ele>17.9218</ele>
        <time>2014-05-06T18:37:16Z</time>
      </trkpt>
      <trkpt lat="59.9791175" lon="17.7261167">
        <ele>17.9218</ele>
        <time>2014-05-06T18:37:17Z</time>
      </trkpt>
      <trkpt lat="59.9790931" lon="17.7260875">
        <ele>17.9218</ele>
        <time>2014-05-06T18:37:18Z</time>
      </trkpt>
      <trkpt lat="59.9790748" lon="17.7260549">
        <ele>17.4412</ele>
        <time>2014-05-06T18:37:19Z</time>
      </trkpt>
      <trkpt lat="59.9790538" lon="17.7260224">
        <ele>17.9218</ele>
        <time>2014-05-06T18:37:20Z</time>
      </trkpt>
      <trkpt lat="59.9790328" lon="17.7259907">
        <ele>17.9218</ele>
        <time>2014-05-06T18:37:21Z</time>
      </trkpt>
      <trkpt lat="59.9790128" lon="17.7259503">
        <ele>17.4412</ele>
        <time>2014-05-06T18:37:22Z</time>
      </trkpt>
      <trkpt lat="59.9789976" lon="17.7259022">
        <ele>17.4412</ele>
        <time>2014-05-06T18:37:23Z</time>
      </trkpt>
      <trkpt lat="59.9789729" lon="17.7258657">
        <ele>16.9604</ele>
        <time>2014-05-06T18:37:24Z</time>
      </trkpt>
      <trkpt lat="59.9789455" lon="17.7258321">
        <ele>16.9604</ele>
        <time>2014-05-06T18:37:25Z</time>
      </trkpt>
      <trkpt lat="59.9789215" lon="17.7257963">
        <ele>16.9604</ele>
        <time>2014-05-06T18:37:26Z</time>
      </trkpt>
      <trkpt lat="59.9789013" lon="17.7257607">
        <ele>16.9604</ele>
        <time>2014-05-06T18:37:27Z</time>
      </trkpt>
      <trkpt lat="59.9788796" lon="17.7257284">
        <ele>17.4412</ele>
        <time>2014-05-06T18:37:28Z</time>
      </trkpt>
      <trkpt lat="59.9788571" lon="17.7257042">
        <ele>17.9218</ele>
        <time>2014-05-06T18:37:29Z</time>
      </trkpt>
      <trkpt lat="59.9788335" lon="17.7256802">
        <ele>17.4412</ele>
        <time>2014-05-06T18:37:30Z</time>
      </trkpt>
      <trkpt lat="59.978809" lon="17.725652">
        <ele>17.9218</ele>
        <time>2014-05-06T18:37:31Z</time>
      </trkpt>
      <trkpt lat="59.978782" lon="17.7256276">
        <ele>18.4023</ele>
        <time>2014-05-06T18:37:32Z</time>
      </trkpt>
      <trkpt lat="59.9787528" lon="17.7256125">
        <ele>18.8831</ele>
        <time>2014-05-06T18:37:33Z</time>
      </trkpt>
      <trkpt lat="59.9787258" lon="17.7256022">
        <ele>18.8831</ele>
        <time>2014-05-06T18:37:34Z</time>
      </trkpt>
      <trkpt lat="59.9787" lon="17.7255909">
        <ele>19.3638</ele>
        <time>2014-05-06T18:37:35Z</time>
      </trkpt>
      <trkpt lat="59.9786722" lon="17.7255782">
        <ele>19.3638</ele>
        <time>2014-05-06T18:37:36Z</time>
      </trkpt>
      <trkpt lat="59.978645" lon="17.725567">
        <ele>18.8831</ele>
        <time>2014-05-06T18:37:37Z</time>
      </trkpt>
      <trkpt lat="59.9786169" lon="17.7255561">
        <ele>19.3638</ele>
        <time>2014-05-06T18:37:38Z</time>
      </trkpt>
      <trkpt lat="59.97859" lon="17.7255414">
        <ele>18.8831</ele>
        <time>2014-05-06T18:37:39Z</time>
      </trkpt>
      <trkpt lat="59.9785657" lon="17.725524">
        <ele>19.3638</ele>
        <time>2014-05-06T18:37:40Z</time>
      </trkpt>
      <trkpt lat="59.9785381" lon="17.7255056">
        <ele>19.3638</ele>
        <time>2014-05-06T18:37:41Z</time>
      </trkpt>
      <trkpt lat="59.9785103" lon="17.7254852">
        <ele>19.3638</ele>
        <time>2014-05-06T18:37:42Z</time>
      </trkpt>
      <trkpt lat="59.9784816" lon="17.7254659">
        <ele>19.3638</ele>
        <time>2014-05-06T18:37:43Z</time>
      </trkpt>
      <trkpt lat="59.9784543" lon="17.7254473">
        <ele>19.3638</ele>
        <time>2014-05-06T18:37:44Z</time>
      </trkpt>
      <trkpt lat="59.978431" lon="17.7254281">
        <ele>18.8831</ele>
        <time>2014-05-06T18:37:45Z</time>
      </trkpt>
      <trkpt lat="59.9784055" lon="17.7254069">
        <ele>19.3638</ele>
        <time>2014-05-06T18:37:46Z</time>
      </trkpt>
      <trkpt lat="59.9783783" lon="17.7253867">
        <ele>19.3638</ele>
        <time>2014-05-06T18:37:47Z</time>
      </trkpt>
      <trkpt lat="59.978351" lon="17.7253675">
        <ele>19.3638</ele>
        <time>2014-05-06T18:37:48Z</time>
      </trkpt>
      <trkpt lat="59.9783208" lon="17.7253458">
        <ele>19.3638</ele>
        <time>2014-05-06T18:37:49Z</time>
      </trkpt>
      <trkpt lat="59.9782928" lon="17.7253271">
        <ele>19.3638</ele>
        <time>2014-05-06T18:37:50Z</time>
      </trkpt>
      <trkpt lat="59.9782642" lon="17.7253091">
        <ele>19.3638</ele>
        <time>2014-05-06T18:37:51Z</time>
      </trkpt>
      <trkpt lat="59.9782373" lon="17.7252893">
        <ele>19.3638</ele>
        <time>2014-05-06T18:37:52Z</time>
      </trkpt>
      <trkpt lat="59.9782134" lon="17.7252727">
        <ele>18.8831</ele>
        <time>2014-05-06T18:37:53Z</time>
      </trkpt>
      <trkpt lat="59.9781858" lon="17.7252536">
        <ele>18.8831</ele>
        <time>2014-05-06T18:37:54Z</time>
      </trkpt>
      <trkpt lat="59.9781584" lon="17.7252338">
        <ele>18.8831</ele>
        <time>2014-05-06T18:37:55Z</time>
      </trkpt>
      <trkpt lat="59.9781316" lon="17.725213">
        <ele>19.3638</ele>
        <time>2014-05-06T18:37:56Z</time>
      </trkpt>
      <trkpt lat="59.9781025" lon="17.725193">
        <ele>19.3638</ele>
        <time>2014-05-06T18:37:57Z</time>
      </trkpt>
      <trkpt lat="59.9780732" lon="17.7251788">
        <ele>19.3638</ele>
        <time>2014-05-06T18:37:58Z</time>
      </trkpt>
      <trkpt lat="59.9780419" lon="17.725164">
        <ele>19.3638</ele>
        <time>2014-05-06T18:37:59Z</time>
      </trkpt>
      <trkpt lat="59.9780091" lon="17.725154">
        <ele>19.3638</ele>
        <time>2014-05-06T18:38:00Z</time>
      </trkpt>
      <trkpt lat="59.9779771" lon="17.7251453">
        <ele>19.8444</ele>
        <time>2014-05-06T18:38:01Z</time>
      </trkpt>
      <trkpt lat="59.9779467" lon="17.725136">
        <ele>19.3638</ele>
        <time>2014-05-06T18:38:02Z</time>
      </trkpt>
      <trkpt lat="59.9779213" lon="17.725126">
        <ele>19.3638</ele>
        <time>2014-05-06T18:38:03Z</time>
      </trkpt>
      <trkpt lat="59.977895" lon="17.7251163">
        <ele>19.3638</ele>
        <time>2014-05-06T18:38:04Z</time>
      </trkpt>
      <trkpt lat="59.9778658" lon="17.7251122">
        <ele>19.3638</ele>
        <time>2014-05-06T18:38:05Z</time>
      </trkpt>
      <trkpt lat="59.9778409" lon="17.725113">
        <ele>19.3638</ele>
        <time>2014-05-06T18:38:06Z</time>
      </trkpt>
      <trkpt lat="59.9778146" lon="17.7251043">
        <ele>19.3638</ele>
        <time>2014-05-06T18:38:07Z</time>
      </trkpt>
      <trkpt lat="59.9777928" lon="17.7250921">
        <ele>19.3638</ele>
        <time>2014-05-06T18:38:08Z</time>
      </trkpt>
      <trkpt lat="59.9777706" lon="17.7250851">
        <ele>18.8831</ele>
        <time>2014-05-06T18:38:09Z</time>
      </trkpt>
      <trkpt lat="59.9777436" lon="17.7250794">
        <ele>18.8831</ele>
        <time>2014-05-06T18:38:10Z</time>
      </trkpt>
      <trkpt lat="59.9777175" lon="17.7250796">
        <ele>18.4023</ele>
        <time>2014-05-06T18:38:11Z</time>
      </trkpt>
      <trkpt lat="59.9776913" lon="17.7250767">
        <ele>18.4023</ele>
        <time>2014-05-06T18:38:12Z</time>
      </trkpt>
      <trkpt lat="59.9776648" lon="17.7250733">
        <ele>18.4023</ele>
        <time>2014-05-06T18:38:13Z</time>
      </trkpt>
      <trkpt lat="59.977638" lon="17.7250717">
        <ele>18.4023</ele>
        <time>2014-05-06T18:38:14Z</time>
      </trkpt>
      <trkpt lat="59.9776075" lon="17.725066">
        <ele>18.4023</ele>
        <time>2014-05-06T18:38:15Z</time>
      </trkpt>
      <trkpt lat="59.9775841" lon="17.7250583">
        <ele>17.9218</ele>
        <time>2014-05-06T18:38:16Z</time>
      </trkpt>
      <trkpt lat="59.977559" lon="17.7250535">
        <ele>17.9218</ele>
        <time>2014-05-06T18:38:17Z</time>
      </trkpt>
      <trkpt lat="59.9775328" lon="17.725048">
        <ele>18.4023</ele>
        <time>2014-05-06T18:38:18Z</time>
      </trkpt>
      <trkpt lat="59.9775074" lon="17.7250449">
        <ele>17.9218</ele>
        <time>2014-05-06T18:38:19Z</time>
      </trkpt>
      <trkpt lat="59.9774811" lon="17.7250386">
        <ele>17.9218</ele>
        <time>2014-05-06T18:38:20Z</time>
      </trkpt>
      <trkpt lat="59.9774536" lon="17.7250282">
        <ele>17.9218</ele>
        <time>2014-05-06T18:38:21Z</time>
      </trkpt>
      <trkpt lat="59.977425" lon="17.7250241">
        <ele>17.9218</ele>
        <time>2014-05-06T18:38:22Z</time>
      </trkpt>
      <trkpt lat="59.9773981" lon="17.7250174">
        <ele>17.9218</ele>
        <time>2014-05-06T18:38:23Z</time>
      </trkpt>
      <trkpt lat="59.9773694" lon="17.7250055">
        <ele>17.9218</ele>
        <time>2014-05-06T18:38:24Z</time>
      </trkpt>
      <trkpt lat="59.9773395" lon="17.7250008">
        <ele>17.4412</ele>
        <time>2014-05-06T18:38:25Z</time>
      </trkpt>
      <trkpt lat="59.977311" lon="17.7250003">
        <ele>17.4412</ele>
        <time>2014-05-06T18:38:26Z</time>
      </trkpt>
      <trkpt lat="59.977285" lon="17.7249923">
        <ele>17.4412</ele>
        <time>2014-05-06T18:38:27Z</time>
      </trkpt>
      <trkpt lat="59.9772642" lon="17.724983">
        <ele>17.4412</ele>
        <time>2014-05-06T18:38:28Z</time>
      </trkpt>
      <trkpt lat="59.9772409" lon="17.7249819">
        <ele>17.9218</ele>
        <time>2014-05-06T18:38:29Z</time>
      </trkpt>
      <trkpt lat="59.9772138" lon="17.7249758">
        <ele>17.9218</ele>
        <time>2014-05-06T18:38:30Z</time>
      </trkpt>
      <trkpt lat="59.9771879" lon="17.724971">
        <ele>18.4023</ele>
        <time>2014-05-06T18:38:31Z</time>
      </trkpt>
      <trkpt lat="59.9771638" lon="17.7249703">
        <ele>18.4023</ele>
        <time>2014-05-06T18:38:32Z</time>
      </trkpt>
      <trkpt lat="59.9771389" lon="17.7249726">
        <ele>18.8831</ele>
        <time>2014-05-06T18:38:33Z</time>
      </trkpt>
      <trkpt lat="59.977114" lon="17.7249811">
        <ele>18.8831</ele>
        <time>2014-05-06T18:38:34Z</time>
      </trkpt>
      <trkpt lat="59.977092" lon="17.7249956">
        <ele>18.8831</ele>
        <time>2014-05-06T18:38:35Z</time>
      </trkpt>
      <trkpt lat="59.9770712" lon="17.7250168">
        <ele>19.3638</ele>
        <time>2014-05-06T18:38:36Z</time>
      </trkpt>
      <trkpt lat="59.9770498" lon="17.7250395">
        <ele>19.8444</ele>
        <time>2014-05-06T18:38:37Z</time>
      </trkpt>
      <trkpt lat="59.9770293" lon="17.7250702">
        <ele>20.325</ele>
        <time>2014-05-06T18:38:38Z</time>
      </trkpt>
      <trkpt lat="59.9770049" lon="17.7251057">
        <ele>20.8057</ele>
        <time>2014-05-06T18:38:39Z</time>
      </trkpt>
      <trkpt lat="59.9769778" lon="17.7251314">
        <ele>20.8057</ele>
        <time>2014-05-06T18:38:40Z</time>
      </trkpt>
      <trkpt lat="59.9769486" lon="17.7251575">
        <ele>21.2864</ele>
        <time>2014-05-06T18:38:41Z</time>
      </trkpt>
      <trkpt lat="59.9769226" lon="17.725195">
        <ele>22.2476</ele>
        <time>2014-05-06T18:38:42Z</time>
      </trkpt>
      <trkpt lat="59.9768967" lon="17.7252345">
        <ele>22.7283</ele>
        <time>2014-05-06T18:38:43Z</time>
      </trkpt>
      <trkpt lat="59.9768718" lon="17.7252658">
        <ele>23.6896</ele>
        <time>2014-05-06T18:38:44Z</time>
      </trkpt>
      <trkpt lat="59.9768475" lon="17.7252929">
        <ele>23.6896</ele>
        <time>2014-05-06T18:38:45Z</time>
      </trkpt>
      <trkpt lat="59.9768179" lon="17.7253208">
        <ele>24.1703</ele>
        <time>2014-05-06T18:38:46Z</time>
      </trkpt>
      <trkpt lat="59.9767893" lon="17.7253445">
        <ele>24.651</ele>
        <time>2014-05-06T18:38:47Z</time>
      </trkpt>
      <trkpt lat="59.9767625" lon="17.7253622">
        <ele>24.651</ele>
        <time>2014-05-06T18:38:48Z</time>
      </trkpt>
      <trkpt lat="59.9767343" lon="17.7253878">
        <ele>24.651</ele>
        <time>2014-05-06T18:38:49Z</time>
      </trkpt>
      <trkpt lat="59.9767107" lon="17.7254188">
        <ele>24.651</ele>
        <time>2014-05-06T18:38:50Z</time>
      </trkpt>
      <trkpt lat="59.976688" lon="17.7254487">
        <ele>25.1317</ele>
        <time>2014-05-06T18:38:51Z</time>
      </trkpt>
      <trkpt lat="59.9766656" lon="17.7254814">
        <ele>25.1317</ele>
        <time>2014-05-06T18:38:52Z</time>
      </trkpt>
      <trkpt lat="59.9766475" lon="17.7255126">
        <ele>25.6123</ele>
        <time>2014-05-06T18:38:53Z</time>
      </trkpt>
      <trkpt lat="59.976625" lon="17.7255395">
        <ele>25.6123</ele>
        <time>2014-05-06T18:38:54Z</time>
      </trkpt>
      <trkpt lat="59.9766012" lon="17.7255612">
        <ele>25.6123</ele>
        <time>2014-05-06T18:38:55Z</time>
      </trkpt>
      <trkpt lat="59.9765771" lon="17.7255888">
        <ele>26.0929</ele>
        <time>2014-05-06T18:38:56Z</time>
      </trkpt>
      <trkpt lat="59.976549" lon="17.7256141">
        <ele>26.5736</ele>
        <time>2014-05-06T18:38:57Z</time>
      </trkpt>
      <trkpt lat="59.9765223" lon="17.7256413">
        <ele>26.0929</ele>
        <time>2014-05-06T18:38:58Z</time>
      </trkpt>
      <trkpt lat="59.9764978" lon="17.7256706">
        <ele>26.5736</ele>
        <time>2014-05-06T18:38:59Z</time>
      </trkpt>
      <trkpt lat="59.976474" lon="17.7257025">
        <ele>26.5736</ele>
        <time>2014-05-06T18:39:00Z</time>
      </trkpt>
      <trkpt lat="59.9764494" lon="17.7257365">
        <ele>27.0543</ele>
        <time>2014-05-06T18:39:01Z</time>
      </trkpt>
      <trkpt lat="59.9764238" lon="17.7257794">
        <ele>27.0543</ele>
        <time>2014-05-06T18:39:02Z</time>
      </trkpt>
      <trkpt lat="59.976399" lon="17.7258164">
        <ele>26.5736</ele>
        <time>2014-05-06T18:39:03Z</time>
      </trkpt>
      <trkpt lat="59.9763715" lon="17.725843">
        <ele>26.5736</ele>
        <time>2014-05-06T18:39:04Z</time>
      </trkpt>
      <trkpt lat="59.9763424" lon="17.7258648">
        <ele>27.0543</ele>
        <time>2014-05-06T18:39:05Z</time>
      </trkpt>
      <trkpt lat="59.9763181" lon="17.7258986">
        <ele>27.0543</ele>
        <time>2014-05-06T18:39:06Z</time>
      </trkpt>
      <trkpt lat="59.9762942" lon="17.7259373">
        <ele>27.0543</ele>
        <time>2014-05-06T18:39:07Z</time>
      </trkpt>
      <trkpt lat="59.9762663" lon="17.7259742">
        <ele>27.0543</ele>
        <time>2014-05-06T18:39:08Z</time>
      </trkpt>
      <trkpt lat="59.976237" lon="17.7260021">
        <ele>27.0543</ele>
        <time>2014-05-06T18:39:09Z</time>
      </trkpt>
      <trkpt lat="59.9762089" lon="17.7260233">
        <ele>27.5349</ele>
        <time>2014-05-06T18:39:10Z</time>
      </trkpt>
      <trkpt lat="59.9761832" lon="17.7260452">
        <ele>28.0155</ele>
        <time>2014-05-06T18:39:11Z</time>
      </trkpt>
      <trkpt lat="59.9761599" lon="17.7260688">
        <ele>27.5349</ele>
        <time>2014-05-06T18:39:12Z</time>
      </trkpt>
      <trkpt lat="59.9761409" lon="17.7260946">
        <ele>27.5349</ele>
        <time>2014-05-06T18:39:13Z</time>
      </trkpt>
      <trkpt lat="59.9761187" lon="17.7261141">
        <ele>28.0155</ele>
        <time>2014-05-06T18:39:14Z</time>
      </trkpt>
      <trkpt lat="59.9760938" lon="17.7261371">
        <ele>28.4962</ele>
        <time>2014-05-06T18:39:15Z</time>
      </trkpt>
      <trkpt lat="59.9760684" lon="17.7261555">
        <ele>28.0155</ele>
        <time>2014-05-06T18:39:16Z</time>
      </trkpt>
      <trkpt lat="59.9760386" lon="17.7261703">
        <ele>28.4962</ele>
        <time>2014-05-06T18:39:17Z</time>
      </trkpt>
      <trkpt lat="59.9760127" lon="17.7261885">
        <ele>28.4962</ele>
        <time>2014-05-06T18:39:18Z</time>
      </trkpt>
      <trkpt lat="59.9759923" lon="17.7262165">
        <ele>28.4962</ele>
        <time>2014-05-06T18:39:19Z</time>
      </trkpt>
      <trkpt lat="59.9759689" lon="17.726249">
        <ele>28.9769</ele>
        <time>2014-05-06T18:39:20Z</time>
      </trkpt>
      <trkpt lat="59.975946" lon="17.7262814">
        <ele>28.4962</ele>
        <time>2014-05-06T18:39:21Z</time>
      </trkpt>
      <trkpt lat="59.9759233" lon="17.7263052">
        <ele>28.4962</ele>
        <time>2014-05-06T18:39:22Z</time>
      </trkpt>
      <trkpt lat="59.9758986" lon="17.7263234">
        <ele>28.4962</ele>
        <time>2014-05-06T18:39:23Z</time>
      </trkpt>
      <trkpt lat="59.975873" lon="17.726341">
        <ele>28.9769</ele>
        <time>2014-05-06T18:39:24Z</time>
      </trkpt>
      <trkpt lat="59.9758503" lon="17.7263632">
        <ele>28.9769</ele>
        <time>2014-05-06T18:39:25Z</time>
      </trkpt>
      <trkpt lat="59.975829" lon="17.7263869">
        <ele>29.4575</ele>
        <time>2014-05-06T18:39:26Z</time>
      </trkpt>
      <trkpt lat="59.975811" lon="17.7263785">
        <ele>29.4575</ele>
        <time>2014-05-06T18:39:27Z</time>
      </trkpt>
      <trkpt lat="59.975785" lon="17.7263885">
        <ele>29.4575</ele>
        <time>2014-05-06T18:39:28Z</time>
      </trkpt>
      <trkpt lat="59.9757595" lon="17.7264086">
        <ele>29.4575</ele>
        <time>2014-05-06T18:39:29Z</time>
      </trkpt>
      <trkpt lat="59.9757352" lon="17.7264305">
        <ele>29.4575</ele>
        <time>2014-05-06T18:39:30Z</time>
      </trkpt>
      <trkpt lat="59.9757242" lon="17.7264357">
        <ele>29.4575</ele>
        <time>2014-05-06T18:39:31Z</time>
      </trkpt>
      <trkpt lat="59.9756983" lon="17.7264517">
        <ele>29.9381</ele>
        <time>2014-05-06T18:39:32Z</time>
      </trkpt>
      <trkpt lat="59.9756819" lon="17.7264792">
        <ele>30.4188</ele>
        <time>2014-05-06T18:39:33Z</time>
      </trkpt>
      <trkpt lat="59.9756654" lon="17.7265134">
        <ele>30.4188</ele>
        <time>2014-05-06T18:39:34Z</time>
      </trkpt>
      <trkpt lat="59.9756422" lon="17.7265455">
        <ele>30.4188</ele>
        <time>2014-05-06T18:39:35Z</time>
      </trkpt>
      <trkpt lat="59.9756198" lon="17.7265527">
        <ele>30.4188</ele>
        <time>2014-05-06T18:39:36Z</time>
      </trkpt>
      <trkpt lat="59.9755965" lon="17.7265614">
        <ele>30.4188</ele>
        <time>2014-05-06T18:39:37Z</time>
      </trkpt>
      <trkpt lat="59.9755789" lon="17.726577">
        <ele>29.9381</ele>
        <time>2014-05-06T18:39:38Z</time>
      </trkpt>
      <trkpt lat="59.9755564" lon="17.7266041">
        <ele>29.9381</ele>
        <time>2014-05-06T18:39:39Z</time>
      </trkpt>
      <trkpt lat="59.9755364" lon="17.7266257">
        <ele>29.4575</ele>
        <time>2014-05-06T18:39:40Z</time>
      </trkpt>
      <trkpt lat="59.9755155" lon="17.7266468">
        <ele>28.9769</ele>
        <time>2014-05-06T18:39:41Z</time>
      </trkpt>
      <trkpt lat="59.9754934" lon="17.7266741">
        <ele>29.4575</ele>
        <time>2014-05-06T18:39:42Z</time>
      </trkpt>
      <trkpt lat="59.9754726" lon="17.7267023">
        <ele>29.4575</ele>
        <time>2014-05-06T18:39:43Z</time>
      </trkpt>
      <trkpt lat="59.9754515" lon="17.72674">
        <ele>29.4575</ele>
        <time>2014-05-06T18:39:44Z</time>
      </trkpt>
      <trkpt lat="59.9754306" lon="17.7267766">
        <ele>29.9381</ele>
        <time>2014-05-06T18:39:45Z</time>
      </trkpt>
      <trkpt lat="59.9754114" lon="17.7268082">
        <ele>30.4188</ele>
        <time>2014-05-06T18:39:46Z</time>
      </trkpt>
      <trkpt lat="59.9753925" lon="17.7268299">
        <ele>30.4188</ele>
        <time>2014-05-06T18:39:47Z</time>
      </trkpt>
      <trkpt lat="59.975371" lon="17.7268489">
        <ele>29.4575</ele>
        <time>2014-05-06T18:39:48Z</time>
      </trkpt>
      <trkpt lat="59.9753505" lon="17.7268686">
        <ele>28.9769</ele>
        <time>2014-05-06T18:39:49Z</time>
      </trkpt>
      <trkpt lat="59.9753281" lon="17.7268906">
        <ele>28.4962</ele>
        <time>2014-05-06T18:39:50Z</time>
      </trkpt>
      <trkpt lat="59.9753037" lon="17.7269095">
        <ele>28.9769</ele>
        <time>2014-05-06T18:39:51Z</time>
      </trkpt>
      <trkpt lat="59.9752801" lon="17.7269292">
        <ele>28.4962</ele>
        <time>2014-05-06T18:39:52Z</time>
      </trkpt>
      <trkpt lat="59.9752568" lon="17.7269548">
        <ele>28.4962</ele>
        <time>2014-05-06T18:39:53Z</time>
      </trkpt>
      <trkpt lat="59.9752286" lon="17.7269773">
        <ele>28.4962</ele>
        <time>2014-05-06T18:39:54Z</time>
      </trkpt>
      <trkpt lat="59.9752002" lon="17.727005">
        <ele>28.9769</ele>
        <time>2014-05-06T18:39:55Z</time>
      </trkpt>
      <trkpt lat="59.9751736" lon="17.7270307">
        <ele>29.4575</ele>
        <time>2014-05-06T18:39:56Z</time>
      </trkpt>
      <trkpt lat="59.9751516" lon="17.7270551">
        <ele>29.9381</ele>
        <time>2014-05-06T18:39:57Z</time>
      </trkpt>
      <trkpt lat="59.975133" lon="17.7270654">
        <ele>30.4188</ele>
        <time>2014-05-06T18:39:58Z</time>
      </trkpt>
      <trkpt lat="59.9751137" lon="17.7270846">
        <ele>30.8995</ele>
        <time>2014-05-06T18:39:59Z</time>
      </trkpt>
      <trkpt lat="59.975091" lon="17.7271132">
        <ele>30.8995</ele>
        <time>2014-05-06T18:40:00Z</time>
      </trkpt>
      <trkpt lat="59.9750676" lon="17.7271333">
        <ele>31.3801</ele>
        <time>2014-05-06T18:40:01Z</time>
      </trkpt>
      <trkpt lat="59.9750415" lon="17.7271568">
        <ele>31.8607</ele>
        <time>2014-05-06T18:40:02Z</time>
      </trkpt>
      <trkpt lat="59.9750128" lon="17.7271596">
        <ele>32.3416</ele>
        <time>2014-05-06T18:40:03Z</time>
      </trkpt>
      <trkpt lat="59.9749886" lon="17.7271857">
        <ele>32.8223</ele>
        <time>2014-05-06T18:40:04Z</time>
      </trkpt>
      <trkpt lat="59.974964" lon="17.7272029">
        <ele>33.3029</ele>
        <time>2014-05-06T18:40:05Z</time>
      </trkpt>
      <trkpt lat="59.9749405" lon="17.7272167">
        <ele>33.7834</ele>
        <time>2014-05-06T18:40:06Z</time>
      </trkpt>
      <trkpt lat="59.9749172" lon="17.7272427">
        <ele>34.2642</ele>
        <time>2014-05-06T18:40:07Z</time>
      </trkpt>
      <trkpt lat="59.9748919" lon="17.7272737">
        <ele>34.7449</ele>
        <time>2014-05-06T18:40:08Z</time>
      </trkpt>
      <trkpt lat="59.9748686" lon="17.7273043">
        <ele>35.2255</ele>
        <time>2014-05-06T18:40:09Z</time>
      </trkpt>
      <trkpt lat="59.9748387" lon="17.727338">
        <ele>35.2255</ele>
        <time>2014-05-06T18:40:10Z</time>
      </trkpt>
      <trkpt lat="59.9748087" lon="17.7273676">
        <ele>35.7061</ele>
        <time>2014-05-06T18:40:11Z</time>
      </trkpt>
      <trkpt lat="59.9747862" lon="17.7273919">
        <ele>35.2255</ele>
        <time>2014-05-06T18:40:12Z</time>
      </trkpt>
      <trkpt lat="59.9747625" lon="17.7274228">
        <ele>35.2255</ele>
        <time>2014-05-06T18:40:13Z</time>
      </trkpt>
      <trkpt lat="59.9747355" lon="17.7274525">
        <ele>34.7449</ele>
        <time>2014-05-06T18:40:14Z</time>
      </trkpt>
      <trkpt lat="59.9747101" lon="17.7274787">
        <ele>35.2255</ele>
        <time>2014-05-06T18:40:15Z</time>
      </trkpt>
      <trkpt lat="59.9746843" lon="17.7274991">
        <ele>35.2255</ele>
        <time>2014-05-06T18:40:16Z</time>
      </trkpt>
      <trkpt lat="59.9746615" lon="17.7275183">
        <ele>35.2255</ele>
        <time>2014-05-06T18:40:17Z</time>
      </trkpt>
      <trkpt lat="59.9746361" lon="17.7275426">
        <ele>35.2255</ele>
        <time>2014-05-06T18:40:18Z</time>
      </trkpt>
      <trkpt lat="59.9746087" lon="17.7275706">
        <ele>35.2255</ele>
        <time>2014-05-06T18:40:19Z</time>
      </trkpt>
      <trkpt lat="59.9745821" lon="17.7275835">
        <ele>35.2255</ele>
        <time>2014-05-06T18:40:20Z</time>
      </trkpt>
      <trkpt lat="59.9745527" lon="17.7275889">
        <ele>35.2255</ele>
        <time>2014-05-06T18:40:21Z</time>
      </trkpt>
      <trkpt lat="59.9745256" lon="17.727607">
        <ele>35.2255</ele>
        <time>2014-05-06T18:40:22Z</time>
      </trkpt>
      <trkpt lat="59.9745013" lon="17.7276348">
        <ele>34.7449</ele>
        <time>2014-05-06T18:40:23Z</time>
      </trkpt>
      <trkpt lat="59.9744729" lon="17.7276624">
        <ele>34.2642</ele>
        <time>2014-05-06T18:40:24Z</time>
      </trkpt>
      <trkpt lat="59.9744449" lon="17.7276888">
        <ele>33.7834</ele>
        <time>2014-05-06T18:40:25Z</time>
      </trkpt>
      <trkpt lat="59.9744226" lon="17.7277277">
        <ele>34.2642</ele>
        <time>2014-05-06T18:40:26Z</time>
      </trkpt>
      <trkpt lat="59.974403" lon="17.7277721">
        <ele>34.2642</ele>
        <time>2014-05-06T18:40:27Z</time>
      </trkpt>
      <trkpt lat="59.9743968" lon="17.7278265">
        <ele>33.7834</ele>
        <time>2014-05-06T18:40:28Z</time>
      </trkpt>
      <trkpt lat="59.974396" lon="17.7279135">
        <ele>32.3416</ele>
        <time>2014-05-06T18:40:29Z</time>
      </trkpt>
      <trkpt lat="59.9743953" lon="17.727971">
        <ele>31.8607</ele>
        <time>2014-05-06T18:40:30Z</time>
      </trkpt>
      <trkpt lat="59.9743947" lon="17.7280213">
        <ele>31.8607</ele>
        <time>2014-05-06T18:40:31Z</time>
      </trkpt>
      <trkpt lat="59.9744013" lon="17.7280682">
        <ele>31.3801</ele>
        <time>2014-05-06T18:40:32Z</time>
      </trkpt>
      <trkpt lat="59.9744092" lon="17.728113">
        <ele>31.3801</ele>
        <time>2014-05-06T18:40:33Z</time>
      </trkpt>
      <trkpt lat="59.974415" lon="17.7281617">
        <ele>31.3801</ele>
        <time>2014-05-06T18:40:34Z</time>
      </trkpt>
      <trkpt lat="59.9744196" lon="17.728221">
        <ele>30.8995</ele>
        <time>2014-05-06T18:40:35Z</time>
      </trkpt>
      <trkpt lat="59.9744254" lon="17.7282859">
        <ele>30.8995</ele>
        <time>2014-05-06T18:40:36Z</time>
      </trkpt>
      <trkpt lat="59.974431" lon="17.7283501">
        <ele>30.4188</ele>
        <time>2014-05-06T18:40:37Z</time>
      </trkpt>
      <trkpt lat="59.974435" lon="17.7284101">
        <ele>30.4188</ele>
        <time>2014-05-06T18:40:38Z</time>
      </trkpt>
      <trkpt lat="59.974438" lon="17.7284782">
        <ele>29.9381</ele>
        <time>2014-05-06T18:40:39Z</time>
      </trkpt>
      <trkpt lat="59.9744438" lon="17.7285448">
        <ele>29.9381</ele>
        <time>2014-05-06T18:40:40Z</time>
      </trkpt>
      <trkpt lat="59.9744527" lon="17.7286038">
        <ele>30.4188</ele>
        <time>2014-05-06T18:40:41Z</time>
      </trkpt>
      <trkpt lat="59.9744603" lon="17.7286557">
        <ele>30.8995</ele>
        <time>2014-05-06T18:40:42Z</time>
      </trkpt>
      <trkpt lat="59.9744623" lon="17.7286963">
        <ele>31.3801</ele>
        <time>2014-05-06T18:40:43Z</time>
      </trkpt>
      <trkpt lat="59.9744595" lon="17.7287843">
        <ele>31.3801</ele>
        <time>2014-05-06T18:40:44Z</time>
      </trkpt>
      <trkpt lat="59.9744601" lon="17.7288562">
        <ele>31.3801</ele>
        <time>2014-05-06T18:40:45Z</time>
      </trkpt>
      <trkpt lat="59.9744636" lon="17.7289123">
        <ele>31.8607</ele>
        <time>2014-05-06T18:40:46Z</time>
      </trkpt>
      <trkpt lat="59.9744654" lon="17.7289733">
        <ele>31.3801</ele>
        <time>2014-05-06T18:40:47Z</time>
      </trkpt>
      <trkpt lat="59.9744701" lon="17.729011">
        <ele>32.3416</ele>
        <time>2014-05-06T18:40:48Z</time>
      </trkpt>
      <trkpt lat="59.9744723" lon="17.7290671">
        <ele>32.8223</ele>
        <time>2014-05-06T18:40:49Z</time>
      </trkpt>
      <trkpt lat="59.9744766" lon="17.7291327">
        <ele>32.8223</ele>
        <time>2014-05-06T18:40:50Z</time>
      </trkpt>
      <trkpt lat="59.9744833" lon="17.7291814">
        <ele>33.7834</ele>
        <time>2014-05-06T18:40:51Z</time>
      </trkpt>
      <trkpt lat="59.974486" lon="17.7292397">
        <ele>33.3029</ele>
        <time>2014-05-06T18:40:52Z</time>
      </trkpt>
      <trkpt lat="59.9744904" lon="17.7293147">
        <ele>33.3029</ele>
        <time>2014-05-06T18:40:53Z</time>
      </trkpt>
      <trkpt lat="59.974492" lon="17.7293855">
        <ele>33.7834</ele>
        <time>2014-05-06T18:40:54Z</time>
      </trkpt>
      <trkpt lat="59.9744927" lon="17.7294467">
        <ele>33.7834</ele>
        <time>2014-05-06T18:40:55Z</time>
      </trkpt>
      <trkpt lat="59.9744915" lon="17.7295052">
        <ele>34.2642</ele>
        <time>2014-05-06T18:40:56Z</time>
      </trkpt>
      <trkpt lat="59.9744859" lon="17.729566">
        <ele>34.2642</ele>
        <time>2014-05-06T18:40:57Z</time>
      </trkpt>
      <trkpt lat="59.9744839" lon="17.729627">
        <ele>34.2642</ele>
        <time>2014-05-06T18:40:58Z</time>
      </trkpt>
      <trkpt lat="59.9744803" lon="17.7296861">
        <ele>34.7449</ele>
        <time>2014-05-06T18:40:59Z</time>
      </trkpt>
      <trkpt lat="59.974474" lon="17.7297452">
        <ele>34.7449</ele>
        <time>2014-05-06T18:41:00Z</time>
      </trkpt>
      <trkpt lat="59.9744676" lon="17.7298043">
        <ele>34.7449</ele>
        <time>2014-05-06T18:41:01Z</time>
      </trkpt>
      <trkpt lat="59.9744621" lon="17.729868">
        <ele>34.7449</ele>
        <time>2014-05-06T18:41:02Z</time>
      </trkpt>
      <trkpt lat="59.9744568" lon="17.7299326">
        <ele>34.7449</ele>
        <time>2014-05-06T18:41:03Z</time>
      </trkpt>
      <trkpt lat="59.9744497" lon="17.7299835">
        <ele>35.2255</ele>
        <time>2014-05-06T18:41:04Z</time>
      </trkpt>
      <trkpt lat="59.974443" lon="17.7300348">
        <ele>35.2255</ele>
        <time>2014-05-06T18:41:05Z</time>
      </trkpt>
      <trkpt lat="59.9744369" lon="17.730087">
        <ele>35.7061</ele>
        <time>2014-05-06T18:41:06Z</time>
      </trkpt>
      <trkpt lat="59.9744304" lon="17.7301465">
        <ele>35.7061</ele>
        <time>2014-05-06T18:41:07Z</time>
      </trkpt>
      <trkpt lat="59.9744273" lon="17.7302074">
        <ele>36.1868</ele>
        <time>2014-05-06T18:41:08Z</time>
      </trkpt>
      <trkpt lat="59.9744247" lon="17.7302639">
        <ele>36.6675</ele>
        <time>2014-05-06T18:41:09Z</time>
      </trkpt>
      <trkpt lat="59.9744207" lon="17.7303245">
        <ele>37.1481</ele>
        <time>2014-05-06T18:41:10Z</time>
      </trkpt>
      <trkpt lat="59.974414" lon="17.7303876">
        <ele>37.1481</ele>
        <time>2014-05-06T18:41:11Z</time>
      </trkpt>
      <trkpt lat="59.9744072" lon="17.730445">
        <ele>37.1481</ele>
        <time>2014-05-06T18:41:12Z</time>
      </trkpt>
      <trkpt lat="59.9743987" lon="17.7305057">
        <ele>37.1481</ele>
        <time>2014-05-06T18:41:13Z</time>
      </trkpt>
      <trkpt lat="59.9743919" lon="17.7305731">
        <ele>37.1481</ele>
        <time>2014-05-06T18:41:14Z</time>
      </trkpt>
      <trkpt lat="59.9743843" lon="17.7306383">
        <ele>37.1481</ele>
        <time>2014-05-06T18:41:15Z</time>
      </trkpt>
      <trkpt lat="59.974376" lon="17.7307044">
        <ele>37.6287</ele>
        <time>2014-05-06T18:41:16Z</time>
      </trkpt>
      <trkpt lat="59.9743661" lon="17.7307857">
        <ele>37.1481</ele>
        <time>2014-05-06T18:41:17Z</time>
      </trkpt>
      <trkpt lat="59.9743588" lon="17.730834">
        <ele>37.6287</ele>
        <time>2014-05-06T18:41:18Z</time>
      </trkpt>
      <trkpt lat="59.9743515" lon="17.7308816">
        <ele>37.1481</ele>
        <time>2014-05-06T18:41:19Z</time>
      </trkpt>
      <trkpt lat="59.9743481" lon="17.7309368">
        <ele>37.1481</ele>
        <time>2014-05-06T18:41:20Z</time>
      </trkpt>
      <trkpt lat="59.974346" lon="17.7309932">
        <ele>37.6287</ele>
        <time>2014-05-06T18:41:21Z</time>
      </trkpt>
      <trkpt lat="59.9743433" lon="17.7310531">
        <ele>37.6287</ele>
        <time>2014-05-06T18:41:22Z</time>
      </trkpt>
      <trkpt lat="59.9743423" lon="17.7311134">
        <ele>37.6287</ele>
        <time>2014-05-06T18:41:23Z</time>
      </trkpt>
      <trkpt lat="59.974342" lon="17.7311699">
        <ele>38.1094</ele>
        <time>2014-05-06T18:41:24Z</time>
      </trkpt>
      <trkpt lat="59.9743413" lon="17.7312293">
        <ele>38.1094</ele>
        <time>2014-05-06T18:41:25Z</time>
      </trkpt>
      <trkpt lat="59.9743419" lon="17.7312806">
        <ele>38.5901</ele>
        <time>2014-05-06T18:41:26Z</time>
      </trkpt>
      <trkpt lat="59.9743398" lon="17.7313252">
        <ele>38.5901</ele>
        <time>2014-05-06T18:41:27Z</time>
      </trkpt>
      <trkpt lat="59.9743404" lon="17.7313795">
        <ele>38.5901</ele>
        <time>2014-05-06T18:41:28Z</time>
      </trkpt>
      <trkpt lat="59.9743409" lon="17.7314412">
        <ele>39.0707</ele>
        <time>2014-05-06T18:41:29Z</time>
      </trkpt>
      <trkpt lat="59.9743398" lon="17.7314996">
        <ele>39.0707</ele>
        <time>2014-05-06T18:41:30Z</time>
      </trkpt>
      <trkpt lat="59.9743423" lon="17.7315516">
        <ele>40.0321</ele>
        <time>2014-05-06T18:41:31Z</time>
      </trkpt>
      <trkpt lat="59.9743422" lon="17.7316049">
        <ele>40.5128</ele>
        <time>2014-05-06T18:41:32Z</time>
      </trkpt>
      <trkpt lat="59.974344" lon="17.731666">
        <ele>40.5128</ele>
        <time>2014-05-06T18:41:33Z</time>
      </trkpt>
      <trkpt lat="59.9743437" lon="17.7317303">
        <ele>40.5128</ele>
        <time>2014-05-06T18:41:34Z</time>
      </trkpt>
      <trkpt lat="59.9743403" lon="17.7317955">
        <ele>40.5128</ele>
        <time>2014-05-06T18:41:35Z</time>
      </trkpt>
      <trkpt lat="59.9743413" lon="17.7318583">
        <ele>40.5128</ele>
        <time>2014-05-06T18:41:36Z</time>
      </trkpt>
      <trkpt lat="59.9743404" lon="17.7319172">
        <ele>40.5128</ele>
        <time>2014-05-06T18:41:37Z</time>
      </trkpt>
      <trkpt lat="59.9743396" lon="17.7319842">
        <ele>40.5128</ele>
        <time>2014-05-06T18:41:38Z</time>
      </trkpt>
      <trkpt lat="59.9743424" lon="17.732056">
        <ele>40.5128</ele>
        <time>2014-05-06T18:41:39Z</time>
      </trkpt>
      <trkpt lat="59.9743429" lon="17.7321192">
        <ele>40.0321</ele>
        <time>2014-05-06T18:41:40Z</time>
      </trkpt>
      <trkpt lat="59.9743435" lon="17.7321807">
        <ele>39.5513</ele>
        <time>2014-05-06T18:41:41Z</time>
      </trkpt>
      <trkpt lat="59.9743433" lon="17.7322339">
        <ele>39.5513</ele>
        <time>2014-05-06T18:41:42Z</time>
      </trkpt>
      <trkpt lat="59.974345" lon="17.7322907">
        <ele>39.0707</ele>
        <time>2014-05-06T18:41:43Z</time>
      </trkpt>
      <trkpt lat="59.974344" lon="17.7323467">
        <ele>39.5513</ele>
        <time>2014-05-06T18:41:44Z</time>
      </trkpt>
      <trkpt lat="59.9743466" lon="17.7324001">
        <ele>39.0707</ele>
        <time>2014-05-06T18:41:45Z</time>
      </trkpt>
      <trkpt lat="59.9743547" lon="17.73246">
        <ele>39.0707</ele>
        <time>2014-05-06T18:41:46Z</time>
      </trkpt>
      <trkpt lat="59.9743595" lon="17.7325267">
        <ele>39.0707</ele>
        <time>2014-05-06T18:41:47Z</time>
      </trkpt>
      <trkpt lat="59.9743649" lon="17.7325936">
        <ele>38.5901</ele>
        <time>2014-05-06T18:41:48Z</time>
      </trkpt>
      <trkpt lat="59.9743703" lon="17.7326547">
        <ele>38.1094</ele>
        <time>2014-05-06T18:41:49Z</time>
      </trkpt>
      <trkpt lat="59.9743709" lon="17.7327171">
        <ele>37.6287</ele>
        <time>2014-05-06T18:41:50Z</time>
      </trkpt>
      <trkpt lat="59.9743683" lon="17.7327755">
        <ele>38.1094</ele>
        <time>2014-05-06T18:41:51Z</time>
      </trkpt>
      <trkpt lat="59.9743704" lon="17.7328284">
        <ele>38.1094</ele>
        <time>2014-05-06T18:41:52Z</time>
      </trkpt>
      <trkpt lat="59.9743755" lon="17.7328859">
        <ele>38.1094</ele>
        <time>2014-05-06T18:41:53Z</time>
      </trkpt>
      <trkpt lat="59.9743779" lon="17.7329465">
        <ele>38.1094</ele>
        <time>2014-05-06T18:41:54Z</time>
      </trkpt>
      <trkpt lat="59.9743767" lon="17.7330144">
        <ele>37.6287</ele>
        <time>2014-05-06T18:41:55Z</time>
      </trkpt>
      <trkpt lat="59.9743738" lon="17.7330815">
        <ele>37.6287</ele>
        <time>2014-05-06T18:41:56Z</time>
      </trkpt>
      <trkpt lat="59.9743714" lon="17.7331435">
        <ele>38.1094</ele>
        <time>2014-05-06T18:41:57Z</time>
      </trkpt>
      <trkpt lat="59.9743679" lon="17.7332045">
        <ele>38.1094</ele>
        <time>2014-05-06T18:41:58Z</time>
      </trkpt>
      <trkpt lat="59.9743629" lon="17.7332645">
        <ele>37.6287</ele>
        <time>2014-05-06T18:41:59Z</time>
      </trkpt>
      <trkpt lat="59.9743618" lon="17.7333229">
        <ele>38.1094</ele>
        <time>2014-05-06T18:42:00Z</time>
      </trkpt>
      <trkpt lat="59.9743594" lon="17.7333818">
        <ele>38.1094</ele>
        <time>2014-05-06T18:42:01Z</time>
      </trkpt>
      <trkpt lat="59.9743563" lon="17.7334418">
        <ele>38.5901</ele>
        <time>2014-05-06T18:42:02Z</time>
      </trkpt>
      <trkpt lat="59.9743495" lon="17.7335039">
        <ele>38.5901</ele>
        <time>2014-05-06T18:42:03Z</time>
      </trkpt>
      <trkpt lat="59.9743435" lon="17.7335675">
        <ele>38.1094</ele>
        <time>2014-05-06T18:42:04Z</time>
      </trkpt>
      <trkpt lat="59.9743402" lon="17.7336287">
        <ele>38.1094</ele>
        <time>2014-05-06T18:42:05Z</time>
      </trkpt>
      <trkpt lat="59.9743357" lon="17.7336869">
        <ele>37.6287</ele>
        <time>2014-05-06T18:42:06Z</time>
      </trkpt>
      <trkpt lat="59.9743329" lon="17.7337485">
        <ele>37.1481</ele>
        <time>2014-05-06T18:42:07Z</time>
      </trkpt>
      <trkpt lat="59.9743313" lon="17.7338183">
        <ele>36.6675</ele>
        <time>2014-05-06T18:42:08Z</time>
      </trkpt>
      <trkpt lat="59.9743341" lon="17.7338821">
        <ele>36.6675</ele>
        <time>2014-05-06T18:42:09Z</time>
      </trkpt>
      <trkpt lat="59.9743375" lon="17.7339399">
        <ele>37.1481</ele>
        <time>2014-05-06T18:42:10Z</time>
      </trkpt>
      <trkpt lat="59.9743314" lon="17.7340034">
        <ele>36.1868</ele>
        <time>2014-05-06T18:42:11Z</time>
      </trkpt>
      <trkpt lat="59.9743279" lon="17.7340668">
        <ele>36.1868</ele>
        <time>2014-05-06T18:42:12Z</time>
      </trkpt>
      <trkpt lat="59.9743258" lon="17.7341219">
        <ele>35.7061</ele>
        <time>2014-05-06T18:42:13Z</time>
      </trkpt>
      <trkpt lat="59.9743297" lon="17.7341774">
        <ele>36.1868</ele>
        <time>2014-05-06T18:42:14Z</time>
      </trkpt>
      <trkpt lat="59.9743263" lon="17.7342364">
        <ele>35.7061</ele>
        <time>2014-05-06T18:42:15Z</time>
      </trkpt>
      <trkpt lat="59.974324" lon="17.7342969">
        <ele>35.2255</ele>
        <time>2014-05-06T18:42:16Z</time>
      </trkpt>
      <trkpt lat="59.9743197" lon="17.7343563">
        <ele>35.2255</ele>
        <time>2014-05-06T18:42:17Z</time>
      </trkpt>
      <trkpt lat="59.9743147" lon="17.7344138">
        <ele>35.2255</ele>
        <time>2014-05-06T18:42:18Z</time>
      </trkpt>
      <trkpt lat="59.9743103" lon="17.734473">
        <ele>35.2255</ele>
        <time>2014-05-06T18:42:19Z</time>
      </trkpt>
      <trkpt lat="59.974308" lon="17.7345332">
        <ele>34.7449</ele>
        <time>2014-05-06T18:42:20Z</time>
      </trkpt>
      <trkpt lat="59.9743103" lon="17.7345908">
        <ele>35.2255</ele>
        <time>2014-05-06T18:42:21Z</time>
      </trkpt>
      <trkpt lat="59.9743128" lon="17.7346466">
        <ele>34.7449</ele>
        <time>2014-05-06T18:42:22Z</time>
      </trkpt>
      <trkpt lat="59.9743142" lon="17.7347107">
        <ele>34.2642</ele>
        <time>2014-05-06T18:42:23Z</time>
      </trkpt>
      <trkpt lat="59.9743158" lon="17.7347751">
        <ele>34.2642</ele>
        <time>2014-05-06T18:42:24Z</time>
      </trkpt>
      <trkpt lat="59.974319" lon="17.7348347">
        <ele>34.2642</ele>
        <time>2014-05-06T18:42:25Z</time>
      </trkpt>
      <trkpt lat="59.9743249" lon="17.7348968">
        <ele>34.7449</ele>
        <time>2014-05-06T18:42:26Z</time>
      </trkpt>
      <trkpt lat="59.9743282" lon="17.7349631">
        <ele>34.2642</ele>
        <time>2014-05-06T18:42:27Z</time>
      </trkpt>
      <trkpt lat="59.9743304" lon="17.7350413">
        <ele>34.2642</ele>
        <time>2014-05-06T18:42:28Z</time>
      </trkpt>
      <trkpt lat="59.9743341" lon="17.7351107">
        <ele>33.7834</ele>
        <time>2014-05-06T18:42:29Z</time>
      </trkpt>
      <trkpt lat="59.9743372" lon="17.735163">
        <ele>33.7834</ele>
        <time>2014-05-06T18:42:30Z</time>
      </trkpt>
      <trkpt lat="59.9743444" lon="17.7352183">
        <ele>33.7834</ele>
        <time>2014-05-06T18:42:31Z</time>
      </trkpt>
      <trkpt lat="59.9743515" lon="17.7352724">
        <ele>33.3029</ele>
        <time>2014-05-06T18:42:32Z</time>
      </trkpt>
      <trkpt lat="59.9743527" lon="17.7353305">
        <ele>32.8223</ele>
        <time>2014-05-06T18:42:33Z</time>
      </trkpt>
      <trkpt lat="59.9743563" lon="17.7353905">
        <ele>32.3416</ele>
        <time>2014-05-06T18:42:34Z</time>
      </trkpt>
      <trkpt lat="59.9743652" lon="17.7354466">
        <ele>31.8607</ele>
        <time>2014-05-06T18:42:35Z</time>
      </trkpt>
      <trkpt lat="59.9743729" lon="17.7355013">
        <ele>31.8607</ele>
        <time>2014-05-06T18:42:36Z</time>
      </trkpt>
      <trkpt lat="59.9743751" lon="17.7355578">
        <ele>31.8607</ele>
        <time>2014-05-06T18:42:37Z</time>
      </trkpt>
      <trkpt lat="59.9743797" lon="17.7356138">
        <ele>31.3801</ele>
        <time>2014-05-06T18:42:38Z</time>
      </trkpt>
      <trkpt lat="59.9743864" lon="17.7356614">
        <ele>31.3801</ele>
        <time>2014-05-06T18:42:39Z</time>
      </trkpt>
      <trkpt lat="59.9743973" lon="17.7357079">
        <ele>31.8607</ele>
        <time>2014-05-06T18:42:40Z</time>
      </trkpt>
      <trkpt lat="59.9744076" lon="17.7357598">
        <ele>31.8607</ele>
        <time>2014-05-06T18:42:41Z</time>
      </trkpt>
      <trkpt lat="59.9744128" lon="17.7358102">
        <ele>31.3801</ele>
        <time>2014-05-06T18:42:42Z</time>
      </trkpt>
      <trkpt lat="59.9744216" lon="17.7358598">
        <ele>31.3801</ele>
        <time>2014-05-06T18:42:43Z</time>
      </trkpt>
      <trkpt lat="59.9744298" lon="17.7359104">
        <ele>30.8995</ele>
        <time>2014-05-06T18:42:44Z</time>
      </trkpt>
      <trkpt lat="59.9744398" lon="17.735957">
        <ele>30.4188</ele>
        <time>2014-05-06T18:42:45Z</time>
      </trkpt>
      <trkpt lat="59.9744522" lon="17.7360045">
        <ele>30.4188</ele>
        <time>2014-05-06T18:42:46Z</time>
      </trkpt>
      <trkpt lat="59.9744671" lon="17.7360498">
        <ele>30.8995</ele>
        <time>2014-05-06T18:42:47Z</time>
      </trkpt>
      <trkpt lat="59.9744837" lon="17.736097">
        <ele>30.4188</ele>
        <time>2014-05-06T18:42:48Z</time>
      </trkpt>
      <trkpt lat="59.9744994" lon="17.7361466">
        <ele>30.4188</ele>
        <time>2014-05-06T18:42:49Z</time>
      </trkpt>
      <trkpt lat="59.9745164" lon="17.7361949">
        <ele>30.4188</ele>
        <time>2014-05-06T18:42:50Z</time>
      </trkpt>
      <trkpt lat="59.9745284" lon="17.7362425">
        <ele>30.4188</ele>
        <time>2014-05-06T18:42:51Z</time>
      </trkpt>
      <trkpt lat="59.974532" lon="17.7362855">
        <ele>29.9381</ele>
        <time>2014-05-06T18:42:52Z</time>
      </trkpt>
      <trkpt lat="59.9745385" lon="17.7363328">
        <ele>28.9769</ele>
        <time>2014-05-06T18:42:53Z</time>
      </trkpt>
      <trkpt lat="59.9745488" lon="17.7363864">
        <ele>28.0155</ele>
        <time>2014-05-06T18:42:54Z</time>
      </trkpt>
      <trkpt lat="59.9745631" lon="17.7364348">
        <ele>28.0155</ele>
        <time>2014-05-06T18:42:55Z</time>
      </trkpt>
      <trkpt lat="59.9745768" lon="17.7364815">
        <ele>27.5349</ele>
        <time>2014-05-06T18:42:56Z</time>
      </trkpt>
      <trkpt lat="59.9745894" lon="17.7365341">
        <ele>27.5349</ele>
        <time>2014-05-06T18:42:57Z</time>
      </trkpt>
      <trkpt lat="59.974603" lon="17.7365813">
        <ele>27.0543</ele>
        <time>2014-05-06T18:42:58Z</time>
      </trkpt>
      <trkpt lat="59.9746212" lon="17.7366211">
        <ele>27.0543</ele>
        <time>2014-05-06T18:42:59Z</time>
      </trkpt>
      <trkpt lat="59.9746397" lon="17.7366679">
        <ele>27.0543</ele>
        <time>2014-05-06T18:43:00Z</time>
      </trkpt>
      <trkpt lat="59.9746543" lon="17.7367166">
        <ele>26.5736</ele>
        <time>2014-05-06T18:43:01Z</time>
      </trkpt>
      <trkpt lat="59.9746706" lon="17.7367623">
        <ele>26.5736</ele>
        <time>2014-05-06T18:43:02Z</time>
      </trkpt>
      <trkpt lat="59.97469" lon="17.7368108">
        <ele>26.5736</ele>
        <time>2014-05-06T18:43:03Z</time>
      </trkpt>
      <trkpt lat="59.9747082" lon="17.7368573">
        <ele>26.0929</ele>
        <time>2014-05-06T18:43:04Z</time>
      </trkpt>
      <trkpt lat="59.9747262" lon="17.7369051">
        <ele>25.1317</ele>
        <time>2014-05-06T18:43:05Z</time>
      </trkpt>
      <trkpt lat="59.9747467" lon="17.7369549">
        <ele>24.651</ele>
        <time>2014-05-06T18:43:06Z</time>
      </trkpt>
      <trkpt lat="59.9747652" lon="17.7369995">
        <ele>24.1703</ele>
        <time>2014-05-06T18:43:07Z</time>
      </trkpt>
      <trkpt lat="59.9747811" lon="17.7370438">
        <ele>24.1703</ele>
        <time>2014-05-06T18:43:08Z</time>
      </trkpt>
      <trkpt lat="59.9747982" lon="17.7370891">
        <ele>23.209</ele>
        <time>2014-05-06T18:43:09Z</time>
      </trkpt>
      <trkpt lat="59.9748184" lon="17.7371331">
        <ele>23.209</ele>
        <time>2014-05-06T18:43:10Z</time>
      </trkpt>
      <trkpt lat="59.9748348" lon="17.737177">
        <ele>23.209</ele>
        <time>2014-05-06T18:43:11Z</time>
      </trkpt>
      <trkpt lat="59.9748474" lon="17.7372186">
        <ele>22.7283</ele>
        <time>2014-05-06T18:43:12Z</time>
      </trkpt>
      <trkpt lat="59.974862" lon="17.7372605">
        <ele>22.7283</ele>
        <time>2014-05-06T18:43:13Z</time>
      </trkpt>
      <trkpt lat="59.9748788" lon="17.7373012">
        <ele>22.7283</ele>
        <time>2014-05-06T18:43:14Z</time>
      </trkpt>
      <trkpt lat="59.9749012" lon="17.7373425">
        <ele>22.7283</ele>
        <time>2014-05-06T18:43:15Z</time>
      </trkpt>
      <trkpt lat="59.9749216" lon="17.7373877">
        <ele>22.7283</ele>
        <time>2014-05-06T18:43:16Z</time>
      </trkpt>
      <trkpt lat="59.9749416" lon="17.7374325">
        <ele>22.7283</ele>
        <time>2014-05-06T18:43:17Z</time>
      </trkpt>
      <trkpt lat="59.974966" lon="17.7374753">
        <ele>22.7283</ele>
        <time>2014-05-06T18:43:18Z</time>
      </trkpt>
      <trkpt lat="59.9749874" lon="17.7375169">
        <ele>22.2476</ele>
        <time>2014-05-06T18:43:19Z</time>
      </trkpt>
      <trkpt lat="59.9750063" lon="17.7375552">
        <ele>21.767</ele>
        <time>2014-05-06T18:43:20Z</time>
      </trkpt>
      <trkpt lat="59.9750275" lon="17.7375929">
        <ele>21.767</ele>
        <time>2014-05-06T18:43:21Z</time>
      </trkpt>
      <trkpt lat="59.9750473" lon="17.7376299">
        <ele>21.767</ele>
        <time>2014-05-06T18:43:22Z</time>
      </trkpt>
      <trkpt lat="59.9750677" lon="17.7376703">
        <ele>20.8057</ele>
        <time>2014-05-06T18:43:23Z</time>
      </trkpt>
      <trkpt lat="59.9750918" lon="17.7377095">
        <ele>20.8057</ele>
        <time>2014-05-06T18:43:24Z</time>
      </trkpt>
      <trkpt lat="59.9751176" lon="17.7377504">
        <ele>21.2864</ele>
        <time>2014-05-06T18:43:25Z</time>
      </trkpt>
      <trkpt lat="59.9751445" lon="17.7377915">
        <ele>20.8057</ele>
        <time>2014-05-06T18:43:26Z</time>
      </trkpt>
      <trkpt lat="59.9751696" lon="17.7378261">
        <ele>19.8444</ele>
        <time>2014-05-06T18:43:27Z</time>
      </trkpt>
      <trkpt lat="59.9751934" lon="17.7378644">
        <ele>19.3638</ele>
        <time>2014-05-06T18:43:28Z</time>
      </trkpt>
      <trkpt lat="59.9752157" lon="17.7378993">
        <ele>19.3638</ele>
        <time>2014-05-06T18:43:29Z</time>
      </trkpt>
      <trkpt lat="59.9752362" lon="17.7379308">
        <ele>18.8831</ele>
        <time>2014-05-06T18:43:30Z</time>
      </trkpt>
      <trkpt lat="59.9752578" lon="17.7379672">
        <ele>18.4023</ele>
        <time>2014-05-06T18:43:31Z</time>
      </trkpt>
      <trkpt lat="59.9752805" lon="17.7380023">
        <ele>17.9218</ele>
        <time>2014-05-06T18:43:32Z</time>
      </trkpt>
      <trkpt lat="59.9753018" lon="17.7380391">
        <ele>17.4412</ele>
        <time>2014-05-06T18:43:33Z</time>
      </trkpt>
      <trkpt lat="59.9753218" lon="17.7380733">
        <ele>16.9604</ele>
        <time>2014-05-06T18:43:34Z</time>
      </trkpt>
      <trkpt lat="59.9753425" lon="17.7381044">
        <ele>16.4797</ele>
        <time>2014-05-06T18:43:35Z</time>
      </trkpt>
      <trkpt lat="59.9753655" lon="17.7381391">
        <ele>15.999</ele>
        <time>2014-05-06T18:43:36Z</time>
      </trkpt>
      <trkpt lat="59.9753887" lon="17.7381752">
        <ele>15.5184</ele>
        <time>2014-05-06T18:43:37Z</time>
      </trkpt>
      <trkpt lat="59.9754118" lon="17.7382127">
        <ele>15.5184</ele>
        <time>2014-05-06T18:43:38Z</time>
      </trkpt>
      <trkpt lat="59.9754343" lon="17.7382539">
        <ele>15.0377</ele>
        <time>2014-05-06T18:43:39Z</time>
      </trkpt>
      <trkpt lat="59.9754587" lon="17.7382911">
        <ele>15.0377</ele>
        <time>2014-05-06T18:43:40Z</time>
      </trkpt>
      <trkpt lat="59.9754808" lon="17.7383276">
        <ele>14.0764</ele>
        <time>2014-05-06T18:43:41Z</time>
      </trkpt>
      <trkpt lat="59.9755048" lon="17.7383661">
        <ele>14.0764</ele>
        <time>2014-05-06T18:43:42Z</time>
      </trkpt>
      <trkpt lat="59.9755284" lon="17.7384007">
        <ele>13.5958</ele>
        <time>2014-05-06T18:43:43Z</time>
      </trkpt>
      <trkpt lat="59.9755481" lon="17.7384354">
        <ele>13.5958</ele>
        <time>2014-05-06T18:43:44Z</time>
      </trkpt>
      <trkpt lat="59.9755664" lon="17.7384683">
        <ele>13.5958</ele>
        <time>2014-05-06T18:43:45Z</time>
      </trkpt>
      <trkpt lat="59.975587" lon="17.7385048">
        <ele>14.0764</ele>
        <time>2014-05-06T18:43:46Z</time>
      </trkpt>
      <trkpt lat="59.9756066" lon="17.7385409">
        <ele>14.0764</ele>
        <time>2014-05-06T18:43:47Z</time>
      </trkpt>
      <trkpt lat="59.9756295" lon="17.7385767">
        <ele>14.0764</ele>
        <time>2014-05-06T18:43:48Z</time>
      </trkpt>
      <trkpt lat="59.9756509" lon="17.7386156">
        <ele>14.0764</ele>
        <time>2014-05-06T18:43:49Z</time>
      </trkpt>
      <trkpt lat="59.9756719" lon="17.7386522">
        <ele>14.0764</ele>
        <time>2014-05-06T18:43:50Z</time>
      </trkpt>
      <trkpt lat="59.9756938" lon="17.7386876">
        <ele>14.557</ele>
        <time>2014-05-06T18:43:51Z</time>
      </trkpt>
      <trkpt lat="59.9757136" lon="17.7387252">
        <ele>14.0764</ele>
        <time>2014-05-06T18:43:52Z</time>
      </trkpt>
      <trkpt lat="59.9757354" lon="17.7387622">
        <ele>14.557</ele>
        <time>2014-05-06T18:43:53Z</time>
      </trkpt>
      <trkpt lat="59.9757574" lon="17.7387986">
        <ele>14.0764</ele>
        <time>2014-05-06T18:43:54Z</time>
      </trkpt>
      <trkpt lat="59.9757786" lon="17.7388361">
        <ele>15.0377</ele>
        <time>2014-05-06T18:43:55Z</time>
      </trkpt>
      <trkpt lat="59.9757962" lon="17.7388731">
        <ele>15.5184</ele>
        <time>2014-05-06T18:43:56Z</time>
      </trkpt>
      <trkpt lat="59.9758133" lon="17.738916">
        <ele>15.999</ele>
        <time>2014-05-06T18:43:57Z</time>
      </trkpt>
      <trkpt lat="59.9758319" lon="17.7389584">
        <ele>16.4797</ele>
        <time>2014-05-06T18:43:58Z</time>
      </trkpt>
      <trkpt lat="59.9758537" lon="17.738997">
        <ele>16.9604</ele>
        <time>2014-05-06T18:43:59Z</time>
      </trkpt>
      <trkpt lat="59.9758763" lon="17.7390362">
        <ele>16.9604</ele>
        <time>2014-05-06T18:44:00Z</time>
      </trkpt>
      <trkpt lat="59.9759005" lon="17.7390742">
        <ele>16.9604</ele>
        <time>2014-05-06T18:44:01Z</time>
      </trkpt>
      <trkpt lat="59.9759221" lon="17.7391123">
        <ele>16.9604</ele>
        <time>2014-05-06T18:44:02Z</time>
      </trkpt>
      <trkpt lat="59.9759429" lon="17.739149">
        <ele>16.9604</ele>
        <time>2014-05-06T18:44:03Z</time>
      </trkpt>
      <trkpt lat="59.9759631" lon="17.739192">
        <ele>17.4412</ele>
        <time>2014-05-06T18:44:04Z</time>
      </trkpt>
      <trkpt lat="59.9759819" lon="17.7392383">
        <ele>17.9218</ele>
        <time>2014-05-06T18:44:05Z</time>
      </trkpt>
      <trkpt lat="59.9760004" lon="17.7392774">
        <ele>17.9218</ele>
        <time>2014-05-06T18:44:06Z</time>
      </trkpt>
      <trkpt lat="59.9760188" lon="17.7393186">
        <ele>17.9218</ele>
        <time>2014-05-06T18:44:07Z</time>
      </trkpt>
      <trkpt lat="59.9760364" lon="17.7393627">
        <ele>18.4023</ele>
        <time>2014-05-06T18:44:08Z</time>
      </trkpt>
      <trkpt lat="59.976058" lon="17.7394029">
        <ele>18.8831</ele>
        <time>2014-05-06T18:44:09Z</time>
      </trkpt>
      <trkpt lat="59.976079" lon="17.7394434">
        <ele>18.8831</ele>
        <time>2014-05-06T18:44:10Z</time>
      </trkpt>
      <trkpt lat="59.9760994" lon="17.7394826">
        <ele>18.8831</ele>
        <time>2014-05-06T18:44:11Z</time>
      </trkpt>
      <trkpt lat="59.9761238" lon="17.7395221">
        <ele>18.8831</ele>
        <time>2014-05-06T18:44:12Z</time>
      </trkpt>
      <trkpt lat="59.976145" lon="17.7395594">
        <ele>18.8831</ele>
        <time>2014-05-06T18:44:13Z</time>
      </trkpt>
      <trkpt lat="59.9761625" lon="17.7395968">
        <ele>19.3638</ele>
        <time>2014-05-06T18:44:14Z</time>
      </trkpt>
      <trkpt lat="59.9761807" lon="17.7396339">
        <ele>19.3638</ele>
        <time>2014-05-06T18:44:15Z</time>
      </trkpt>
      <trkpt lat="59.9761982" lon="17.7396642">
        <ele>19.3638</ele>
        <time>2014-05-06T18:44:16Z</time>
      </trkpt>
      <trkpt lat="59.9762184" lon="17.7396931">
        <ele>19.3638</ele>
        <time>2014-05-06T18:44:17Z</time>
      </trkpt>
      <trkpt lat="59.9762409" lon="17.7397167">
        <ele>19.8444</ele>
        <time>2014-05-06T18:44:18Z</time>
      </trkpt>
      <trkpt lat="59.9762606" lon="17.7397387">
        <ele>19.8444</ele>
        <time>2014-05-06T18:44:19Z</time>
      </trkpt>
      <trkpt lat="59.9762786" lon="17.7397654">
        <ele>20.325</ele>
        <time>2014-05-06T18:44:20Z</time>
      </trkpt>
      <trkpt lat="59.9762995" lon="17.7397872">
        <ele>20.8057</ele>
        <time>2014-05-06T18:44:21Z</time>
      </trkpt>
      <trkpt lat="59.976323" lon="17.7398089">
        <ele>20.8057</ele>
        <time>2014-05-06T18:44:22Z</time>
      </trkpt>
      <trkpt lat="59.976348" lon="17.7398287">
        <ele>21.2864</ele>
        <time>2014-05-06T18:44:23Z</time>
      </trkpt>
      <trkpt lat="59.9763725" lon="17.7398356">
        <ele>21.2864</ele>
        <time>2014-05-06T18:44:24Z</time>
      </trkpt>
      <trkpt lat="59.9763989" lon="17.7398293">
        <ele>21.767</ele>
        <time>2014-05-06T18:44:25Z</time>
      </trkpt>
      <trkpt lat="59.9764227" lon="17.7398097">
        <ele>22.2476</ele>
        <time>2014-05-06T18:44:26Z</time>
      </trkpt>
      <trkpt lat="59.9764442" lon="17.739776">
        <ele>22.2476</ele>
        <time>2014-05-06T18:44:27Z</time>
      </trkpt>
      <trkpt lat="59.9764672" lon="17.7397409">
        <ele>22.2476</ele>
        <time>2014-05-06T18:44:28Z</time>
      </trkpt>
      <trkpt lat="59.976491" lon="17.739703">
        <ele>22.7283</ele>
        <time>2014-05-06T18:44:29Z</time>
      </trkpt>
      <trkpt lat="59.9765105" lon="17.7396564">
        <ele>23.6896</ele>
        <time>2014-05-06T18:44:30Z</time>
      </trkpt>
      <trkpt lat="59.9765325" lon="17.7396086">
        <ele>24.651</ele>
        <time>2014-05-06T18:44:31Z</time>
      </trkpt>
      <trkpt lat="59.9765556" lon="17.7395641">
        <ele>25.1317</ele>
        <time>2014-05-06T18:44:32Z</time>
      </trkpt>
      <trkpt lat="59.9765796" lon="17.7395263">
        <ele>25.1317</ele>
        <time>2014-05-06T18:44:33Z</time>
      </trkpt>
      <trkpt lat="59.9766076" lon="17.7394909">
        <ele>25.6123</ele>
        <time>2014-05-06T18:44:34Z</time>
      </trkpt>
      <trkpt lat="59.9766335" lon="17.7394578">
        <ele>26.0929</ele>
        <time>2014-05-06T18:44:35Z</time>
      </trkpt>
      <trkpt lat="59.9766587" lon="17.7394168">
        <ele>27.0543</ele>
        <time>2014-05-06T18:44:36Z</time>
      </trkpt>
      <trkpt lat="59.9766832" lon="17.7393878">
        <ele>27.5349</ele>
        <time>2014-05-06T18:44:37Z</time>
      </trkpt>
      <trkpt lat="59.976708" lon="17.7393678">
        <ele>28.0155</ele>
        <time>2014-05-06T18:44:38Z</time>
      </trkpt>
      <trkpt lat="59.9767345" lon="17.7393515">
        <ele>28.9769</ele>
        <time>2014-05-06T18:44:39Z</time>
      </trkpt>
      <trkpt lat="59.9767589" lon="17.7393357">
        <ele>30.4188</ele>
        <time>2014-05-06T18:44:40Z</time>
      </trkpt>
      <trkpt lat="59.9767837" lon="17.7393211">
        <ele>31.3801</ele>
        <time>2014-05-06T18:44:41Z</time>
      </trkpt>
      <trkpt lat="59.9768089" lon="17.739308">
        <ele>32.3416</ele>
        <time>2014-05-06T18:44:42Z</time>
      </trkpt>
      <trkpt lat="59.9768333" lon="17.7392968">
        <ele>32.8223</ele>
        <time>2014-05-06T18:44:43Z</time>
      </trkpt>
      <trkpt lat="59.9768604" lon="17.7392884">
        <ele>33.3029</ele>
        <time>2014-05-06T18:44:44Z</time>
      </trkpt>
      <trkpt lat="59.9768862" lon="17.7392769">
        <ele>33.3029</ele>
        <time>2014-05-06T18:44:45Z</time>
      </trkpt>
      <trkpt lat="59.9769153" lon="17.7392648">
        <ele>33.7834</ele>
        <time>2014-05-06T18:44:46Z</time>
      </trkpt>
      <trkpt lat="59.9769447" lon="17.7392544">
        <ele>34.2642</ele>
        <time>2014-05-06T18:44:47Z</time>
      </trkpt>
      <trkpt lat="59.9769729" lon="17.7392301">
        <ele>34.7449</ele>
        <time>2014-05-06T18:44:48Z</time>
      </trkpt>
      <trkpt lat="59.9770023" lon="17.739217">
        <ele>34.7449</ele>
        <time>2014-05-06T18:44:49Z</time>
      </trkpt>
      <trkpt lat="59.9770311" lon="17.7392">
        <ele>35.2255</ele>
        <time>2014-05-06T18:44:50Z</time>
      </trkpt>
      <trkpt lat="59.9770651" lon="17.7391834">
        <ele>35.7061</ele>
        <time>2014-05-06T18:44:51Z</time>
      </trkpt>
      <trkpt lat="59.9770977" lon="17.7391838">
        <ele>35.7061</ele>
        <time>2014-05-06T18:44:52Z</time>
      </trkpt>
      <trkpt lat="59.9771286" lon="17.7391699">
        <ele>36.6675</ele>
        <time>2014-05-06T18:44:53Z</time>
      </trkpt>
      <trkpt lat="59.9771575" lon="17.7391606">
        <ele>36.6675</ele>
        <time>2014-05-06T18:44:54Z</time>
      </trkpt>
      <trkpt lat="59.9771842" lon="17.7391415">
        <ele>37.1481</ele>
        <time>2014-05-06T18:44:55Z</time>
      </trkpt>
      <trkpt lat="59.9772116" lon="17.7391201">
        <ele>38.1094</ele>
        <time>2014-05-06T18:44:56Z</time>
      </trkpt>
      <trkpt lat="59.9772391" lon="17.7390923">
        <ele>38.5901</ele>
        <time>2014-05-06T18:44:57Z</time>
      </trkpt>
      <trkpt lat="59.9772664" lon="17.7390713">
        <ele>39.0707</ele>
        <time>2014-05-06T18:44:58Z</time>
      </trkpt>
      <trkpt lat="59.977293" lon="17.7390573">
        <ele>39.0707</ele>
        <time>2014-05-06T18:44:59Z</time>
      </trkpt>
      <trkpt lat="59.9773214" lon="17.7390368">
        <ele>39.5513</ele>
        <time>2014-05-06T18:45:00Z</time>
      </trkpt>
      <trkpt lat="59.9773497" lon="17.7390241">
        <ele>39.5513</ele>
        <time>2014-05-06T18:45:01Z</time>
      </trkpt>
      <trkpt lat="59.9773767" lon="17.7390078">
        <ele>40.0321</ele>
        <time>2014-05-06T18:45:02Z</time>
      </trkpt>
      <trkpt lat="59.9774031" lon="17.7389839">
        <ele>40.5128</ele>
        <time>2014-05-06T18:45:03Z</time>
      </trkpt>
      <trkpt lat="59.9774314" lon="17.7389637">
        <ele>40.9934</ele>
        <time>2014-05-06T18:45:04Z</time>
      </trkpt>
      <trkpt lat="59.977459" lon="17.7389414">
        <ele>41.9547</ele>
        <time>2014-05-06T18:45:05Z</time>
      </trkpt>
      <trkpt lat="59.9774878" lon="17.7389172">
        <ele>42.4354</ele>
        <time>2014-05-06T18:45:06Z</time>
      </trkpt>
      <trkpt lat="59.9775157" lon="17.7388974">
        <ele>42.916</ele>
        <time>2014-05-06T18:45:07Z</time>
      </trkpt>
      <trkpt lat="59.9775463" lon="17.738874">
        <ele>43.3966</ele>
        <time>2014-05-06T18:45:08Z</time>
      </trkpt>
      <trkpt lat="59.9775689" lon="17.7388675">
        <ele>44.358</ele>
        <time>2014-05-06T18:45:09Z</time>
      </trkpt>
      <trkpt lat="59.9775885" lon="17.7388585">
        <ele>44.8386</ele>
        <time>2014-05-06T18:45:10Z</time>
      </trkpt>
      <trkpt lat="59.9776088" lon="17.7388507">
        <ele>44.8386</ele>
        <time>2014-05-06T18:45:11Z</time>
      </trkpt>
      <trkpt lat="59.9776276" lon="17.738848">
        <ele>45.3192</ele>
        <time>2014-05-06T18:45:12Z</time>
      </trkpt>
      <trkpt lat="59.9776503" lon="17.7388457">
        <ele>45.7999</ele>
        <time>2014-05-06T18:45:13Z</time>
      </trkpt>
      <trkpt lat="59.9776751" lon="17.7388456">
        <ele>45.7999</ele>
        <time>2014-05-06T18:45:14Z</time>
      </trkpt>
      <trkpt lat="59.9777001" lon="17.7388403">
        <ele>45.7999</ele>
        <time>2014-05-06T18:45:15Z</time>
      </trkpt>
      <trkpt lat="59.9777244" lon="17.7388373">
        <ele>46.2806</ele>
        <time>2014-05-06T18:45:16Z</time>
      </trkpt>
      <trkpt lat="59.9777463" lon="17.7388416">
        <ele>46.2806</ele>
        <time>2014-05-06T18:45:17Z</time>
      </trkpt>
      <trkpt lat="59.9777686" lon="17.7388558">
        <ele>46.2806</ele>
        <time>2014-05-06T18:45:18Z</time>
      </trkpt>
      <trkpt lat="59.9777926" lon="17.7388642">
        <ele>46.7612</ele>
        <time>2014-05-06T18:45:19Z</time>
      </trkpt>
      <trkpt lat="59.9778156" lon="17.7388715">
        <ele>46.7612</ele>
        <time>2014-05-06T18:45:20Z</time>
      </trkpt>
      <trkpt lat="59.97784" lon="17.7388833">
        <ele>46.7612</ele>
        <time>2014-05-06T18:45:21Z</time>
      </trkpt>
      <trkpt lat="59.9778651" lon="17.738906">
        <ele>47.2418</ele>
        <time>2014-05-06T18:45:22Z</time>
      </trkpt>
      <trkpt lat="59.9778918" lon="17.7389311">
        <ele>47.7225</ele>
        <time>2014-05-06T18:45:23Z</time>
      </trkpt>
      <trkpt lat="59.9779161" lon="17.7389493">
        <ele>48.2034</ele>
        <time>2014-05-06T18:45:24Z</time>
      </trkpt>
      <trkpt lat="59.9779397" lon="17.7389678">
        <ele>48.684</ele>
        <time>2014-05-06T18:45:25Z</time>
      </trkpt>
      <trkpt lat="59.9779641" lon="17.738989">
        <ele>49.1646</ele>
        <time>2014-05-06T18:45:26Z</time>
      </trkpt>
      <trkpt lat="59.9779922" lon="17.7390015">
        <ele>49.1646</ele>
        <time>2014-05-06T18:45:27Z</time>
      </trkpt>
      <trkpt lat="59.9780174" lon="17.7390156">
        <ele>49.6453</ele>
        <time>2014-05-06T18:45:28Z</time>
      </trkpt>
      <trkpt lat="59.9780435" lon="17.7390387">
        <ele>50.126</ele>
        <time>2014-05-06T18:45:29Z</time>
      </trkpt>
      <trkpt lat="59.9780731" lon="17.7390581">
        <ele>50.126</ele>
        <time>2014-05-06T18:45:30Z</time>
      </trkpt>
      <trkpt lat="59.978101" lon="17.7390766">
        <ele>50.6066</ele>
        <time>2014-05-06T18:45:31Z</time>
      </trkpt>
      <trkpt lat="59.9781285" lon="17.7390907">
        <ele>50.6066</ele>
        <time>2014-05-06T18:45:32Z</time>
      </trkpt>
      <trkpt lat="59.978157" lon="17.7390963">
        <ele>51.0872</ele>
        <time>2014-05-06T18:45:33Z</time>
      </trkpt>
      <trkpt lat="59.9781828" lon="17.7391077">
        <ele>51.0872</ele>
        <time>2014-05-06T18:45:34Z</time>
      </trkpt>
      <trkpt lat="59.9782047" lon="17.7391248">
        <ele>51.5679</ele>
        <time>2014-05-06T18:45:35Z</time>
      </trkpt>
      <trkpt lat="59.9782284" lon="17.7391284">
        <ele>51.5679</ele>
        <time>2014-05-06T18:45:36Z</time>
      </trkpt>
      <trkpt lat="59.9782559" lon="17.7391316">
        <ele>52.5292</ele>
        <time>2014-05-06T18:45:37Z</time>
      </trkpt>
      <trkpt lat="59.9782829" lon="17.7391312">
        <ele>52.5292</ele>
        <time>2014-05-06T18:45:38Z</time>
      </trkpt>
      <trkpt lat="59.9783118" lon="17.7391365">
        <ele>52.5292</ele>
        <time>2014-05-06T18:45:39Z</time>
      </trkpt>
      <trkpt lat="59.9783404" lon="17.7391403">
        <ele>52.5292</ele>
        <time>2014-05-06T18:45:40Z</time>
      </trkpt>
      <trkpt lat="59.9783672" lon="17.7391454">
        <ele>52.0486</ele>
        <time>2014-05-06T18:45:41Z</time>
      </trkpt>
      <trkpt lat="59.9783937" lon="17.7391474">
        <ele>52.0486</ele>
        <time>2014-05-06T18:45:42Z</time>
      </trkpt>
      <trkpt lat="59.9784253" lon="17.739141">
        <ele>52.0486</ele>
        <time>2014-05-06T18:45:43Z</time>
      </trkpt>
      <trkpt lat="59.9784559" lon="17.7391455">
        <ele>52.0486</ele>
        <time>2014-05-06T18:45:44Z</time>
      </trkpt>
      <trkpt lat="59.9784839" lon="17.7391549">
        <ele>52.0486</ele>
        <time>2014-05-06T18:45:45Z</time>
      </trkpt>
      <trkpt lat="59.9785143" lon="17.7391642">
        <ele>52.0486</ele>
        <time>2014-05-06T18:45:46Z</time>
      </trkpt>
      <trkpt lat="59.9785455" lon="17.7391782">
        <ele>52.0486</ele>
        <time>2014-05-06T18:45:47Z</time>
      </trkpt>
      <trkpt lat="59.9785782" lon="17.7391873">
        <ele>52.5292</ele>
        <time>2014-05-06T18:45:48Z</time>
      </trkpt>
      <trkpt lat="59.9786046" lon="17.7391942">
        <ele>52.0486</ele>
        <time>2014-05-06T18:45:49Z</time>
      </trkpt>
      <trkpt lat="59.9786299" lon="17.7392005">
        <ele>52.5292</ele>
        <time>2014-05-06T18:45:50Z</time>
      </trkpt>
      <trkpt lat="59.9786587" lon="17.7392023">
        <ele>52.5292</ele>
        <time>2014-05-06T18:45:51Z</time>
      </trkpt>
      <trkpt lat="59.9786874" lon="17.7392108">
        <ele>52.0486</ele>
        <time>2014-05-06T18:45:52Z</time>
      </trkpt>
      <trkpt lat="59.978718" lon="17.7392192">
        <ele>52.0486</ele>
        <time>2014-05-06T18:45:53Z</time>
      </trkpt>
      <trkpt lat="59.9787464" lon="17.739229">
        <ele>52.5292</ele>
        <time>2014-05-06T18:45:54Z</time>
      </trkpt>
      <trkpt lat="59.978777" lon="17.7392314">
        <ele>52.5292</ele>
        <time>2014-05-06T18:45:55Z</time>
      </trkpt>
      <trkpt lat="59.9788072" lon="17.7392282">
        <ele>52.5292</ele>
        <time>2014-05-06T18:45:56Z</time>
      </trkpt>
      <trkpt lat="59.9788377" lon="17.7392321">
        <ele>52.0486</ele>
        <time>2014-05-06T18:45:57Z</time>
      </trkpt>
      <trkpt lat="59.9788672" lon="17.739241">
        <ele>52.0486</ele>
        <time>2014-05-06T18:45:58Z</time>
      </trkpt>
      <trkpt lat="59.9788991" lon="17.7392512">
        <ele>51.5679</ele>
        <time>2014-05-06T18:45:59Z</time>
      </trkpt>
      <trkpt lat="59.9789284" lon="17.7392678">
        <ele>51.5679</ele>
        <time>2014-05-06T18:46:00Z</time>
      </trkpt>
    </trkseg>
  </trk>
</gpx>